Darstellungsparameter: Aktuell verwendete Einstellungen:
Skalierung der Graphiken ... ?
xyx+y,   Skalierungsfaktor:      Skalierung: Modus: x, Faktor: 1
Darstellungszeitraum ... ?
Vom - - bis: - -   Zeitraum: 06.12.2008 - 05.06.2009
Min/Max/Avg-Anzeige ... ?
Zeige MMA aktuell
Zeige MMA Monat
Zeige MMA alles
Zeige --A aktuell
Zeige --A Monat
Zeige --A alles
Keine MMA-Anzeige
MMA:
Keine MMA-Graphiken
MMA-Basis: 06.12.2008 - 05.06.2009
Quicknavigation für Darstellung... ?
Tage:      1T, 2T, 3T, 5T -1T -2T -3T -5T +1T +2T +3T +5T
Wochen: 1W, 2W, 3W -1W -2W -3W +1W +2W +3W
Monate: 1M, 3M, 6M -1M -3M -6M +1M +3M +6M
Jahre:    1J, 3J, 5J, 10J -1J -3J -5J -10J +1J +3J +5J +10J
Nutze für die Darstellung ... ?
Originaldaten oder Mittelwerte auf ...
Stundenbasis Tagesbasis Wochenbasis
Monatsbasis Jahresbasis      Datenbasis: Original-Daten
Darstellen als:
Statistik (Auto) Statistik J:M      Darstellung:
Zur Graphik,    zurück zur Übersicht aller Sensoren.
 
Tabellarische Datenbersicht: ?
 
Sensor: Nr:Datum:Temp:Abs-Feuchte:Windchill:Wind:
Aussen-T/F 1 06-12-2008 00:01:02 4.8 C 5.97 g/m*3 4.8 C 0 km/h
2 06-12-2008 00:13:02 4.6 C 5.89 g/m*3 4.6 C 0 km/h
3 06-12-2008 00:25:02 4.6 C 5.96 g/m*3 4.6 C 0 km/h
4 06-12-2008 00:37:02 4.6 C 6.02 g/m*3 4.6 C 0 km/h
5 06-12-2008 00:49:02 4.5 C 5.98 g/m*3 4.5 C 0 km/h
6 06-12-2008 01:01:02 4.4 C 5.88 g/m*3 4.4 C 0 km/h
7 06-12-2008 01:13:02 4.2 C 5.8 g/m*3 4.2 C 0 km/h
8 06-12-2008 01:25:02 4.1 C 5.76 g/m*3 4.1 C 0 km/h
9 06-12-2008 01:37:02 4 C 5.66 g/m*3 4 C 0 km/h
10 06-12-2008 01:49:02 4 C 5.72 g/m*3 4 C 0 km/h
11 06-12-2008 02:01:02 4.1 C 5.76 g/m*3 4.1 C 0 km/h
12 06-12-2008 02:13:02 4.1 C 5.76 g/m*3 4.1 C 0 km/h
13 06-12-2008 02:25:03 4.3 C 5.77 g/m*3 4.3 C 0 km/h
14 06-12-2008 02:37:03 4.4 C 5.75 g/m*3 4.4 C 0 km/h
15 06-12-2008 02:49:03 4.5 C 5.65 g/m*3 4.5 C 0 km/h
16 06-12-2008 03:01:03 4.6 C 5.62 g/m*3 4.6 C 0 km/h
17 06-12-2008 03:13:03 4.4 C 5.48 g/m*3 4.4 C 0 km/h
18 06-12-2008 03:25:03 4.2 C 5.48 g/m*3 4.2 C 0 km/h
19 06-12-2008 03:37:03 4.4 C 5.62 g/m*3 4.4 C 0 km/h
20 06-12-2008 03:49:03 4.5 C 5.59 g/m*3 4.5 C 0 km/h
21 06-12-2008 04:01:03 4.5 C 5.65 g/m*3 4.5 C 0 km/h
22 06-12-2008 04:13:03 4.5 C 5.65 g/m*3 4.5 C 0 km/h
23 06-12-2008 04:25:03 4.5 C 5.72 g/m*3 4.5 C 0 km/h
24 06-12-2008 04:37:03 4.6 C 5.69 g/m*3 4.6 C 0 km/h
25 06-12-2008 04:49:03 4.7 C 5.73 g/m*3 4.7 C 0 km/h
Sensor: Nr:Datum:Temp:Abs-Feuchte:Windchill:Wind:
Aussen-T/F 26 06-12-2008 05:01:03 4.7 C 5.66 g/m*3 4.7 C 0 km/h
27 06-12-2008 05:13:03 4.7 C 5.66 g/m*3 4.7 C 0 km/h
28 06-12-2008 05:25:03 4.6 C 5.62 g/m*3 4.6 C 0 km/h
29 06-12-2008 05:37:03 4.5 C 5.59 g/m*3 4.5 C 0 km/h
30 06-12-2008 05:49:03 4.8 C 5.63 g/m*3 4.8 C 0 km/h
31 06-12-2008 06:01:03 4.7 C 5.6 g/m*3 4.7 C 0 km/h
32 06-12-2008 06:13:03 4.8 C 5.63 g/m*3 4.8 C 0 km/h
33 06-12-2008 06:25:03 5 C 5.64 g/m*3 5 C 0 km/h
34 06-12-2008 06:37:04 4.8 C 5.63 g/m*3 4.8 C 0 km/h
35 06-12-2008 06:49:04 4.8 C 5.63 g/m*3 4.8 C 0 km/h
36 06-12-2008 07:01:04 4.8 C 5.63 g/m*3 4.8 C 0 km/h
37 06-12-2008 07:13:04 4.7 C 5.66 g/m*3 4.7 C 0 km/h
38 06-12-2008 07:25:04 4.8 C 5.7 g/m*3 4.8 C 0 km/h
39 06-12-2008 07:37:04 4.7 C 5.73 g/m*3 4.7 C 0 km/h
40 06-12-2008 07:49:04 4.6 C 5.69 g/m*3 4.6 C 0 km/h
41 06-12-2008 08:01:04 4.6 C 5.82 g/m*3 4.6 C 0 km/h
42 06-12-2008 08:13:04 4.5 C 5.78 g/m*3 4.5 C 0 km/h
43 06-12-2008 08:25:02 4.4 C 5.81 g/m*3 4.4 C 0 km/h
44 06-12-2008 08:37:02 4.4 C 5.88 g/m*3 4.4 C 0 km/h
45 06-12-2008 08:49:02 4.4 C 5.94 g/m*3 4.4 C 0 km/h
46 06-12-2008 09:01:37 4.5 C 5.98 g/m*3 4.5 C 0 km/h
47 06-12-2008 09:13:37 4.5 C 5.98 g/m*3 4.5 C 0 km/h
48 06-12-2008 09:25:37 4.5 C 5.98 g/m*3 4.5 C 0 km/h
49 06-12-2008 09:37:37 4.6 C 6.02 g/m*3 4.6 C 0 km/h
50 06-12-2008 09:49:37 4.6 C 6.02 g/m*3 4.6 C 0 km/h
Sensor: Nr:Datum:Temp:Abs-Feuchte:Windchill:Wind:
Aussen-T/F 51 06-12-2008 10:01:37 4.8 C 6.1 g/m*3 4.8 C 0 km/h
52 06-12-2008 10:13:37 5 C 6.12 g/m*3 5 C 0 km/h
53 06-12-2008 10:25:37 5.3 C 6.17 g/m*3 5.3 C 0 km/h
54 06-12-2008 10:37:37 5.4 C 6.07 g/m*3 5.4 C 0 km/h
55 06-12-2008 10:49:37 5.4 C 5.93 g/m*3 5.4 C 0 km/h
56 06-12-2008 11:01:37 5.4 C 5.79 g/m*3 5.4 C 0 km/h
57 06-12-2008 11:13:37 5.5 C 5.76 g/m*3 5.5 C 0 km/h
58 06-12-2008 11:25:38 5.7 C 5.84 g/m*3 5.7 C 0 km/h
59 06-12-2008 11:37:38 5.9 C 5.84 g/m*3 5.9 C 0 km/h
60 06-12-2008 11:49:38 6 C 5.66 g/m*3 6 C 0 km/h
61 06-12-2008 12:01:38 5.9 C 5.7 g/m*3 5.9 C 0 km/h
62 06-12-2008 12:13:38 5.7 C 5.62 g/m*3 5.7 C 0 km/h
63 06-12-2008 12:25:38 5.7 C 5.62 g/m*3 5.7 C 0 km/h
64 06-12-2008 12:37:38 5.5 C 5.62 g/m*3 5.5 C 0 km/h
65 06-12-2008 12:49:38 5.3 C 5.61 g/m*3 5.3 C 0 km/h
66 06-12-2008 13:01:38 5.2 C 5.71 g/m*3 5.2 C 0 km/h
67 06-12-2008 13:13:38 5.2 C 5.85 g/m*3 5.2 C 0 km/h
68 06-12-2008 13:25:38 5.1 C 5.75 g/m*3 5.1 C 0 km/h
69 06-12-2008 13:37:38 4.9 C 5.87 g/m*3 4.9 C 0 km/h
70 06-12-2008 13:49:38 4.9 C 5.94 g/m*3 4.9 C 0 km/h
71 06-12-2008 14:01:38 4.9 C 5.87 g/m*3 4.9 C 0 km/h
72 06-12-2008 14:13:38 5.1 C 5.95 g/m*3 5.1 C 0 km/h
73 06-12-2008 14:25:38 5.2 C 5.92 g/m*3 5.2 C 0 km/h
74 06-12-2008 14:37:38 5.3 C 5.96 g/m*3 5.3 C 0 km/h
75 06-12-2008 14:49:38 5.3 C 5.89 g/m*3 5.3 C 0 km/h
Sensor: Nr:Datum:Temp:Abs-Feuchte:Windchill:Wind:
Aussen-T/F 76 06-12-2008 15:01:01 5.3 C 5.89 g/m*3 5.3 C 0 km/h
77 06-12-2008 15:13:01 5.2 C 5.85 g/m*3 5.2 C 0 km/h
78 06-12-2008 15:25:02 5.2 C 5.92 g/m*3 5.2 C 0 km/h
79 06-12-2008 15:37:03 5.2 C 5.92 g/m*3 5.2 C 0 km/h
80 06-12-2008 15:49:02 5.2 C 5.92 g/m*3 5.2 C 0 km/h
81 06-12-2008 16:01:08 5 C 5.84 g/m*3 5 C 0 km/h
82 06-12-2008 16:13:08 5 C 5.91 g/m*3 5 C 0 km/h
83 06-12-2008 16:25:02 5 C 5.98 g/m*3 5 C 0 km/h
84 06-12-2008 16:37:01 5 C 5.98 g/m*3 5 C 0 km/h
85 06-12-2008 16:49:02 5 C 5.98 g/m*3 5 C 0 km/h
86 06-12-2008 17:01:01 5 C 6.05 g/m*3 5 C 0 km/h
87 06-12-2008 17:13:01 5 C 6.05 g/m*3 5 C 0 km/h
88 06-12-2008 17:25:01 5 C 6.05 g/m*3 5 C 0 km/h
89 06-12-2008 17:37:01 5 C 6.12 g/m*3 5 C 0 km/h
90 06-12-2008 17:49:01 5 C 6.12 g/m*3 5 C 0 km/h
91 06-12-2008 18:01:00 5 C 6.12 g/m*3 5 C 0 km/h
92 06-12-2008 18:13:00 4.9 C 6.14 g/m*3 4.9 C 0 km/h
93 06-12-2008 18:25:00 4.9 C 6.21 g/m*3 4.9 C 0 km/h
94 06-12-2008 18:37:01 4.9 C 6.21 g/m*3 4.9 C 0 km/h
95 06-12-2008 18:49:01 4.8 C 6.17 g/m*3 4.8 C 0 km/h
96 06-12-2008 19:01:00 4.7 C 6.13 g/m*3 4.7 C 0 km/h
97 06-12-2008 19:13:00 4.5 C 6.05 g/m*3 4.5 C 0 km/h
98 06-12-2008 19:25:00 4.3 C 6.03 g/m*3 4.3 C 0 km/h
99 06-12-2008 19:37:00 4 C 5.85 g/m*3 4 C 0 km/h
100 06-12-2008 19:49:00 4 C 5.85 g/m*3 4 C 0 km/h
Sensor: Nr:Datum:Temp:Abs-Feuchte:Windchill:Wind:
Aussen-T/F 101 06-12-2008 20:01:00 4.3 C 6.03 g/m*3 4.3 C 0 km/h
102 06-12-2008 20:13:00 4.4 C 6.14 g/m*3 4.4 C 0 km/h
103 06-12-2008 20:25:59 4.4 C 6.14 g/m*3 4.4 C 0 km/h
104 06-12-2008 20:37:00 4.4 C 6.14 g/m*3 4.4 C 0 km/h
105 06-12-2008 20:49:59 4.1 C 6.02 g/m*3 4.1 C 0 km/h
106 06-12-2008 21:01:59 3.9 C 6 g/m*3 3.9 C 0 km/h
107 06-12-2008 21:13:59 4 C 5.98 g/m*3 4 C 0 km/h
108 06-12-2008 21:25:59 4.1 C 6.08 g/m*3 4.1 C 0 km/h
109 06-12-2008 21:37:59 4.2 C 6.12 g/m*3 4.2 C 0 km/h
110 06-12-2008 21:49:58 4.3 C 6.16 g/m*3 4.3 C 0 km/h
111 06-12-2008 22:01:58 4.3 C 6.16 g/m*3 4.3 C 0 km/h
112 06-12-2008 22:13:58 4.4 C 6.2 g/m*3 4.4 C 0 km/h
113 06-12-2008 22:25:58 4.4 C 6.2 g/m*3 4.4 C 0 km/h
114 06-12-2008 22:37:58 4.4 C 6.2 g/m*3 4.4 C 0 km/h
115 06-12-2008 22:49:58 4.4 C 6.2 g/m*3 4.4 C 0 km/h
116 06-12-2008 23:02:58 4.4 C 6.2 g/m*3 4.4 C 0 km/h
117 06-12-2008 23:14:58 4.4 C 6.2 g/m*3 4.4 C 0 km/h
118 06-12-2008 23:26:58 4.4 C 6.2 g/m*3 4.4 C 0 km/h
119 06-12-2008 23:38:58 4.3 C 6.16 g/m*3 4.3 C 0 km/h
120 06-12-2008 23:50:58 4.3 C 6.16 g/m*3 4.3 C 0 km/h
121 07-12-2008 00:02:58 4.4 C 6.2 g/m*3 4.4 C 0 km/h
122 07-12-2008 00:14:58 4.4 C 6.2 g/m*3 4.4 C 0 km/h
123 07-12-2008 00:26:59 4.4 C 6.2 g/m*3 4.4 C 0 km/h
124 07-12-2008 00:38:59 4.4 C 6.2 g/m*3 4.4 C 0 km/h
125 07-12-2008 00:50:59 4.4 C 6.2 g/m*3 4.4 C 0 km/h
Sensor: Nr:Datum:Temp:Abs-Feuchte:Windchill:Wind:
Aussen-T/F 126 07-12-2008 01:02:59 4.5 C 6.24 g/m*3 4.5 C 0 km/h
127 07-12-2008 01:14:59 4.5 C 6.24 g/m*3 4.5 C 0 km/h
128 07-12-2008 01:26:59 4.5 C 6.24 g/m*3 4.5 C 0 km/h
129 07-12-2008 01:38:59 4.5 C 6.24 g/m*3 4.5 C 0 km/h
130 07-12-2008 01:50:59 4.5 C 6.24 g/m*3 4.5 C 0 km/h
131 07-12-2008 02:02:59 4.4 C 6.2 g/m*3 4.4 C 0 km/h
132 07-12-2008 02:14:59 4.4 C 6.2 g/m*3 4.4 C 0 km/h
133 07-12-2008 02:26:59 4.4 C 6.2 g/m*3 4.4 C 0 km/h
134 07-12-2008 02:38:59 4.4 C 6.2 g/m*3 4.4 C 0 km/h
135 07-12-2008 02:50:59 4.4 C 6.14 g/m*3 4.4 C 0 km/h
136 07-12-2008 03:02:59 4.4 C 6.14 g/m*3 4.4 C 0 km/h
137 07-12-2008 03:14:59 4.4 C 6.07 g/m*3 4.4 C 0 km/h
138 07-12-2008 03:26:59 4.3 C 6.03 g/m*3 4.3 C 0 km/h
139 07-12-2008 03:38:59 4.2 C 5.93 g/m*3 4.2 C 0 km/h
140 07-12-2008 03:50:59 4.1 C 5.95 g/m*3 4.1 C 0 km/h
141 07-12-2008 04:13:59 4.1 C 5.95 g/m*3 4.1 C 0 km/h
142 07-12-2008 04:26:00 4.1 C 6.02 g/m*3 4.1 C 0 km/h
143 07-12-2008 04:38:00 4.1 C 6.02 g/m*3 4.1 C 0 km/h
144 07-12-2008 04:50:00 4.2 C 6.06 g/m*3 4.2 C 0 km/h
145 07-12-2008 05:02:00 4.2 C 6.12 g/m*3 4.2 C 0 km/h
146 07-12-2008 05:14:00 4.2 C 6.12 g/m*3 4.2 C 0 km/h
147 07-12-2008 05:26:00 4.3 C 6.16 g/m*3 4.3 C 0 km/h
148 07-12-2008 05:38:00 4.3 C 6.16 g/m*3 4.3 C 0 km/h
149 07-12-2008 05:50:00 4.4 C 6.2 g/m*3 4.4 C 0 km/h
150 07-12-2008 06:02:00 4.4 C 6.2 g/m*3 4.4 C 0 km/h
Sensor: Nr:Datum:Temp:Abs-Feuchte:Windchill:Wind:
Aussen-T/F 151 07-12-2008 06:14:00 4.4 C 6.2 g/m*3 4.4 C 0 km/h
152 07-12-2008 06:26:00 4.3 C 6.16 g/m*3 4.3 C 0 km/h
153 07-12-2008 06:38:00 4.4 C 6.2 g/m*3 4.4 C 0 km/h
154 07-12-2008 06:50:00 4.4 C 6.2 g/m*3 4.4 C 0 km/h
155 07-12-2008 07:02:00 4.4 C 6.2 g/m*3 4.4 C 0 km/h
156 07-12-2008 07:14:00 4.4 C 6.2 g/m*3 4.4 C 0 km/h
157 07-12-2008 07:26:00 4.5 C 6.24 g/m*3 4.5 C 0 km/h
158 07-12-2008 07:38:00 4.5 C 6.24 g/m*3 4.5 C 0 km/h
159 07-12-2008 07:50:00 4.6 C 6.29 g/m*3 4.6 C 0 km/h
160 07-12-2008 08:02:00 4.6 C 6.29 g/m*3 4.6 C 0 km/h
161 07-12-2008 08:14:00 4.6 C 6.29 g/m*3 4.6 C 0 km/h
162 07-12-2008 08:14:02 4.7 C 6.33 g/m*3 4.7 C 0 km/h
163 07-12-2008 08:26:02 4.7 C 6.33 g/m*3 4.7 C 0 km/h
164 07-12-2008 08:38:03 4.7 C 6.33 g/m*3 4.7 C 0 km/h
165 07-12-2008 08:50:02 4.7 C 6.33 g/m*3 4.7 C 0 km/h
166 07-12-2008 09:02:03 4.8 C 6.3 g/m*3 4.8 C 0 km/h
167 07-12-2008 09:14:03 4.8 C 6.3 g/m*3 4.8 C 0 km/h
168 07-12-2008 09:26:02 4.8 C 6.3 g/m*3 4.8 C 0 km/h
169 07-12-2008 09:38:02 4.8 C 6.3 g/m*3 4.8 C 0 km/h
170 07-12-2008 09:50:01 4.8 C 6.3 g/m*3 4.8 C 0 km/h
171 07-12-2008 10:02:02 4.8 C 6.3 g/m*3 4.8 C 0 km/h
172 07-12-2008 10:14:02 4.8 C 6.3 g/m*3 4.8 C 0 km/h
173 07-12-2008 10:26:02 4.8 C 6.3 g/m*3 4.8 C 0 km/h
174 07-12-2008 10:38:01 4.8 C 6.3 g/m*3 4.8 C 0 km/h
175 07-12-2008 10:50:01 5 C 6.32 g/m*3 5 C 0 km/h
Sensor: Nr:Datum:Temp:Abs-Feuchte:Windchill:Wind:
Aussen-T/F 176 07-12-2008 11:02:01 5 C 6.32 g/m*3 5 C 0 km/h
177 07-12-2008 11:14:01 5.1 C 6.36 g/m*3 5.1 C 0 km/h
178 07-12-2008 11:26:01 5.3 C 6.45 g/m*3 5.3 C 0 km/h
179 07-12-2008 11:38:01 5.3 C 6.45 g/m*3 5.3 C 0 km/h
180 07-12-2008 11:50:01 5.7 C 6.62 g/m*3 5.7 C 0 km/h
181 07-12-2008 12:02:01 5.6 C 6.43 g/m*3 5.6 C 0 km/h
182 07-12-2008 12:14:01 5.8 C 6.38 g/m*3 5.8 C 0 km/h
183 07-12-2008 12:26:00 5.7 C 6.26 g/m*3 5.7 C 0 km/h
184 07-12-2008 12:38:01 5.9 C 6.2 g/m*3 5.9 C 0 km/h
185 07-12-2008 12:50:00 6.1 C 6.14 g/m*3 6.1 C 0 km/h
186 07-12-2008 13:02:00 6.1 C 6.06 g/m*3 6.1 C 0 km/h
187 07-12-2008 13:14:00 6 C 6.02 g/m*3 6 C 0 km/h
188 07-12-2008 13:26:00 6 C 6.02 g/m*3 6 C 0 km/h
189 07-12-2008 13:38:01 5.8 C 6.09 g/m*3 5.8 C 0 km/h
190 07-12-2008 13:50:00 6 C 6.02 g/m*3 6 C 0 km/h
191 07-12-2008 14:02:00 5.7 C 5.91 g/m*3 5.7 C 0 km/h
192 07-12-2008 14:14:00 5.6 C 5.94 g/m*3 5.6 C 0 km/h
193 07-12-2008 14:26:00 5.7 C 5.98 g/m*3 5.7 C 0 km/h
194 07-12-2008 14:38:00 5.8 C 5.8 g/m*3 5.8 C 0 km/h
195 07-12-2008 14:50:59 5.8 C 5.73 g/m*3 5.8 C 0 km/h
196 07-12-2008 15:02:00 5.9 C 5.7 g/m*3 5.9 C 0 km/h
197 07-12-2008 15:14:00 5.8 C 5.66 g/m*3 5.8 C 0 km/h
198 07-12-2008 15:26:59 5.8 C 5.66 g/m*3 5.8 C 0 km/h
199 07-12-2008 15:38:59 5.4 C 5.58 g/m*3 5.4 C 0 km/h
200 07-12-2008 15:50:00 5 C 5.5 g/m*3 5 C 0 km/h
Sensor: Nr:Datum:Temp:Abs-Feuchte:Windchill:Wind:
Aussen-T/F 201 07-12-2008 16:02:59 4.7 C 5.6 g/m*3 4.7 C 0 km/h
202 07-12-2008 16:14:59 4.3 C 5.51 g/m*3 4.3 C 0 km/h
203 07-12-2008 16:26:59 4.1 C 5.5 g/m*3 4.1 C 0 km/h
204 07-12-2008 16:38:59 3.7 C 5.42 g/m*3 3.7 C 0 km/h
205 07-12-2008 16:50:59 3.5 C 5.41 g/m*3 3.5 C 0 km/h
206 07-12-2008 17:02:58 3.3 C 5.34 g/m*3 3.3 C 0 km/h
207 07-12-2008 17:14:59 3.1 C 5.33 g/m*3 3.1 C 0 km/h
208 07-12-2008 17:26:59 2.9 C 5.32 g/m*3 2.9 C 0 km/h
209 07-12-2008 17:38:59 2.8 C 5.28 g/m*3 2.8 C 0 km/h
210 07-12-2008 17:50:58 2.5 C 5.17 g/m*3 2.5 C 0 km/h
211 07-12-2008 18:02:59 2.4 C 5.14 g/m*3 2.4 C 0 km/h
212 07-12-2008 18:14:58 2.3 C 5.16 g/m*3 2.3 C 0 km/h
213 07-12-2008 18:26:59 2.3 C 5.16 g/m*3 2.3 C 0 km/h
214 07-12-2008 18:38:58 2.1 C 5.15 g/m*3 2.1 C 0 km/h
215 07-12-2008 18:50:58 1.9 C 5.08 g/m*3 1.9 C 0 km/h
216 07-12-2008 19:02:58 1.8 C 5.04 g/m*3 1.8 C 0 km/h
217 07-12-2008 19:14:58 1.8 C 5.1 g/m*3 1.8 C 0 km/h
218 07-12-2008 19:26:58 1.7 C 5.06 g/m*3 1.7 C 0 km/h
219 07-12-2008 19:38:59 1.6 C 5.03 g/m*3 1.6 C 0 km/h
220 07-12-2008 19:50:58 1.6 C 5.03 g/m*3 1.6 C 0 km/h
221 07-12-2008 20:02:57 1.4 C 4.96 g/m*3 1.4 C 0 km/h
222 07-12-2008 20:14:57 1.4 C 4.96 g/m*3 1.4 C 0 km/h
223 07-12-2008 20:26:57 1.2 C 4.89 g/m*3 1.2 C 0 km/h
224 07-12-2008 20:37:59 1.7 C 5.12 g/m*3 1.7 C 0 km/h
225 07-12-2008 20:50:58 1.8 C 5.15 g/m*3 1.8 C 0 km/h
Sensor: Nr:Datum:Temp:Abs-Feuchte:Windchill:Wind:
Aussen-T/F 226 07-12-2008 21:02:57 1.7 C 5.12 g/m*3 1.7 C 0 km/h
227 07-12-2008 21:14:57 1.5 C 5.05 g/m*3 1.5 C 0 km/h
228 07-12-2008 21:26:58 1.3 C 4.98 g/m*3 1.3 C 0 km/h
229 07-12-2008 21:38:57 1.2 C 4.95 g/m*3 1.2 C 0 km/h
230 07-12-2008 21:50:57 0.8 C 4.86 g/m*3 0.8 C 0 km/h
231 07-12-2008 22:02:56 0.7 C 4.83 g/m*3 0.7 C 0 km/h
232 07-12-2008 22:14:57 0.5 C 4.76 g/m*3 0.5 C 0 km/h
233 07-12-2008 22:26:57 0.5 C 4.76 g/m*3 0.5 C 0 km/h
234 07-12-2008 22:38:57 0.5 C 4.76 g/m*3 0.5 C 0 km/h
235 07-12-2008 22:50:57 0.5 C 4.76 g/m*3 0.5 C 0 km/h
236 07-12-2008 23:03:57 0.8 C 4.86 g/m*3 0.8 C 0 km/h
237 07-12-2008 23:15:57 0.8 C 4.86 g/m*3 0.8 C 0 km/h
238 07-12-2008 23:27:57 0.5 C 4.76 g/m*3 0.5 C 0 km/h
239 07-12-2008 23:39:57 0.5 C 4.76 g/m*3 0.5 C 0 km/h
240 07-12-2008 23:51:57 0.5 C 4.76 g/m*3 0.5 C 0 km/h
241 08-12-2008 00:03:57 0.4 C 4.73 g/m*3 0.4 C 0 km/h
242 08-12-2008 00:15:57 0.4 C 4.73 g/m*3 0.4 C 0 km/h
243 08-12-2008 00:27:57 0.3 C 4.7 g/m*3 0.3 C 0 km/h
244 08-12-2008 00:39:57 0.4 C 4.73 g/m*3 0.4 C 0 km/h
245 08-12-2008 00:51:57 0.5 C 4.76 g/m*3 0.5 C 0 km/h
246 08-12-2008 01:03:57 0.6 C 4.8 g/m*3 0.6 C 0 km/h
247 08-12-2008 01:15:57 0.6 C 4.8 g/m*3 0.6 C 0 km/h
248 08-12-2008 01:27:57 0.5 C 4.76 g/m*3 0.5 C 0 km/h
249 08-12-2008 01:39:58 0.4 C 4.73 g/m*3 0.4 C 0 km/h
250 08-12-2008 01:51:58 0.2 C 4.67 g/m*3 0.2 C 0 km/h
Sensor: Nr:Datum:Temp:Abs-Feuchte:Windchill:Wind:
Aussen-T/F 251 08-12-2008 02:03:58 0 C 4.6 g/m*3 0 C 0 km/h
252 08-12-2008 02:15:58 -0.1 C 4.57 g/m*3 -0.1 C 0 km/h
253 08-12-2008 02:27:58 -0.1 C 4.57 g/m*3 -0.1 C 0 km/h
254 08-12-2008 02:39:58 -0.1 C 4.57 g/m*3 -0.1 C 0 km/h
255 08-12-2008 02:51:58 -0.2 C 4.54 g/m*3 -0.2 C 0 km/h
256 08-12-2008 03:03:58 -0.2 C 4.54 g/m*3 -0.2 C 0 km/h
257 08-12-2008 03:15:58 -0.3 C 4.51 g/m*3 -0.3 C 0 km/h
258 08-12-2008 03:27:58 -0.3 C 4.51 g/m*3 -0.3 C 0 km/h
259 08-12-2008 03:39:58 -0.2 C 4.54 g/m*3 -0.2 C 0 km/h
260 08-12-2008 03:51:58 -0.1 C 4.57 g/m*3 -0.1 C 0 km/h
261 08-12-2008 04:03:58 0 C 4.6 g/m*3 0 C 0 km/h
262 08-12-2008 04:15:58 0 C 4.6 g/m*3 0 C 0 km/h
263 08-12-2008 04:27:58 0 C 4.6 g/m*3 0 C 0 km/h
264 08-12-2008 04:39:58 0 C 4.6 g/m*3 0 C 0 km/h
265 08-12-2008 04:51:58 -0.1 C 4.57 g/m*3 -0.1 C 0 km/h
266 08-12-2008 05:03:58 -0.2 C 4.54 g/m*3 -0.2 C 0 km/h
267 08-12-2008 05:15:58 -0.3 C 4.51 g/m*3 -0.3 C 0 km/h
268 08-12-2008 05:27:58 -0.5 C 4.45 g/m*3 -0.5 C 0 km/h
269 08-12-2008 05:39:59 -0.5 C 4.45 g/m*3 -0.5 C 0 km/h
270 08-12-2008 05:51:59 -0.5 C 4.45 g/m*3 -0.5 C 0 km/h
271 08-12-2008 06:03:59 -0.5 C 4.45 g/m*3 -0.5 C 0 km/h
272 08-12-2008 06:15:59 -0.4 C 4.48 g/m*3 -0.4 C 0 km/h
273 08-12-2008 06:27:59 -0.4 C 4.48 g/m*3 -0.4 C 0 km/h
274 08-12-2008 06:39:59 -0.4 C 4.48 g/m*3 -0.4 C 0 km/h
275 08-12-2008 06:51:59 -0.7 C 4.39 g/m*3 -0.7 C 0 km/h
Sensor: Nr:Datum:Temp:Abs-Feuchte:Windchill:Wind:
Aussen-T/F 276 08-12-2008 07:03:57 -0.6 C 4.42 g/m*3 -0.6 C 0 km/h
277 08-12-2008 07:15:57 -0.7 C 4.39 g/m*3 -0.7 C 0 km/h
278 08-12-2008 07:27:57 -0.7 C 4.39 g/m*3 -0.7 C 0 km/h
279 08-12-2008 07:39:57 -0.6 C 4.42 g/m*3 -0.6 C 0 km/h
280 08-12-2008 07:51:57 -0.6 C 4.42 g/m*3 -0.6 C 0 km/h
281 08-12-2008 08:03:56 -0.6 C 4.42 g/m*3 -0.6 C 0 km/h
282 08-12-2008 08:15:57 -0.7 C 4.39 g/m*3 -0.7 C 0 km/h
283 08-12-2008 08:27:58 -0.7 C 4.39 g/m*3 -0.7 C 0 km/h
284 08-12-2008 08:39:56 -0.7 C 4.39 g/m*3 -0.7 C 0 km/h
285 08-12-2008 08:51:56 -0.7 C 4.39 g/m*3 -0.7 C 0 km/h
286 08-12-2008 09:03:56 -0.5 C 4.45 g/m*3 -0.5 C 0 km/h
287 08-12-2008 09:15:57 -0.5 C 4.4 g/m*3 -0.5 C 0 km/h
288 08-12-2008 09:27:57 -0.6 C 4.37 g/m*3 -0.6 C 0 km/h
289 08-12-2008 09:39:56 -0.6 C 4.37 g/m*3 -0.6 C 0 km/h
290 08-12-2008 09:51:56 -0.3 C 4.41 g/m*3 -0.3 C 0 km/h
291 08-12-2008 10:03:56 -0.3 C 4.41 g/m*3 -0.3 C 0 km/h
292 08-12-2008 10:15:56 0 C 4.51 g/m*3 0 C 0 km/h
293 08-12-2008 10:27:56 0.2 C 4.52 g/m*3 0.2 C 0 km/h
294 08-12-2008 10:39:55 0.3 C 4.5 g/m*3 0.3 C 0 km/h
295 08-12-2008 10:51:56 0.3 C 4.4 g/m*3 0.3 C 0 km/h
296 08-12-2008 11:03:55 0.3 C 4.4 g/m*3 0.3 C 0 km/h
297 08-12-2008 11:15:55 0.4 C 4.38 g/m*3 0.4 C 0 km/h
298 08-12-2008 11:27:55 0.7 C 4.47 g/m*3 0.7 C 0 km/h
299 08-12-2008 11:39:56 0.9 C 4.54 g/m*3 0.9 C 0 km/h
300 08-12-2008 11:51:55 0.8 C 4.45 g/m*3 0.8 C 0 km/h
Sensor: Nr:Datum:Temp:Abs-Feuchte:Windchill:Wind:
Aussen-T/F 301 08-12-2008 12:03:55 0.7 C 4.42 g/m*3 0.7 C 0 km/h
302 08-12-2008 12:15:55 0.8 C 4.51 g/m*3 0.8 C 0 km/h
303 08-12-2008 12:27:55 0.8 C 4.51 g/m*3 0.8 C 0 km/h
304 08-12-2008 12:39:55 1 C 4.57 g/m*3 1 C 0 km/h
305 08-12-2008 12:51:55 1.1 C 4.6 g/m*3 1.1 C 0 km/h
306 08-12-2008 13:03:55 1.1 C 4.6 g/m*3 1.1 C 0 km/h
307 08-12-2008 13:15:54 1.2 C 4.63 g/m*3 1.2 C 0 km/h
308 08-12-2008 13:27:54 1.2 C 4.63 g/m*3 1.2 C 0 km/h
309 08-12-2008 13:39:54 1.5 C 4.73 g/m*3 1.5 C 0 km/h
310 08-12-2008 13:51:54 1.7 C 4.79 g/m*3 1.7 C 0 km/h
311 08-12-2008 14:03:54 1.8 C 4.77 g/m*3 1.8 C 0 km/h
312 08-12-2008 14:15:54 2 C 4.78 g/m*3 2 C 0 km/h
313 08-12-2008 14:27:54 1.9 C 4.75 g/m*3 1.9 C 0 km/h
314 08-12-2008 14:39:54 2.1 C 4.81 g/m*3 2.1 C 0 km/h
315 08-12-2008 14:51:54 2.1 C 4.81 g/m*3 2.1 C 0 km/h
316 08-12-2008 15:03:54 2.1 C 4.81 g/m*3 2.1 C 0 km/h
317 08-12-2008 15:15:54 2.1 C 4.87 g/m*3 2.1 C 0 km/h
318 08-12-2008 15:27:54 2 C 4.83 g/m*3 2 C 0 km/h
319 08-12-2008 15:39:54 1.8 C 4.77 g/m*3 1.8 C 0 km/h
320 08-12-2008 15:51:54 1.7 C 4.74 g/m*3 1.7 C 0 km/h
321 08-12-2008 16:03:54 1.4 C 4.69 g/m*3 1.4 C 0 km/h
322 08-12-2008 16:15:53 1.4 C 4.69 g/m*3 1.4 C 0 km/h
323 08-12-2008 16:27:53 1.3 C 4.72 g/m*3 1.3 C 0 km/h
324 08-12-2008 16:39:54 1.2 C 4.68 g/m*3 1.2 C 0 km/h
325 08-12-2008 16:51:02 1.1 C 4.7 g/m*3 1.1 C 0 km/h
Sensor: Nr:Datum:Temp:Abs-Feuchte:Windchill:Wind:
Aussen-T/F 326 08-12-2008 17:03:02 1 C 4.72 g/m*3 1 C 0 km/h
327 08-12-2008 17:15:02 1 C 4.78 g/m*3 1 C 0 km/h
328 08-12-2008 17:27:02 0.8 C 4.76 g/m*3 0.8 C 0 km/h
329 08-12-2008 17:39:01 0.6 C 4.7 g/m*3 0.6 C 0 km/h
330 08-12-2008 17:51:01 0.6 C 4.75 g/m*3 0.6 C 0 km/h
331 08-12-2008 18:03:01 0.6 C 4.75 g/m*3 0.6 C 0 km/h
332 08-12-2008 18:15:01 0.4 C 4.68 g/m*3 0.4 C 0 km/h
333 08-12-2008 18:27:01 0.4 C 4.68 g/m*3 0.4 C 0 km/h
334 08-12-2008 18:39:01 0.5 C 4.71 g/m*3 0.5 C 0 km/h
335 08-12-2008 18:51:01 0.5 C 4.71 g/m*3 0.5 C 0 km/h
336 08-12-2008 19:03:00 0.5 C 4.71 g/m*3 0.5 C 0 km/h
337 08-12-2008 19:15:00 0.2 C 4.62 g/m*3 0.2 C 0 km/h
338 08-12-2008 19:27:00 0.2 C 4.62 g/m*3 0.2 C 0 km/h
339 08-12-2008 19:39:01 0.1 C 4.59 g/m*3 0.1 C 0 km/h
340 08-12-2008 19:51:00 0.1 C 4.59 g/m*3 0.1 C 0 km/h
341 08-12-2008 20:03:00 0.2 C 4.67 g/m*3 0.2 C 0 km/h
342 08-12-2008 20:15:00 0.1 C 4.63 g/m*3 0.1 C 0 km/h
343 08-12-2008 20:27:00 0.1 C 4.59 g/m*3 0.1 C 0 km/h
344 08-12-2008 20:38:59 0.1 C 4.63 g/m*3 0.1 C 0 km/h
345 08-12-2008 20:51:00 0.1 C 4.63 g/m*3 0.1 C 0 km/h
346 08-12-2008 21:03:00 0 C 4.55 g/m*3 0 C 0 km/h
347 08-12-2008 21:15:00 0 C 4.55 g/m*3 0 C 0 km/h
348 08-12-2008 21:27:00 -0.1 C 4.52 g/m*3 -0.1 C 0 km/h
349 08-12-2008 21:39:59 -0.3 C 4.46 g/m*3 -0.3 C 0 km/h
350 08-12-2008 21:51:59 -0.4 C 4.43 g/m*3 -0.4 C 0 km/h
Sensor: Nr:Datum:Temp:Abs-Feuchte:Windchill:Wind:
Aussen-T/F 351 08-12-2008 22:02:59 -0.6 C 4.37 g/m*3 -0.6 C 0 km/h
352 08-12-2008 22:14:59 -0.6 C 4.37 g/m*3 -0.6 C 0 km/h
353 08-12-2008 22:26:59 -0.7 C 4.34 g/m*3 -0.7 C 0 km/h
354 08-12-2008 22:39:59 -0.7 C 4.34 g/m*3 -0.7 C 0 km/h
355 08-12-2008 22:51:59 -0.5 C 4.4 g/m*3 -0.5 C 0 km/h
356 08-12-2008 23:03:00 -0.3 C 4.51 g/m*3 -0.3 C 0 km/h
357 08-12-2008 23:15:58 -0.3 C 4.51 g/m*3 -0.3 C 0 km/h
358 08-12-2008 23:27:58 -0.3 C 4.51 g/m*3 -0.3 C 0 km/h
359 08-12-2008 23:39:59 -0.4 C 4.48 g/m*3 -0.4 C 0 km/h
360 08-12-2008 23:51:58 -0.4 C 4.48 g/m*3 -0.4 C 0 km/h
361 09-12-2008 00:03:59 -0.3 C 4.51 g/m*3 -0.3 C 0 km/h
362 09-12-2008 00:15:59 -0.3 C 4.51 g/m*3 -0.3 C 0 km/h
363 09-12-2008 00:27:59 -0.2 C 4.54 g/m*3 -0.2 C 0 km/h
364 09-12-2008 00:40:59 -0.1 C 4.57 g/m*3 -0.1 C 0 km/h
365 09-12-2008 00:52:59 -0.1 C 4.57 g/m*3 -0.1 C 0 km/h
366 09-12-2008 01:04:59 -0.1 C 4.57 g/m*3 -0.1 C 0 km/h
367 09-12-2008 01:16:59 -0.1 C 4.57 g/m*3 -0.1 C 0 km/h
368 09-12-2008 01:27:59 -0.2 C 4.54 g/m*3 -0.2 C 0 km/h
369 09-12-2008 01:39:59 -0.2 C 4.49 g/m*3 -0.2 C 0 km/h
370 09-12-2008 01:51:59 -0.2 C 4.49 g/m*3 -0.2 C 0 km/h
371 09-12-2008 02:03:59 -0.3 C 4.46 g/m*3 -0.3 C 0 km/h
372 09-12-2008 02:15:59 -0.4 C 4.43 g/m*3 -0.4 C 0 km/h
373 09-12-2008 02:27:59 -0.3 C 4.41 g/m*3 -0.3 C 0 km/h
374 09-12-2008 02:39:59 -0.4 C 4.38 g/m*3 -0.4 C 0 km/h
375 09-12-2008 02:51:59 -0.4 C 4.38 g/m*3 -0.4 C 0 km/h
Sensor: Nr:Datum:Temp:Abs-Feuchte:Windchill:Wind:
Aussen-T/F 376 09-12-2008 03:03:59 -0.3 C 4.41 g/m*3 -0.3 C 0 km/h
377 09-12-2008 03:15:59 -0.4 C 4.34 g/m*3 -0.4 C 0 km/h
378 09-12-2008 03:27:59 -0.6 C 4.28 g/m*3 -0.6 C 0 km/h
379 09-12-2008 03:39:59 -0.6 C 4.28 g/m*3 -0.6 C 0 km/h
380 09-12-2008 03:51:59 -0.7 C 4.25 g/m*3 -0.7 C 0 km/h
381 09-12-2008 04:03:59 -0.8 C 4.22 g/m*3 -0.8 C 0 km/h
382 09-12-2008 04:15:59 -0.9 C 4.14 g/m*3 -0.9 C 0 km/h
383 09-12-2008 04:28:00 -0.9 C 4.14 g/m*3 -0.9 C 0 km/h
384 09-12-2008 04:40:00 -0.8 C 4.17 g/m*3 -0.8 C 0 km/h
385 09-12-2008 04:52:00 -1 C 4.11 g/m*3 -1 C 0 km/h
386 09-12-2008 05:04:00 -1.1 C 4.09 g/m*3 -1.1 C 0 km/h
387 09-12-2008 05:16:00 -1.2 C 4.06 g/m*3 -1.2 C 0 km/h
388 09-12-2008 05:28:00 -1.3 C 4.03 g/m*3 -1.3 C 0 km/h
389 09-12-2008 05:40:00 -1.5 C 3.97 g/m*3 -1.5 C 0 km/h
390 09-12-2008 05:52:00 -1.4 C 4 g/m*3 -1.4 C 0 km/h
391 09-12-2008 06:04:00 -1.3 C 4.03 g/m*3 -1.3 C 0 km/h
392 09-12-2008 06:16:00 -1.1 C 4.09 g/m*3 -1.1 C 0 km/h
393 09-12-2008 06:28:00 -1 C 4.11 g/m*3 -1 C 0 km/h
394 09-12-2008 06:40:00 -0.8 C 4.13 g/m*3 -0.8 C 0 km/h
395 09-12-2008 06:52:00 -0.7 C 4.15 g/m*3 -0.7 C 0 km/h
396 09-12-2008 07:04:59 -0.6 C 4.14 g/m*3 -0.6 C 0 km/h
397 09-12-2008 07:16:59 -0.5 C 4.12 g/m*3 -0.5 C 0 km/h
398 09-12-2008 07:28:59 -0.4 C 4.1 g/m*3 -0.4 C 0 km/h
399 09-12-2008 07:40:59 -0.3 C 4.08 g/m*3 -0.3 C 0 km/h
400 09-12-2008 07:52:59 -0.2 C 4.11 g/m*3 -0.2 C 0 km/h
Sensor: Nr:Datum:Temp:Abs-Feuchte:Windchill:Wind:
Aussen-T/F 401 09-12-2008 08:04:58 -0.1 C 4.14 g/m*3 -0.1 C 0 km/h
402 09-12-2008 08:16:59 0 C 4.12 g/m*3 0 C 0 km/h
403 09-12-2008 08:28:59 0.1 C 4.15 g/m*3 0.1 C 0 km/h
404 09-12-2008 08:40:59 0.2 C 4.13 g/m*3 0.2 C 0 km/h
405 09-12-2008 08:52:58 0.2 C 4.08 g/m*3 0.2 C 0 km/h
406 09-12-2008 09:04:58 0.3 C 4.11 g/m*3 0.3 C 0 km/h
407 09-12-2008 09:16:58 0.4 C 4.13 g/m*3 0.4 C 0 km/h
408 09-12-2008 09:28:58 0.5 C 4.16 g/m*3 0.5 C 0 km/h
409 09-12-2008 09:40:58 0.6 C 4.14 g/m*3 0.6 C 0 km/h
410 09-12-2008 09:52:57 0.8 C 4.2 g/m*3 0.8 C 0 km/h
411 09-12-2008 10:04:58 0.8 C 4.2 g/m*3 0.8 C 0 km/h
412 09-12-2008 10:16:57 1 C 4.2 g/m*3 1 C 0 km/h
413 09-12-2008 10:28:57 1.2 C 4.26 g/m*3 1.2 C 0 km/h
414 09-12-2008 10:40:57 1.4 C 4.27 g/m*3 1.4 C 0 km/h
415 09-12-2008 10:52:57 1.6 C 4.27 g/m*3 1.6 C 0 km/h
416 09-12-2008 11:04:57 1.9 C 4.25 g/m*3 1.9 C 0 km/h
417 09-12-2008 11:16:57 1.7 C 4.19 g/m*3 1.7 C 0 km/h
418 09-12-2008 11:28:57 1.9 C 4.25 g/m*3 1.9 C 0 km/h
419 09-12-2008 11:40:57 1.8 C 4.22 g/m*3 1.8 C 0 km/h
420 09-12-2008 11:52:57 1.9 C 4.3 g/m*3 1.9 C 0 km/h
421 09-12-2008 12:04:56 1.8 C 4.28 g/m*3 1.8 C 0 km/h
422 09-12-2008 12:16:57 1.7 C 4.25 g/m*3 1.7 C 0 km/h
423 09-12-2008 12:28:57 1.7 C 4.25 g/m*3 1.7 C 0 km/h
424 09-12-2008 12:40:56 1.6 C 4.22 g/m*3 1.6 C 0 km/h
425 09-12-2008 12:52:56 1.7 C 4.3 g/m*3 1.7 C 0 km/h
Sensor: Nr:Datum:Temp:Abs-Feuchte:Windchill:Wind:
Aussen-T/F 426 09-12-2008 13:04:56 1.7 C 4.25 g/m*3 1.7 C 0 km/h
427 09-12-2008 13:16:56 1.6 C 4.22 g/m*3 1.6 C 0 km/h
428 09-12-2008 13:28:56 1.7 C 4.25 g/m*3 1.7 C 0 km/h
429 09-12-2008 13:40:56 1.6 C 4.22 g/m*3 1.6 C 0 km/h
430 09-12-2008 13:52:56 1.6 C 4.22 g/m*3 1.6 C 0 km/h
431 09-12-2008 14:04:55 1.6 C 4.27 g/m*3 1.6 C 0 km/h
432 09-12-2008 14:16:56 1.6 C 4.27 g/m*3 1.6 C 0 km/h
433 09-12-2008 14:28:56 1.6 C 4.27 g/m*3 1.6 C 0 km/h
434 09-12-2008 14:40:55 1.6 C 4.27 g/m*3 1.6 C 0 km/h
435 09-12-2008 14:52:56 1.7 C 4.3 g/m*3 1.7 C 0 km/h
436 09-12-2008 15:04:55 1.7 C 4.25 g/m*3 1.7 C 0 km/h
437 09-12-2008 15:16:55 1.8 C 4.22 g/m*3 1.8 C 0 km/h
438 09-12-2008 15:28:56 1.7 C 4.14 g/m*3 1.7 C 0 km/h
439 09-12-2008 15:40:55 1.7 C 4.14 g/m*3 1.7 C 0 km/h
440 09-12-2008 15:52:55 1.7 C 4.14 g/m*3 1.7 C 0 km/h
441 09-12-2008 16:04:54 1.7 C 4.14 g/m*3 1.7 C 0 km/h
442 09-12-2008 16:16:38 1.6 C 4.11 g/m*3 1.6 C 0 km/h
443 09-12-2008 16:28:38 1.6 C 4.16 g/m*3 1.6 C 0 km/h
444 09-12-2008 16:40:37 1.6 C 4.16 g/m*3 1.6 C 0 km/h
445 09-12-2008 16:52:37 1.5 C 4.19 g/m*3 1.5 C 0 km/h
446 09-12-2008 17:04:37 1.5 C 4.24 g/m*3 1.5 C 0 km/h
447 09-12-2008 17:16:37 1.5 C 4.24 g/m*3 1.5 C 0 km/h
448 09-12-2008 17:28:37 1.5 C 4.3 g/m*3 1.5 C 0 km/h
449 09-12-2008 17:40:37 1.2 C 4.31 g/m*3 1.2 C 0 km/h
450 09-12-2008 17:52:37 1 C 4.36 g/m*3 1 C 0 km/h
Sensor: Nr:Datum:Temp:Abs-Feuchte:Windchill:Wind:
Aussen-T/F 451 09-12-2008 18:04:38 0.9 C 4.48 g/m*3 0.9 C 0 km/h
452 09-12-2008 18:16:37 0.8 C 4.51 g/m*3 0.8 C 0 km/h
453 09-12-2008 18:28:37 0.7 C 4.53 g/m*3 0.7 C 0 km/h
454 09-12-2008 18:40:37 0.8 C 4.61 g/m*3 0.8 C 0 km/h
455 09-12-2008 18:52:36 0.7 C 4.58 g/m*3 0.7 C 0 km/h
456 09-12-2008 19:04:37 0.6 C 4.6 g/m*3 0.6 C 0 km/h
457 09-12-2008 19:16:36 0.6 C 4.65 g/m*3 0.6 C 0 km/h
458 09-12-2008 19:28:36 0.6 C 4.65 g/m*3 0.6 C 0 km/h
459 09-12-2008 19:40:36 0.6 C 4.65 g/m*3 0.6 C 0 km/h
460 09-12-2008 19:52:36 0.6 C 4.65 g/m*3 0.6 C 0 km/h
461 09-12-2008 20:04:36 0.6 C 4.7 g/m*3 0.6 C 0 km/h
462 09-12-2008 20:16:36 0.7 C 4.73 g/m*3 0.7 C 0 km/h
463 09-12-2008 20:28:37 0.8 C 4.76 g/m*3 0.8 C 0 km/h
464 09-12-2008 20:40:35 0.8 C 4.76 g/m*3 0.8 C 0 km/h
465 09-12-2008 20:52:35 0.9 C 4.74 g/m*3 0.9 C 0 km/h
466 09-12-2008 21:04:35 0.9 C 4.74 g/m*3 0.9 C 0 km/h
467 09-12-2008 21:16:35 0.9 C 4.74 g/m*3 0.9 C 0 km/h
468 09-12-2008 21:28:35 0.9 C 4.74 g/m*3 0.9 C 0 km/h
469 09-12-2008 21:40:35 1 C 4.72 g/m*3 1 C 0 km/h
470 09-12-2008 21:52:34 1 C 4.67 g/m*3 1 C 0 km/h
471 09-12-2008 22:04:35 1 C 4.67 g/m*3 1 C 0 km/h
472 09-12-2008 22:17:36 1 C 4.72 g/m*3 1 C 0 km/h
473 09-12-2008 22:29:36 1 C 4.72 g/m*3 1 C 0 km/h
474 09-12-2008 22:41:36 1 C 4.72 g/m*3 1 C 0 km/h
475 09-12-2008 22:53:36 1 C 4.72 g/m*3 1 C 0 km/h
Sensor: Nr:Datum:Temp:Abs-Feuchte:Windchill:Wind:
Aussen-T/F 476 09-12-2008 23:05:36 1 C 4.78 g/m*3 1 C 0 km/h
477 09-12-2008 23:17:36 1 C 4.78 g/m*3 1 C 0 km/h
478 09-12-2008 23:29:36 1.1 C 4.81 g/m*3 1.1 C 0 km/h
479 09-12-2008 23:41:36 1.1 C 4.86 g/m*3 1.1 C 0 km/h
480 09-12-2008 23:53:36 1.1 C 4.86 g/m*3 1.1 C 0 km/h
481 10-12-2008 00:05:36 1.1 C 4.86 g/m*3 1.1 C 0 km/h
482 10-12-2008 00:17:36 1.1 C 4.86 g/m*3 1.1 C 0 km/h
483 10-12-2008 00:29:36 1.1 C 4.91 g/m*3 1.1 C 0 km/h
484 10-12-2008 00:41:37 1.2 C 4.95 g/m*3 1.2 C 0 km/h
485 10-12-2008 00:53:37 1 C 4.88 g/m*3 1 C 0 km/h
486 10-12-2008 01:05:37 0.9 C 4.85 g/m*3 0.9 C 0 km/h
487 10-12-2008 01:17:37 1 C 4.88 g/m*3 1 C 0 km/h
488 10-12-2008 01:29:37 1 C 4.88 g/m*3 1 C 0 km/h
489 10-12-2008 01:41:37 1 C 4.93 g/m*3 1 C 0 km/h
490 10-12-2008 01:53:37 1 C 4.93 g/m*3 1 C 0 km/h
491 10-12-2008 02:05:37 1 C 4.93 g/m*3 1 C 0 km/h
492 10-12-2008 02:17:37 1.1 C 4.96 g/m*3 1.1 C 0 km/h
493 10-12-2008 02:29:37 1.1 C 4.96 g/m*3 1.1 C 0 km/h
494 10-12-2008 02:41:37 1.1 C 4.96 g/m*3 1.1 C 0 km/h
495 10-12-2008 02:53:37 1.2 C 5 g/m*3 1.2 C 0 km/h
496 10-12-2008 03:05:37 1.2 C 5 g/m*3 1.2 C 0 km/h
497 10-12-2008 03:17:37 1.2 C 5 g/m*3 1.2 C 0 km/h
498 10-12-2008 03:29:37 1.2 C 5 g/m*3 1.2 C 0 km/h
499 10-12-2008 03:41:37 1.2 C 5 g/m*3 1.2 C 0 km/h
500 10-12-2008 03:53:37 1.2 C 5 g/m*3 1.2 C 0 km/h
Sensor: Nr:Datum:Temp:Abs-Feuchte:Windchill:Wind:
Aussen-T/F 501 10-12-2008 04:05:37 1.2 C 5 g/m*3 1.2 C 0 km/h
502 10-12-2008 04:17:37 1.3 C 5.03 g/m*3 1.3 C 0 km/h
503 10-12-2008 04:29:38 1.3 C 5.03 g/m*3 1.3 C 0 km/h
504 10-12-2008 04:41:38 1.2 C 5 g/m*3 1.2 C 0 km/h
505 10-12-2008 04:53:38 1.2 C 5 g/m*3 1.2 C 0 km/h
506 10-12-2008 05:05:38 1.3 C 5.03 g/m*3 1.3 C 0 km/h
507 10-12-2008 05:17:38 1.3 C 5.03 g/m*3 1.3 C 0 km/h
508 10-12-2008 05:29:38 1.3 C 5.03 g/m*3 1.3 C 0 km/h
509 10-12-2008 05:41:38 1.3 C 5.03 g/m*3 1.3 C 0 km/h
510 10-12-2008 05:53:38 1.3 C 5.03 g/m*3 1.3 C 0 km/h
511 10-12-2008 06:05:38 1.3 C 5.03 g/m*3 1.3 C 0 km/h
512 10-12-2008 06:17:38 1.3 C 5.03 g/m*3 1.3 C 0 km/h
513 10-12-2008 06:29:38 1.3 C 5.03 g/m*3 1.3 C 0 km/h
514 10-12-2008 06:41:38 1.4 C 5.07 g/m*3 1.4 C 0 km/h
515 10-12-2008 06:53:38 1.4 C 5.07 g/m*3 1.4 C 0 km/h
516 10-12-2008 07:05:35 1.4 C 5.07 g/m*3 1.4 C 0 km/h
517 10-12-2008 07:17:34 1.5 C 5.1 g/m*3 1.5 C 0 km/h
518 10-12-2008 07:29:34 1.5 C 5.1 g/m*3 1.5 C 0 km/h
519 10-12-2008 07:41:35 1.6 C 5.14 g/m*3 1.6 C 0 km/h
520 10-12-2008 07:53:34 1.2 C 5 g/m*3 1.2 C 0 km/h
521 10-12-2008 08:05:34 0.8 C 4.81 g/m*3 0.8 C 0 km/h
522 10-12-2008 08:17:35 1.1 C 4.91 g/m*3 1.1 C 0 km/h
523 10-12-2008 08:29:35 1.1 C 4.91 g/m*3 1.1 C 0 km/h
524 10-12-2008 08:41:34 1.2 C 5 g/m*3 1.2 C 0 km/h
525 10-12-2008 08:53:34 1.3 C 5.03 g/m*3 1.3 C 0 km/h
Sensor: Nr:Datum:Temp:Abs-Feuchte:Windchill:Wind:
Aussen-T/F 526 10-12-2008 09:05:34 1.4 C 5.07 g/m*3 1.4 C 0 km/h
527 10-12-2008 09:17:34 1.4 C 5.07 g/m*3 1.4 C 0 km/h
528 10-12-2008 09:29:35 1.5 C 5.1 g/m*3 1.5 C 0 km/h
529 10-12-2008 09:41:33 1.7 C 5.17 g/m*3 1.7 C 0 km/h
530 10-12-2008 09:53:34 1.9 C 5.24 g/m*3 1.9 C 0 km/h
531 10-12-2008 10:05:33 2 C 5.28 g/m*3 2 C 0 km/h
532 10-12-2008 10:17:33 2.1 C 5.31 g/m*3 2.1 C 0 km/h
533 10-12-2008 10:29:33 2.2 C 5.35 g/m*3 2.2 C 0 km/h
534 10-12-2008 10:41:33 2.3 C 5.39 g/m*3 2.3 C 0 km/h
535 10-12-2008 10:53:33 2.6 C 5.5 g/m*3 2.6 C 0 km/h
536 10-12-2008 11:05:33 2.6 C 5.5 g/m*3 2.6 C 0 km/h
537 10-12-2008 11:17:32 2.6 C 5.5 g/m*3 2.6 C 0 km/h
538 10-12-2008 11:29:32 2.7 C 5.48 g/m*3 2.7 C 0 km/h
539 10-12-2008 11:41:33 2.9 C 5.55 g/m*3 2.9 C 0 km/h
540 10-12-2008 11:53:32 3 C 5.53 g/m*3 3 C 0 km/h
541 10-12-2008 12:05:32 3 C 5.53 g/m*3 3 C 0 km/h
542 10-12-2008 12:17:33 3 C 5.47 g/m*3 3 C 0 km/h
543 10-12-2008 12:29:33 3 C 5.41 g/m*3 3 C 0 km/h
544 10-12-2008 12:41:32 3.1 C 5.45 g/m*3 3.1 C 0 km/h
545 10-12-2008 12:53:32 3.1 C 5.45 g/m*3 3.1 C 0 km/h
546 10-12-2008 13:05:32 3.1 C 5.45 g/m*3 3.1 C 0 km/h
547 10-12-2008 13:17:32 3.1 C 5.39 g/m*3 3.1 C 0 km/h
548 10-12-2008 13:29:32 3.2 C 5.42 g/m*3 3.2 C 0 km/h
549 10-12-2008 13:41:31 3.3 C 5.46 g/m*3 3.3 C 0 km/h
550 10-12-2008 13:53:31 3.3 C 5.46 g/m*3 3.3 C 0 km/h
Sensor: Nr:Datum:Temp:Abs-Feuchte:Windchill:Wind:
Aussen-T/F 551 10-12-2008 14:05:31 3.3 C 5.4 g/m*3 3.3 C 0 km/h
552 10-12-2008 14:17:31 3.4 C 5.44 g/m*3 3.4 C 0 km/h
553 10-12-2008 14:29:31 3.5 C 5.47 g/m*3 3.5 C 0 km/h
554 10-12-2008 14:41:32 3.5 C 5.47 g/m*3 3.5 C 0 km/h
555 10-12-2008 14:53:30 3.4 C 5.44 g/m*3 3.4 C 0 km/h
556 10-12-2008 15:05:31 3.4 C 5.44 g/m*3 3.4 C 0 km/h
557 10-12-2008 15:17:30 3.5 C 5.47 g/m*3 3.5 C 0 km/h
558 10-12-2008 15:29:30 3.5 C 5.47 g/m*3 3.5 C 0 km/h
559 10-12-2008 15:41:30 3.4 C 5.44 g/m*3 3.4 C 0 km/h
560 10-12-2008 15:53:30 3.4 C 5.44 g/m*3 3.4 C 0 km/h
561 10-12-2008 16:05:30 3.2 C 5.36 g/m*3 3.2 C 0 km/h
562 10-12-2008 16:17:30 3.1 C 5.33 g/m*3 3.1 C 0 km/h
563 10-12-2008 16:29:30 3 C 5.35 g/m*3 3 C 0 km/h
564 10-12-2008 16:41:30 2.7 C 5.3 g/m*3 2.7 C 0 km/h
565 10-12-2008 16:53:30 2.5 C 5.23 g/m*3 2.5 C 0 km/h
566 10-12-2008 17:05:29 2.3 C 5.16 g/m*3 2.3 C 0 km/h
567 10-12-2008 17:17:30 2.2 C 5.13 g/m*3 2.2 C 0 km/h
568 10-12-2008 17:29:31 2.1 C 5.09 g/m*3 2.1 C 0 km/h
569 10-12-2008 17:41:29 2.1 C 5.09 g/m*3 2.1 C 0 km/h
570 10-12-2008 17:53:29 2.2 C 5.18 g/m*3 2.2 C 0 km/h
571 10-12-2008 18:05:28 2.3 C 5.22 g/m*3 2.3 C 0 km/h
572 10-12-2008 18:17:29 2.4 C 5.25 g/m*3 2.4 C 0 km/h
573 10-12-2008 18:29:29 2.4 C 5.25 g/m*3 2.4 C 0 km/h
574 10-12-2008 18:41:29 2.4 C 5.25 g/m*3 2.4 C 0 km/h
575 10-12-2008 18:53:28 2.3 C 5.22 g/m*3 2.3 C 0 km/h
Sensor: Nr:Datum:Temp:Abs-Feuchte:Windchill:Wind:
Aussen-T/F 576 10-12-2008 19:05:29 2.2 C 5.18 g/m*3 2.2 C 0 km/h
577 10-12-2008 19:17:28 2.2 C 5.18 g/m*3 2.2 C 0 km/h
578 10-12-2008 19:29:28 2 C 5.11 g/m*3 2 C 0 km/h
579 10-12-2008 19:41:28 2 C 5.11 g/m*3 2 C 0 km/h
580 10-12-2008 19:53:28 2 C 5.11 g/m*3 2 C 0 km/h
581 10-12-2008 20:05:28 2 C 5.11 g/m*3 2 C 0 km/h
582 10-12-2008 20:17:28 1.9 C 5.13 g/m*3 1.9 C 0 km/h
583 10-12-2008 20:29:28 2 C 5.11 g/m*3 2 C 0 km/h
584 10-12-2008 20:41:27 2.1 C 5.2 g/m*3 2.1 C 0 km/h
585 10-12-2008 20:53:28 2.1 C 5.2 g/m*3 2.1 C 0 km/h
586 10-12-2008 21:05:27 2 C 5.17 g/m*3 2 C 0 km/h
587 10-12-2008 21:17:27 1.9 C 5.13 g/m*3 1.9 C 0 km/h
588 10-12-2008 21:29:27 1.8 C 5.1 g/m*3 1.8 C 0 km/h
589 10-12-2008 21:41:27 1.7 C 5.06 g/m*3 1.7 C 0 km/h
590 10-12-2008 21:53:27 1.5 C 4.99 g/m*3 1.5 C 0 km/h
591 10-12-2008 22:05:26 1.6 C 5.03 g/m*3 1.6 C 0 km/h
592 10-12-2008 22:18:02 1.7 C 5.12 g/m*3 1.7 C 0 km/h
593 10-12-2008 22:30:02 1.8 C 5.15 g/m*3 1.8 C 0 km/h
594 10-12-2008 22:42:02 1.9 C 5.19 g/m*3 1.9 C 0 km/h
595 10-12-2008 22:54:03 2 C 5.22 g/m*3 2 C 0 km/h
596 10-12-2008 23:06:03 1.9 C 5.19 g/m*3 1.9 C 0 km/h
597 10-12-2008 23:18:03 1.9 C 5.19 g/m*3 1.9 C 0 km/h
598 10-12-2008 23:30:03 1.9 C 5.19 g/m*3 1.9 C 0 km/h
599 10-12-2008 23:42:03 1.8 C 5.15 g/m*3 1.8 C 0 km/h
600 10-12-2008 23:54:03 1.7 C 5.12 g/m*3 1.7 C 0 km/h
Sensor: Nr:Datum:Temp:Abs-Feuchte:Windchill:Wind:
Aussen-T/F 601 11-12-2008 00:06:03 1.5 C 5.05 g/m*3 1.5 C 0 km/h
602 11-12-2008 00:18:03 1.6 C 5.08 g/m*3 1.6 C 0 km/h
603 11-12-2008 00:30:03 1.6 C 5.08 g/m*3 1.6 C 0 km/h
604 11-12-2008 00:42:03 1.5 C 5.05 g/m*3 1.5 C 0 km/h
605 11-12-2008 00:54:03 1.5 C 5.05 g/m*3 1.5 C 0 km/h
606 11-12-2008 01:06:03 1.5 C 5.05 g/m*3 1.5 C 0 km/h
607 11-12-2008 01:18:03 1.5 C 5.05 g/m*3 1.5 C 0 km/h
608 11-12-2008 01:30:03 1.5 C 5.05 g/m*3 1.5 C 0 km/h
609 11-12-2008 01:42:03 1.6 C 5.08 g/m*3 1.6 C 0 km/h
610 11-12-2008 01:54:03 1.5 C 5.05 g/m*3 1.5 C 0 km/h
611 11-12-2008 02:06:03 1.4 C 5.01 g/m*3 1.4 C 0 km/h
612 11-12-2008 02:18:03 1.2 C 4.89 g/m*3 1.2 C 0 km/h
613 11-12-2008 02:30:03 0.9 C 4.85 g/m*3 0.9 C 0 km/h
614 11-12-2008 02:42:04 0.6 C 4.7 g/m*3 0.6 C 0 km/h
615 11-12-2008 02:54:04 0.5 C 4.66 g/m*3 0.5 C 0 km/h
616 11-12-2008 03:06:04 0.5 C 4.71 g/m*3 0.5 C 0 km/h
617 11-12-2008 03:18:04 0.5 C 4.71 g/m*3 0.5 C 0 km/h
618 11-12-2008 03:30:04 0.6 C 4.75 g/m*3 0.6 C 0 km/h
619 11-12-2008 03:42:04 0.8 C 4.81 g/m*3 0.8 C 0 km/h
620 11-12-2008 03:54:04 1 C 4.88 g/m*3 1 C 0 km/h
621 11-12-2008 04:06:04 1 C 4.88 g/m*3 1 C 0 km/h
622 11-12-2008 04:18:04 0.9 C 4.85 g/m*3 0.9 C 0 km/h
623 11-12-2008 04:30:04 0.9 C 4.79 g/m*3 0.9 C 0 km/h
624 11-12-2008 04:42:04 1 C 4.83 g/m*3 1 C 0 km/h
625 11-12-2008 04:54:04 1 C 4.78 g/m*3 1 C 0 km/h
Sensor: Nr:Datum:Temp:Abs-Feuchte:Windchill:Wind:
Aussen-T/F 626 11-12-2008 05:06:04 1 C 4.78 g/m*3 1 C 0 km/h
627 11-12-2008 05:18:04 1 C 4.78 g/m*3 1 C 0 km/h
628 11-12-2008 05:30:04 1 C 4.78 g/m*3 1 C 0 km/h
629 11-12-2008 05:42:04 1 C 4.72 g/m*3 1 C 0 km/h
630 11-12-2008 05:54:04 1 C 4.72 g/m*3 1 C 0 km/h
631 11-12-2008 06:06:04 1.1 C 4.76 g/m*3 1.1 C 0 km/h
632 11-12-2008 06:18:04 1.1 C 4.7 g/m*3 1.1 C 0 km/h
633 11-12-2008 06:30:05 1 C 4.62 g/m*3 1 C 0 km/h
634 11-12-2008 06:42:05 1.1 C 4.65 g/m*3 1.1 C 0 km/h
635 11-12-2008 06:54:28 1 C 4.57 g/m*3 1 C 0 km/h
636 11-12-2008 07:06:29 0.9 C 4.54 g/m*3 0.9 C 0 km/h
637 11-12-2008 07:18:27 1 C 4.52 g/m*3 1 C 0 km/h
638 11-12-2008 07:30:27 1 C 4.52 g/m*3 1 C 0 km/h
639 11-12-2008 07:42:28 0.9 C 4.48 g/m*3 0.9 C 0 km/h
640 11-12-2008 07:54:27 0.9 C 4.54 g/m*3 0.9 C 0 km/h
641 11-12-2008 08:06:27 1 C 4.52 g/m*3 1 C 0 km/h
642 11-12-2008 08:18:27 0.9 C 4.48 g/m*3 0.9 C 0 km/h
643 11-12-2008 08:30:27 0.8 C 4.45 g/m*3 0.8 C 0 km/h
644 11-12-2008 08:42:27 0.8 C 4.45 g/m*3 0.8 C 0 km/h
645 11-12-2008 08:54:26 0.8 C 4.45 g/m*3 0.8 C 0 km/h
646 11-12-2008 09:06:26 0.9 C 4.48 g/m*3 0.9 C 0 km/h
647 11-12-2008 09:18:27 1 C 4.46 g/m*3 1 C 0 km/h
648 11-12-2008 09:30:27 1.1 C 4.49 g/m*3 1.1 C 0 km/h
649 11-12-2008 09:42:27 1.3 C 4.56 g/m*3 1.3 C 0 km/h
650 11-12-2008 09:54:26 1.4 C 4.53 g/m*3 1.4 C 0 km/h
Sensor: Nr:Datum:Temp:Abs-Feuchte:Windchill:Wind:
Aussen-T/F 651 11-12-2008 10:06:26 1.5 C 4.51 g/m*3 1.5 C 0 km/h
652 11-12-2008 10:18:26 1.6 C 4.49 g/m*3 1.6 C 0 km/h
653 11-12-2008 10:30:26 1.7 C 4.46 g/m*3 1.7 C 0 km/h
654 11-12-2008 10:42:26 2 C 4.45 g/m*3 2 C 0 km/h
655 11-12-2008 10:54:25 2.3 C 4.54 g/m*3 2.3 C 0 km/h
656 11-12-2008 11:06:26 2.4 C 4.51 g/m*3 2.4 C 0 km/h
657 11-12-2008 11:18:25 2.3 C 4.31 g/m*3 2.3 C 0 km/h
658 11-12-2008 11:30:25 2.4 C 4.34 g/m*3 2.4 C 0 km/h
659 11-12-2008 11:42:25 2.6 C 4.4 g/m*3 2.6 C 0 km/h
660 11-12-2008 11:54:25 2.8 C 4.4 g/m*3 2.8 C 0 km/h
661 11-12-2008 12:06:25 2.6 C 4.28 g/m*3 2.6 C 0 km/h
662 11-12-2008 12:18:24 2.7 C 4.37 g/m*3 2.7 C 0 km/h
663 11-12-2008 12:30:24 2.9 C 4.43 g/m*3 2.9 C 0 km/h
664 11-12-2008 12:42:24 2.9 C 4.37 g/m*3 2.9 C 0 km/h
665 11-12-2008 12:54:25 3 C 4.28 g/m*3 3 C 0 km/h
666 11-12-2008 13:06:24 3.1 C 4.31 g/m*3 3.1 C 0 km/h
667 11-12-2008 13:18:24 3.2 C 4.34 g/m*3 3.2 C 0 km/h
668 11-12-2008 13:30:24 3 C 4.22 g/m*3 3 C 0 km/h
669 11-12-2008 13:42:24 2.8 C 4.28 g/m*3 2.8 C 0 km/h
670 11-12-2008 13:54:24 2.9 C 4.31 g/m*3 2.9 C 0 km/h
671 11-12-2008 14:06:23 3.1 C 4.31 g/m*3 3.1 C 0 km/h
672 11-12-2008 14:18:24 3.1 C 4.31 g/m*3 3.1 C 0 km/h
673 11-12-2008 14:30:24 3.2 C 4.4 g/m*3 3.2 C 0 km/h
674 11-12-2008 14:42:24 3 C 4.28 g/m*3 3 C 0 km/h
675 11-12-2008 14:54:23 3 C 4.28 g/m*3 3 C 0 km/h
Sensor: Nr:Datum:Temp:Abs-Feuchte:Windchill:Wind:
Aussen-T/F 676 11-12-2008 15:06:24 2.9 C 4.31 g/m*3 2.9 C 0 km/h
677 11-12-2008 15:18:23 2.7 C 4.25 g/m*3 2.7 C 0 km/h
678 11-12-2008 15:30:23 2.8 C 4.34 g/m*3 2.8 C 0 km/h
679 11-12-2008 15:42:23 2.7 C 4.31 g/m*3 2.7 C 0 km/h
680 11-12-2008 15:54:23 2.7 C 4.37 g/m*3 2.7 C 0 km/h
681 11-12-2008 16:06:23 2.4 C 4.34 g/m*3 2.4 C 0 km/h
682 11-12-2008 16:18:22 2.2 C 4.39 g/m*3 2.2 C 0 km/h
683 11-12-2008 16:30:22 2.2 C 4.45 g/m*3 2.2 C 0 km/h
684 11-12-2008 16:42:22 2.1 C 4.48 g/m*3 2.1 C 0 km/h
685 11-12-2008 16:54:22 2.1 C 4.48 g/m*3 2.1 C 0 km/h
686 11-12-2008 17:06:22 2.1 C 4.48 g/m*3 2.1 C 0 km/h
687 11-12-2008 17:18:22 2 C 4.5 g/m*3 2 C 0 km/h
688 11-12-2008 17:30:22 2 C 4.5 g/m*3 2 C 0 km/h
689 11-12-2008 17:42:22 2 C 4.5 g/m*3 2 C 0 km/h
690 11-12-2008 17:54:22 2 C 4.56 g/m*3 2 C 0 km/h
691 11-12-2008 18:06:23 2.1 C 4.59 g/m*3 2.1 C 0 km/h
692 11-12-2008 18:18:22 2 C 4.56 g/m*3 2 C 0 km/h
693 11-12-2008 18:30:22 1.8 C 4.49 g/m*3 1.8 C 0 km/h
694 11-12-2008 18:42:23 1.7 C 4.46 g/m*3 1.7 C 0 km/h
695 11-12-2008 18:54:22 1.7 C 4.46 g/m*3 1.7 C 0 km/h
696 11-12-2008 19:06:22 1.6 C 4.43 g/m*3 1.6 C 0 km/h
697 11-12-2008 19:18:21 1.6 C 4.49 g/m*3 1.6 C 0 km/h
698 11-12-2008 19:30:21 1.6 C 4.49 g/m*3 1.6 C 0 km/h
699 11-12-2008 19:42:22 1.5 C 4.46 g/m*3 1.5 C 0 km/h
700 11-12-2008 19:54:21 1.4 C 4.43 g/m*3 1.4 C 0 km/h
Sensor: Nr:Datum:Temp:Abs-Feuchte:Windchill:Wind:
Aussen-T/F 701 11-12-2008 20:06:21 1.2 C 4.37 g/m*3 1.2 C 0 km/h
702 11-12-2008 20:18:21 1.2 C 4.42 g/m*3 1.2 C 0 km/h
703 11-12-2008 20:30:21 1 C 4.36 g/m*3 1 C 0 km/h
704 11-12-2008 20:42:21 0.9 C 4.38 g/m*3 0.9 C 0 km/h
705 11-12-2008 20:54:20 0.7 C 4.32 g/m*3 0.7 C 0 km/h
706 11-12-2008 21:06:21 0.7 C 4.37 g/m*3 0.7 C 0 km/h
707 11-12-2008 21:18:20 0.7 C 4.37 g/m*3 0.7 C 0 km/h
708 11-12-2008 21:30:20 0.7 C 4.42 g/m*3 0.7 C 0 km/h
709 11-12-2008 21:42:20 0.5 C 4.36 g/m*3 0.5 C 0 km/h
710 11-12-2008 21:54:19 0.4 C 4.33 g/m*3 0.4 C 0 km/h
711 11-12-2008 22:06:19 0.3 C 4.3 g/m*3 0.3 C 0 km/h
712 11-12-2008 22:18:19 0.1 C 4.29 g/m*3 0.1 C 0 km/h
713 11-12-2008 22:30:19 0 C 4.26 g/m*3 0 C 0 km/h
714 11-12-2008 22:42:19 -0.2 C 4.21 g/m*3 -0.2 C 0 km/h
715 11-12-2008 22:55:20 -0.2 C 4.21 g/m*3 -0.2 C 0 km/h
716 11-12-2008 23:07:20 -0.3 C 4.18 g/m*3 -0.3 C 0 km/h
717 11-12-2008 23:19:21 -0.3 C 4.22 g/m*3 -0.3 C 0 km/h
718 11-12-2008 23:31:21 -0.2 C 4.25 g/m*3 -0.2 C 0 km/h
719 11-12-2008 23:43:21 -0.4 C 4.19 g/m*3 -0.4 C 0 km/h
720 11-12-2008 23:55:21 -0.6 C 4.14 g/m*3 -0.6 C 0 km/h
721 12-12-2008 00:07:21 -0.8 C 4.08 g/m*3 -0.8 C 0 km/h
722 12-12-2008 00:19:21 -0.9 C 4.05 g/m*3 -0.9 C 0 km/h
723 12-12-2008 00:31:21 -0.9 C 4.1 g/m*3 -0.9 C 0 km/h
724 12-12-2008 00:43:21 -0.6 C 4.23 g/m*3 -0.6 C 0 km/h
725 12-12-2008 00:55:21 -0.3 C 4.32 g/m*3 -0.3 C 0 km/h
Sensor: Nr:Datum:Temp:Abs-Feuchte:Windchill:Wind:
Aussen-T/F 726 12-12-2008 01:07:21 -0.5 C 4.26 g/m*3 -0.5 C 0 km/h
727 12-12-2008 01:19:21 -0.6 C 4.23 g/m*3 -0.6 C 0 km/h
728 12-12-2008 01:31:21 -0.5 C 4.26 g/m*3 -0.5 C 0 km/h
729 12-12-2008 01:43:21 -0.5 C 4.26 g/m*3 -0.5 C 0 km/h
730 12-12-2008 01:55:21 -0.5 C 4.26 g/m*3 -0.5 C 0 km/h
731 12-12-2008 02:07:21 -0.6 C 4.23 g/m*3 -0.6 C 0 km/h
732 12-12-2008 02:19:21 -0.7 C 4.2 g/m*3 -0.7 C 0 km/h
733 12-12-2008 02:31:21 -1 C 4.07 g/m*3 -1 C 0 km/h
734 12-12-2008 02:43:21 -0.9 C 4.14 g/m*3 -0.9 C 0 km/h
735 12-12-2008 02:55:21 -0.8 C 4.17 g/m*3 -0.8 C 0 km/h
736 12-12-2008 03:07:22 -0.9 C 4.14 g/m*3 -0.9 C 0 km/h
737 12-12-2008 03:19:22 -1 C 4.07 g/m*3 -1 C 0 km/h
738 12-12-2008 03:31:22 -1 C 4.07 g/m*3 -1 C 0 km/h
739 12-12-2008 03:43:22 -1.2 C 4.01 g/m*3 -1.2 C 0 km/h
740 12-12-2008 03:55:22 -1.4 C 3.96 g/m*3 -1.4 C 0 km/h
741 12-12-2008 04:07:22 -1.3 C 3.98 g/m*3 -1.3 C 0 km/h
742 12-12-2008 04:19:22 -1.5 C 3.93 g/m*3 -1.5 C 0 km/h
743 12-12-2008 04:31:22 -1.6 C 3.9 g/m*3 -1.6 C 0 km/h
744 12-12-2008 04:43:22 -1.4 C 4 g/m*3 -1.4 C 0 km/h
745 12-12-2008 04:55:22 -1.5 C 3.97 g/m*3 -1.5 C 0 km/h
746 12-12-2008 05:07:22 -1.4 C 4 g/m*3 -1.4 C 0 km/h
747 12-12-2008 05:19:22 -1.2 C 4.06 g/m*3 -1.2 C 0 km/h
748 12-12-2008 05:31:22 -1.1 C 4.09 g/m*3 -1.1 C 0 km/h
749 12-12-2008 05:43:22 -1.5 C 3.93 g/m*3 -1.5 C 0 km/h
750 12-12-2008 05:55:22 -1.8 C 3.85 g/m*3 -1.8 C 0 km/h
Sensor: Nr:Datum:Temp:Abs-Feuchte:Windchill:Wind:
Aussen-T/F 751 12-12-2008 06:07:22 -1.5 C 3.93 g/m*3 -1.5 C 0 km/h
752 12-12-2008 06:19:22 -1.6 C 3.9 g/m*3 -1.6 C 0 km/h
753 12-12-2008 06:31:22 -1.5 C 3.93 g/m*3 -1.5 C 0 km/h
754 12-12-2008 06:43:22 -1.6 C 3.9 g/m*3 -1.6 C 0 km/h
755 12-12-2008 06:55:22 -1.5 C 3.93 g/m*3 -1.5 C 0 km/h
756 12-12-2008 07:07:20 -1.6 C 3.9 g/m*3 -1.6 C 0 km/h
757 12-12-2008 07:19:20 -1.7 C 3.83 g/m*3 -1.7 C 0 km/h
758 12-12-2008 07:31:20 -1.5 C 3.89 g/m*3 -1.5 C 0 km/h
759 12-12-2008 07:43:20 -1.3 C 3.94 g/m*3 -1.3 C 0 km/h
760 12-12-2008 07:55:20 -1.1 C 4 g/m*3 -1.1 C 0 km/h
761 12-12-2008 08:07:20 -0.9 C 4.01 g/m*3 -0.9 C 0 km/h
762 12-12-2008 08:19:19 -0.8 C 3.99 g/m*3 -0.8 C 0 km/h
763 12-12-2008 08:31:19 -0.7 C 3.97 g/m*3 -0.7 C 0 km/h
764 12-12-2008 08:43:20 -0.6 C 3.9 g/m*3 -0.6 C 0 km/h
765 12-12-2008 08:55:19 -0.6 C 3.9 g/m*3 -0.6 C 0 km/h
766 12-12-2008 09:07:19 -0.4 C 3.96 g/m*3 -0.4 C 0 km/h
767 12-12-2008 09:19:18 -0.3 C 3.99 g/m*3 -0.3 C 0 km/h
768 12-12-2008 09:31:19 -0.2 C 4.01 g/m*3 -0.2 C 0 km/h
769 12-12-2008 09:43:19 -0.1 C 4.04 g/m*3 -0.1 C 0 km/h
770 12-12-2008 09:55:18 0.1 C 4.1 g/m*3 0.1 C 0 km/h
771 12-12-2008 10:07:18 0.2 C 4.13 g/m*3 0.2 C 0 km/h
772 12-12-2008 10:19:18 0.7 C 4.27 g/m*3 0.7 C 0 km/h
773 12-12-2008 10:31:18 0.6 C 4.24 g/m*3 0.6 C 0 km/h
774 12-12-2008 10:43:18 0.7 C 4.22 g/m*3 0.7 C 0 km/h
775 12-12-2008 10:55:18 0.9 C 4.28 g/m*3 0.9 C 0 km/h
Sensor: Nr:Datum:Temp:Abs-Feuchte:Windchill:Wind:
Aussen-T/F 776 12-12-2008 11:07:17 0.9 C 4.12 g/m*3 0.9 C 0 km/h
777 12-12-2008 11:19:18 0.9 C 3.92 g/m*3 0.9 C 0 km/h
778 12-12-2008 11:31:18 0.8 C 3.79 g/m*3 0.8 C 0 km/h
779 12-12-2008 11:43:18 0.8 C 3.79 g/m*3 0.8 C 0 km/h
780 12-12-2008 11:55:17 0.8 C 3.69 g/m*3 0.8 C 0 km/h
781 12-12-2008 12:07:18 1 C 3.69 g/m*3 1 C 0 km/h
782 12-12-2008 12:19:17 1 C 3.69 g/m*3 1 C 0 km/h
783 12-12-2008 12:31:17 1 C 3.63 g/m*3 1 C 0 km/h
784 12-12-2008 12:43:17 1 C 3.63 g/m*3 1 C 0 km/h
785 12-12-2008 12:55:17 1 C 3.69 g/m*3 1 C 0 km/h
786 12-12-2008 13:07:17 0.8 C 3.69 g/m*3 0.8 C 0 km/h
787 12-12-2008 13:19:16 0.8 C 3.63 g/m*3 0.8 C 0 km/h
788 12-12-2008 13:31:16 0.8 C 3.69 g/m*3 0.8 C 0 km/h
789 12-12-2008 13:43:16 1 C 3.69 g/m*3 1 C 0 km/h
790 12-12-2008 13:55:16 1 C 3.69 g/m*3 1 C 0 km/h
791 12-12-2008 14:07:16 0.8 C 3.63 g/m*3 0.8 C 0 km/h
792 12-12-2008 14:19:16 0.9 C 3.66 g/m*3 0.9 C 0 km/h
793 12-12-2008 14:31:16 1 C 3.63 g/m*3 1 C 0 km/h
794 12-12-2008 14:43:16 1 C 3.69 g/m*3 1 C 0 km/h
795 12-12-2008 14:55:16 0.9 C 3.61 g/m*3 0.9 C 0 km/h
796 12-12-2008 15:07:15 0.9 C 3.66 g/m*3 0.9 C 0 km/h
797 12-12-2008 15:19:16 0.9 C 3.66 g/m*3 0.9 C 0 km/h
798 12-12-2008 15:31:16 0.8 C 3.69 g/m*3 0.8 C 0 km/h
799 12-12-2008 15:43:16 0.8 C 3.69 g/m*3 0.8 C 0 km/h
800 12-12-2008 15:55:15 0.7 C 3.66 g/m*3 0.7 C 0 km/h
Sensor: Nr:Datum:Temp:Abs-Feuchte:Windchill:Wind:
Aussen-T/F 801 12-12-2008 16:07:15 0.6 C 3.64 g/m*3 0.6 C 0 km/h
802 12-12-2008 16:19:15 0.6 C 3.64 g/m*3 0.6 C 0 km/h
803 12-12-2008 16:31:15 0.5 C 3.66 g/m*3 0.5 C 0 km/h
804 12-12-2008 16:43:15 0.4 C 3.64 g/m*3 0.4 C 0 km/h
805 12-12-2008 16:55:14 0.4 C 3.64 g/m*3 0.4 C 0 km/h
806 12-12-2008 17:07:15 0.4 C 3.64 g/m*3 0.4 C 0 km/h
807 12-12-2008 17:19:14 0.4 C 3.69 g/m*3 0.4 C 0 km/h
808 12-12-2008 17:31:14 0.4 C 3.64 g/m*3 0.4 C 0 km/h
809 12-12-2008 17:43:14 0.3 C 3.56 g/m*3 0.3 C 0 km/h
810 12-12-2008 17:55:14 0.3 C 3.56 g/m*3 0.3 C 0 km/h
811 12-12-2008 18:07:15 0.3 C 3.61 g/m*3 0.3 C 0 km/h
812 12-12-2008 18:19:16 0.2 C 3.59 g/m*3 0.2 C 0 km/h
813 12-12-2008 18:31:14 0.1 C 3.51 g/m*3 0.1 C 0 km/h
814 12-12-2008 18:43:14 0.2 C 3.59 g/m*3 0.2 C 0 km/h
815 12-12-2008 18:55:13 0.1 C 3.51 g/m*3 0.1 C 0 km/h
816 12-12-2008 19:07:14 0 C 3.49 g/m*3 0 C 0 km/h
817 12-12-2008 19:19:13 0 C 3.49 g/m*3 0 C 0 km/h
818 12-12-2008 19:31:14 0 C 3.54 g/m*3 0 C 0 km/h
819 12-12-2008 19:43:14 -0.1 C 3.51 g/m*3 -0.1 C 0 km/h
820 12-12-2008 19:55:13 -0.2 C 3.44 g/m*3 -0.2 C 0 km/h
821 12-12-2008 20:07:13 -0.3 C 3.42 g/m*3 -0.3 C 0 km/h
822 12-12-2008 20:19:13 -0.3 C 3.42 g/m*3 -0.3 C 0 km/h
823 12-12-2008 20:31:13 -0.3 C 3.42 g/m*3 -0.3 C 0 km/h
824 12-12-2008 20:43:13 -0.3 C 3.42 g/m*3 -0.3 C 0 km/h
825 12-12-2008 20:55:12 -0.4 C 3.39 g/m*3 -0.4 C 0 km/h
Sensor: Nr:Datum:Temp:Abs-Feuchte:Windchill:Wind:
Aussen-T/F 826 12-12-2008 21:07:13 -0.5 C 3.37 g/m*3 -0.5 C 0 km/h
827 12-12-2008 21:19:12 -0.4 C 3.39 g/m*3 -0.4 C 0 km/h
828 12-12-2008 21:31:12 -0.5 C 3.37 g/m*3 -0.5 C 0 km/h
829 12-12-2008 21:43:12 -0.4 C 3.35 g/m*3 -0.4 C 0 km/h
830 12-12-2008 21:55:11 -0.4 C 3.35 g/m*3 -0.4 C 0 km/h
831 12-12-2008 22:07:12 -0.4 C 3.39 g/m*3 -0.4 C 0 km/h
832 12-12-2008 22:20:38 -0.4 C 3.39 g/m*3 -0.4 C 0 km/h
833 12-12-2008 22:32:38 -0.5 C 3.32 g/m*3 -0.5 C 0 km/h
834 12-12-2008 22:44:38 -0.5 C 3.32 g/m*3 -0.5 C 0 km/h
835 12-12-2008 22:56:38 -0.6 C 3.35 g/m*3 -0.6 C 0 km/h
836 12-12-2008 23:08:38 -0.6 C 3.3 g/m*3 -0.6 C 0 km/h
837 12-12-2008 23:20:38 -0.7 C 3.32 g/m*3 -0.7 C 0 km/h
838 12-12-2008 23:32:38 -0.6 C 3.35 g/m*3 -0.6 C 0 km/h
839 12-12-2008 23:44:38 -0.6 C 3.35 g/m*3 -0.6 C 0 km/h
840 12-12-2008 23:56:38 -0.6 C 3.35 g/m*3 -0.6 C 0 km/h
841 13-12-2008 00:08:38 -0.6 C 3.35 g/m*3 -0.6 C 0 km/h
842 13-12-2008 00:20:38 -0.7 C 3.32 g/m*3 -0.7 C 0 km/h
843 13-12-2008 00:32:38 -0.7 C 3.32 g/m*3 -0.7 C 0 km/h
844 13-12-2008 00:44:38 -0.7 C 3.37 g/m*3 -0.7 C 0 km/h
845 13-12-2008 00:56:38 -0.7 C 3.37 g/m*3 -0.7 C 0 km/h
846 13-12-2008 01:08:38 -0.7 C 3.37 g/m*3 -0.7 C 0 km/h
847 13-12-2008 01:20:38 -0.7 C 3.37 g/m*3 -0.7 C 0 km/h
848 13-12-2008 01:32:39 -0.7 C 3.37 g/m*3 -0.7 C 0 km/h
849 13-12-2008 01:44:39 -0.7 C 3.37 g/m*3 -0.7 C 0 km/h
850 13-12-2008 01:56:39 -0.8 C 3.35 g/m*3 -0.8 C 0 km/h
Sensor: Nr:Datum:Temp:Abs-Feuchte:Windchill:Wind:
Aussen-T/F 851 13-12-2008 02:08:39 -0.8 C 3.39 g/m*3 -0.8 C 0 km/h
852 13-12-2008 02:20:39 -0.9 C 3.37 g/m*3 -0.9 C 0 km/h
853 13-12-2008 02:32:39 -0.9 C 3.37 g/m*3 -0.9 C 0 km/h
854 13-12-2008 02:44:39 -1 C 3.35 g/m*3 -1 C 0 km/h
855 13-12-2008 02:56:39 -1.1 C 3.32 g/m*3 -1.1 C 0 km/h
856 13-12-2008 03:08:39 -1.1 C 3.32 g/m*3 -1.1 C 0 km/h
857 13-12-2008 03:20:39 -1.1 C 3.32 g/m*3 -1.1 C 0 km/h
858 13-12-2008 03:32:39 -1.1 C 3.32 g/m*3 -1.1 C 0 km/h
859 13-12-2008 03:44:39 -1.2 C 3.3 g/m*3 -1.2 C 0 km/h
860 13-12-2008 03:56:39 -1.2 C 3.3 g/m*3 -1.2 C 0 km/h
861 13-12-2008 04:08:39 -1.3 C 3.28 g/m*3 -1.3 C 0 km/h
862 13-12-2008 04:20:39 -1.3 C 3.32 g/m*3 -1.3 C 0 km/h
863 13-12-2008 04:32:39 -1.3 C 3.32 g/m*3 -1.3 C 0 km/h
864 13-12-2008 04:44:39 -1.3 C 3.32 g/m*3 -1.3 C 0 km/h
865 13-12-2008 04:56:39 -1.3 C 3.32 g/m*3 -1.3 C 0 km/h
866 13-12-2008 05:08:39 -1.2 C 3.34 g/m*3 -1.2 C 0 km/h
867 13-12-2008 05:20:40 -1.1 C 3.41 g/m*3 -1.1 C 0 km/h
868 13-12-2008 05:32:40 -1.1 C 3.37 g/m*3 -1.1 C 0 km/h
869 13-12-2008 05:44:40 -1 C 3.39 g/m*3 -1 C 0 km/h
870 13-12-2008 05:56:40 -0.9 C 3.41 g/m*3 -0.9 C 0 km/h
871 13-12-2008 06:08:40 -0.8 C 3.44 g/m*3 -0.8 C 0 km/h
872 13-12-2008 06:20:40 -0.8 C 3.44 g/m*3 -0.8 C 0 km/h
873 13-12-2008 06:32:40 -0.8 C 3.44 g/m*3 -0.8 C 0 km/h
874 13-12-2008 06:44:40 -0.8 C 3.39 g/m*3 -0.8 C 0 km/h
875 13-12-2008 06:56:40 -0.7 C 3.46 g/m*3 -0.7 C 0 km/h
Sensor: Nr:Datum:Temp:Abs-Feuchte:Windchill:Wind:
Aussen-T/F 876 13-12-2008 07:08:40 -0.7 C 3.46 g/m*3 -0.7 C 0 km/h
877 13-12-2008 07:20:40 -0.7 C 3.46 g/m*3 -0.7 C 0 km/h
878 13-12-2008 07:32:40 -0.6 C 3.49 g/m*3 -0.6 C 0 km/h
879 13-12-2008 07:44:40 -0.6 C 3.49 g/m*3 -0.6 C 0 km/h
880 13-12-2008 07:56:40 -0.6 C 3.49 g/m*3 -0.6 C 0 km/h
881 13-12-2008 08:08:37 -0.6 C 3.53 g/m*3 -0.6 C 0 km/h
882 13-12-2008 08:20:37 -0.5 C 3.56 g/m*3 -0.5 C 0 km/h
883 13-12-2008 08:32:37 -0.5 C 3.56 g/m*3 -0.5 C 0 km/h
884 13-12-2008 08:44:37 -0.5 C 3.56 g/m*3 -0.5 C 0 km/h
885 13-12-2008 08:56:37 -0.5 C 3.6 g/m*3 -0.5 C 0 km/h
886 13-12-2008 09:08:37 -0.4 C 3.63 g/m*3 -0.4 C 0 km/h
887 13-12-2008 09:20:37 -0.3 C 3.65 g/m*3 -0.3 C 0 km/h
888 13-12-2008 09:32:37 -0.2 C 3.68 g/m*3 -0.2 C 0 km/h
889 13-12-2008 09:44:37 -0.2 C 3.68 g/m*3 -0.2 C 0 km/h
890 13-12-2008 09:56:37 -0.1 C 3.71 g/m*3 -0.1 C 0 km/h
891 13-12-2008 10:08:36 0.1 C 3.76 g/m*3 0.1 C 0 km/h
892 13-12-2008 10:20:37 0.1 C 3.76 g/m*3 0.1 C 0 km/h
893 13-12-2008 10:32:36 0.2 C 3.78 g/m*3 0.2 C 0 km/h
894 13-12-2008 10:44:36 0.3 C 3.81 g/m*3 0.3 C 0 km/h
895 13-12-2008 10:56:36 0.3 C 3.81 g/m*3 0.3 C 0 km/h
896 13-12-2008 11:08:36 0.3 C 3.81 g/m*3 0.3 C 0 km/h
897 13-12-2008 11:20:36 0.3 C 3.81 g/m*3 0.3 C 0 km/h
898 13-12-2008 11:32:36 0.3 C 3.81 g/m*3 0.3 C 0 km/h
899 13-12-2008 11:44:36 0.3 C 3.86 g/m*3 0.3 C 0 km/h
900 13-12-2008 11:56:36 0.4 C 3.93 g/m*3 0.4 C 0 km/h
Sensor: Nr:Datum:Temp:Abs-Feuchte:Windchill:Wind:
Aussen-T/F 901 13-12-2008 12:08:36 0.5 C 3.96 g/m*3 0.5 C 0 km/h
902 13-12-2008 12:20:35 0.5 C 3.96 g/m*3 0.5 C 0 km/h
903 13-12-2008 12:32:35 0.5 C 3.96 g/m*3 0.5 C 0 km/h
904 13-12-2008 12:44:35 0.5 C 3.96 g/m*3 0.5 C 0 km/h
905 13-12-2008 12:56:35 0.7 C 3.97 g/m*3 0.7 C 0 km/h
906 13-12-2008 13:08:35 0.7 C 3.97 g/m*3 0.7 C 0 km/h
907 13-12-2008 13:20:34 0.8 C 3.94 g/m*3 0.8 C 0 km/h
908 13-12-2008 13:32:35 0.8 C 3.89 g/m*3 0.8 C 0 km/h
909 13-12-2008 13:44:35 0.8 C 3.84 g/m*3 0.8 C 0 km/h
910 13-12-2008 13:56:34 0.9 C 3.76 g/m*3 0.9 C 0 km/h
911 13-12-2008 14:08:36 1 C 3.74 g/m*3 1 C 0 km/h
912 13-12-2008 14:20:35 1 C 3.69 g/m*3 1 C 0 km/h
913 13-12-2008 14:32:35 1 C 3.69 g/m*3 1 C 0 km/h
914 13-12-2008 14:44:35 1 C 3.63 g/m*3 1 C 0 km/h
915 13-12-2008 14:56:35 1 C 3.69 g/m*3 1 C 0 km/h
916 13-12-2008 15:08:34 1 C 3.69 g/m*3 1 C 0 km/h
917 13-12-2008 15:20:34 1 C 3.69 g/m*3 1 C 0 km/h
918 13-12-2008 15:32:33 1 C 3.69 g/m*3 1 C 0 km/h
919 13-12-2008 15:44:33 1 C 3.63 g/m*3 1 C 0 km/h
920 13-12-2008 15:56:33 1 C 3.63 g/m*3 1 C 0 km/h
921 13-12-2008 16:08:33 1 C 3.63 g/m*3 1 C 0 km/h
922 13-12-2008 16:20:33 0.9 C 3.66 g/m*3 0.9 C 0 km/h
923 13-12-2008 16:32:33 0.9 C 3.66 g/m*3 0.9 C 0 km/h
924 13-12-2008 16:44:33 0.9 C 3.71 g/m*3 0.9 C 0 km/h
925 13-12-2008 16:56:33 0.8 C 3.69 g/m*3 0.8 C 0 km/h
Sensor: Nr:Datum:Temp:Abs-Feuchte:Windchill:Wind:
Aussen-T/F 926 13-12-2008 17:08:32 0.8 C 3.63 g/m*3 0.8 C 0 km/h
927 13-12-2008 17:20:33 0.8 C 3.63 g/m*3 0.8 C 0 km/h
928 13-12-2008 17:32:33 0.8 C 3.63 g/m*3 0.8 C 0 km/h
929 13-12-2008 17:44:33 0.7 C 3.61 g/m*3 0.7 C 0 km/h
930 13-12-2008 17:56:32 0.7 C 3.61 g/m*3 0.7 C 0 km/h
931 13-12-2008 18:08:33 0.8 C 3.63 g/m*3 0.8 C 0 km/h
932 13-12-2008 18:20:32 0.6 C 3.53 g/m*3 0.6 C 0 km/h
933 13-12-2008 18:32:32 0.5 C 3.56 g/m*3 0.5 C 0 km/h
934 13-12-2008 18:44:32 0.3 C 3.51 g/m*3 0.3 C 0 km/h
935 13-12-2008 18:56:32 -0.1 C 3.46 g/m*3 -0.1 C 0 km/h
936 13-12-2008 19:08:32 -0.2 C 3.49 g/m*3 -0.2 C 0 km/h
937 13-12-2008 19:20:31 -0.2 C 3.49 g/m*3 -0.2 C 0 km/h
938 13-12-2008 19:32:31 -0.2 C 3.44 g/m*3 -0.2 C 0 km/h
939 13-12-2008 19:44:31 -0.6 C 3.39 g/m*3 -0.6 C 0 km/h
940 13-12-2008 19:56:31 -1 C 3.35 g/m*3 -1 C 0 km/h
941 13-12-2008 20:08:31 -1.2 C 3.34 g/m*3 -1.2 C 0 km/h
942 13-12-2008 20:20:31 -1.4 C 3.39 g/m*3 -1.4 C 0 km/h
943 13-12-2008 20:32:31 -0.5 C 3.51 g/m*3 -0.5 C 0 km/h
944 13-12-2008 20:44:31 -0.7 C 3.46 g/m*3 -0.7 C 0 km/h
945 13-12-2008 20:56:31 -1 C 3.44 g/m*3 -1 C 0 km/h
946 13-12-2008 21:08:31 -1 C 3.48 g/m*3 -1 C 0 km/h
947 13-12-2008 21:20:30 -1.1 C 3.5 g/m*3 -1.1 C 0 km/h
948 13-12-2008 21:32:30 -1.3 C 3.5 g/m*3 -1.3 C 0 km/h
949 13-12-2008 21:44:31 -1.4 C 3.52 g/m*3 -1.4 C 0 km/h
950 13-12-2008 21:56:30 -1.3 C 3.59 g/m*3 -1.3 C 0 km/h
Sensor: Nr:Datum:Temp:Abs-Feuchte:Windchill:Wind:
Aussen-T/F 951 13-12-2008 22:08:30 -1.1 C 3.64 g/m*3 -1.1 C 0 km/h
952 13-12-2008 22:20:29 -0.9 C 3.69 g/m*3 -0.9 C 0 km/h
953 13-12-2008 22:32:30 -0.5 C 3.7 g/m*3 -0.5 C 0 km/h
954 13-12-2008 22:44:30 -0.6 C 3.63 g/m*3 -0.6 C 0 km/h
955 13-12-2008 22:57:30 -0.8 C 3.58 g/m*3 -0.8 C 0 km/h
956 13-12-2008 23:09:30 -0.9 C 3.6 g/m*3 -0.9 C 0 km/h
957 13-12-2008 23:21:30 -0.8 C 3.62 g/m*3 -0.8 C 0 km/h
958 13-12-2008 23:33:30 -0.6 C 3.67 g/m*3 -0.6 C 0 km/h
959 13-12-2008 23:45:30 -0.7 C 3.65 g/m*3 -0.7 C 0 km/h
960 13-12-2008 23:57:30 -1 C 3.57 g/m*3 -1 C 0 km/h
961 14-12-2008 00:09:30 -1 C 3.57 g/m*3 -1 C 0 km/h
962 14-12-2008 00:21:30 -1.3 C 3.54 g/m*3 -1.3 C 0 km/h
963 14-12-2008 00:33:30 -1.4 C 3.56 g/m*3 -1.4 C 0 km/h
964 14-12-2008 00:45:30 -1.2 C 3.7 g/m*3 -1.2 C 0 km/h
965 14-12-2008 00:57:30 -1 C 3.75 g/m*3 -1 C 0 km/h
966 14-12-2008 01:09:30 -1.2 C 3.7 g/m*3 -1.2 C 0 km/h
967 14-12-2008 01:21:30 -1.4 C 3.65 g/m*3 -1.4 C 0 km/h
968 14-12-2008 01:33:30 -1.4 C 3.65 g/m*3 -1.4 C 0 km/h
969 14-12-2008 01:45:31 -1.2 C 3.74 g/m*3 -1.2 C 0 km/h
970 14-12-2008 01:57:31 -1 C 3.8 g/m*3 -1 C 0 km/h
971 14-12-2008 02:09:31 -1.1 C 3.73 g/m*3 -1.1 C 0 km/h
972 14-12-2008 02:21:31 -1.2 C 3.7 g/m*3 -1.2 C 0 km/h
973 14-12-2008 02:33:31 -0.8 C 3.8 g/m*3 -0.8 C 0 km/h
974 14-12-2008 02:45:31 -0.5 C 3.88 g/m*3 -0.5 C 0 km/h
975 14-12-2008 02:57:31 -0.4 C 3.86 g/m*3 -0.4 C 0 km/h
Sensor: Nr:Datum:Temp:Abs-Feuchte:Windchill:Wind:
Aussen-T/F 976 14-12-2008 03:09:31 -0.5 C 3.84 g/m*3 -0.5 C 0 km/h
977 14-12-2008 03:21:31 -0.4 C 3.86 g/m*3 -0.4 C 0 km/h
978 14-12-2008 03:33:31 -0.5 C 3.84 g/m*3 -0.5 C 0 km/h
979 14-12-2008 03:45:31 -0.5 C 3.84 g/m*3 -0.5 C 0 km/h
980 14-12-2008 03:57:31 -0.6 C 3.81 g/m*3 -0.6 C 0 km/h
981 14-12-2008 04:09:31 -0.8 C 3.76 g/m*3 -0.8 C 0 km/h
982 14-12-2008 04:21:31 -0.9 C 3.73 g/m*3 -0.9 C 0 km/h
983 14-12-2008 04:33:31 -0.8 C 3.8 g/m*3 -0.8 C 0 km/h
984 14-12-2008 04:45:31 -0.8 C 3.8 g/m*3 -0.8 C 0 km/h
985 14-12-2008 04:57:31 -0.9 C 3.78 g/m*3 -0.9 C 0 km/h
986 14-12-2008 05:09:31 -0.9 C 3.73 g/m*3 -0.9 C 0 km/h
987 14-12-2008 05:21:31 -1 C 3.71 g/m*3 -1 C 0 km/h
988 14-12-2008 05:33:31 -1.1 C 3.73 g/m*3 -1.1 C 0 km/h
989 14-12-2008 05:45:32 -1.1 C 3.73 g/m*3 -1.1 C 0 km/h
990 14-12-2008 05:57:32 -1.1 C 3.73 g/m*3 -1.1 C 0 km/h
991 14-12-2008 06:09:32 -1.1 C 3.73 g/m*3 -1.1 C 0 km/h
992 14-12-2008 06:21:32 -1.1 C 3.77 g/m*3 -1.1 C 0 km/h
993 14-12-2008 06:33:32 -1.1 C 3.77 g/m*3 -1.1 C 0 km/h
994 14-12-2008 06:45:32 -1 C 3.8 g/m*3 -1 C 0 km/h
995 14-12-2008 06:57:32 -1.1 C 3.77 g/m*3 -1.1 C 0 km/h
996 14-12-2008 07:09:32 -1.1 C 3.77 g/m*3 -1.1 C 0 km/h
997 14-12-2008 07:21:32 -1.3 C 3.67 g/m*3 -1.3 C 0 km/h
998 14-12-2008 07:33:32 -1.3 C 3.72 g/m*3 -1.3 C 0 km/h
999 14-12-2008 07:45:32 -1.4 C 3.69 g/m*3 -1.4 C 0 km/h
1000 14-12-2008 07:57:32 -1.4 C 3.69 g/m*3 -1.4 C 0 km/h
Sensor: Nr:Datum:Temp:Abs-Feuchte:Windchill:Wind:
Aussen-T/F 1001 14-12-2008 08:09:31 -1.4 C 3.69 g/m*3 -1.4 C 0 km/h
1002 14-12-2008 08:21:30 -1.5 C 3.71 g/m*3 -1.5 C 0 km/h
1003 14-12-2008 08:33:31 -1.4 C 3.74 g/m*3 -1.4 C 0 km/h
1004 14-12-2008 08:45:30 -1.5 C 3.71 g/m*3 -1.5 C 0 km/h
1005 14-12-2008 08:57:30 -1.5 C 3.71 g/m*3 -1.5 C 0 km/h
1006 14-12-2008 09:09:30 -1.3 C 3.76 g/m*3 -1.3 C 0 km/h
1007 14-12-2008 09:21:30 -1 C 3.89 g/m*3 -1 C 0 km/h
1008 14-12-2008 09:33:30 -0.9 C 3.91 g/m*3 -0.9 C 0 km/h
1009 14-12-2008 09:45:29 -0.8 C 3.9 g/m*3 -0.8 C 0 km/h
1010 14-12-2008 09:57:29 -0.7 C 3.92 g/m*3 -0.7 C 0 km/h
1011 14-12-2008 10:09:30 -0.7 C 3.92 g/m*3 -0.7 C 0 km/h
1012 14-12-2008 10:21:30 -0.4 C 4.05 g/m*3 -0.4 C 0 km/h
1013 14-12-2008 10:33:29 0 C 4.12 g/m*3 0 C 0 km/h
1014 14-12-2008 10:45:30 0.2 C 4.18 g/m*3 0.2 C 0 km/h
1015 14-12-2008 10:57:30 0.7 C 4.37 g/m*3 0.7 C 0 km/h
1016 14-12-2008 11:09:29 1 C 4.41 g/m*3 1 C 0 km/h
1017 14-12-2008 11:21:29 1.2 C 4.42 g/m*3 1.2 C 0 km/h
1018 14-12-2008 11:33:28 1.2 C 4.42 g/m*3 1.2 C 0 km/h
1019 14-12-2008 11:45:29 1.1 C 4.39 g/m*3 1.1 C 0 km/h
1020 14-12-2008 11:57:29 1.1 C 4.44 g/m*3 1.1 C 0 km/h
1021 14-12-2008 12:09:29 1.2 C 4.47 g/m*3 1.2 C 0 km/h
1022 14-12-2008 12:21:28 1 C 4.41 g/m*3 1 C 0 km/h
1023 14-12-2008 12:33:29 1 C 4.46 g/m*3 1 C 0 km/h
1024 14-12-2008 12:45:28 1.1 C 4.49 g/m*3 1.1 C 0 km/h
1025 14-12-2008 12:57:28 1.4 C 4.64 g/m*3 1.4 C 0 km/h
Sensor: Nr:Datum:Temp:Abs-Feuchte:Windchill:Wind:
Aussen-T/F 1026 14-12-2008 13:09:28 1.8 C 4.77 g/m*3 1.8 C 0 km/h
1027 14-12-2008 13:21:28 2.2 C 4.79 g/m*3 2.2 C 0 km/h
1028 14-12-2008 13:33:28 2.4 C 4.8 g/m*3 2.4 C 0 km/h
1029 14-12-2008 13:45:27 2.3 C 4.71 g/m*3 2.3 C 0 km/h
1030 14-12-2008 13:57:27 2.6 C 4.8 g/m*3 2.6 C 0 km/h
1031 14-12-2008 14:09:28 2.8 C 4.81 g/m*3 2.8 C 0 km/h
1032 14-12-2008 14:21:28 2.5 C 4.66 g/m*3 2.5 C 0 km/h
1033 14-12-2008 14:33:27 2.5 C 4.66 g/m*3 2.5 C 0 km/h
1034 14-12-2008 14:45:27 2.4 C 4.62 g/m*3 2.4 C 0 km/h
1035 14-12-2008 14:57:27 2.3 C 4.65 g/m*3 2.3 C 0 km/h
1036 14-12-2008 15:09:27 2.4 C 4.68 g/m*3 2.4 C 0 km/h
1037 14-12-2008 15:21:27 2.3 C 4.65 g/m*3 2.3 C 0 km/h
1038 14-12-2008 15:33:26 2.1 C 4.64 g/m*3 2.1 C 0 km/h
1039 14-12-2008 15:45:27 2.1 C 4.64 g/m*3 2.1 C 0 km/h
1040 14-12-2008 15:57:28 2.1 C 4.7 g/m*3 2.1 C 0 km/h
1041 14-12-2008 16:09:26 2.2 C 4.73 g/m*3 2.2 C 0 km/h
1042 14-12-2008 16:21:26 1.7 C 4.57 g/m*3 1.7 C 0 km/h
1043 14-12-2008 16:33:27 1.5 C 4.57 g/m*3 1.5 C 0 km/h
1044 14-12-2008 16:45:26 1.4 C 4.59 g/m*3 1.4 C 0 km/h
1045 14-12-2008 16:57:26 1.2 C 4.53 g/m*3 1.2 C 0 km/h
1046 14-12-2008 17:09:26 1.3 C 4.61 g/m*3 1.3 C 0 km/h
1047 14-12-2008 17:21:25 1.3 C 4.66 g/m*3 1.3 C 0 km/h
1048 14-12-2008 17:33:26 1.2 C 4.63 g/m*3 1.2 C 0 km/h
1049 14-12-2008 17:45:25 1.2 C 4.63 g/m*3 1.2 C 0 km/h
1050 14-12-2008 17:57:25 1 C 4.62 g/m*3 1 C 0 km/h
Sensor: Nr:Datum:Temp:Abs-Feuchte:Windchill:Wind:
Aussen-T/F 1051 14-12-2008 18:09:25 1 C 4.62 g/m*3 1 C 0 km/h
1052 14-12-2008 18:21:25 0.9 C 4.64 g/m*3 0.9 C 0 km/h
1053 14-12-2008 18:33:25 0.9 C 4.64 g/m*3 0.9 C 0 km/h
1054 14-12-2008 18:45:25 0.9 C 4.69 g/m*3 0.9 C 0 km/h
1055 14-12-2008 18:57:25 0.7 C 4.63 g/m*3 0.7 C 0 km/h
1056 14-12-2008 19:09:25 0.5 C 4.51 g/m*3 0.5 C 0 km/h
1057 14-12-2008 19:21:25 0.7 C 4.63 g/m*3 0.7 C 0 km/h
1058 14-12-2008 19:33:24 0.8 C 4.71 g/m*3 0.8 C 0 km/h
1059 14-12-2008 19:45:25 0.7 C 4.68 g/m*3 0.7 C 0 km/h
1060 14-12-2008 19:57:25 0.7 C 4.68 g/m*3 0.7 C 0 km/h
1061 14-12-2008 20:09:24 0.9 C 4.74 g/m*3 0.9 C 0 km/h
1062 14-12-2008 20:21:24 1 C 4.78 g/m*3 1 C 0 km/h
1063 14-12-2008 20:33:24 1.2 C 4.84 g/m*3 1.2 C 0 km/h
1064 14-12-2008 20:45:23 1.1 C 4.81 g/m*3 1.1 C 0 km/h
1065 14-12-2008 20:57:23 1.2 C 4.84 g/m*3 1.2 C 0 km/h
1066 14-12-2008 21:09:24 1 C 4.72 g/m*3 1 C 0 km/h
1067 14-12-2008 21:21:23 1 C 4.72 g/m*3 1 C 0 km/h
1068 14-12-2008 21:33:24 0.8 C 4.71 g/m*3 0.8 C 0 km/h
1069 14-12-2008 21:45:24 0.8 C 4.71 g/m*3 0.8 C 0 km/h
1070 14-12-2008 21:57:24 0.8 C 4.71 g/m*3 0.8 C 0 km/h
1071 14-12-2008 22:09:23 0.7 C 4.68 g/m*3 0.7 C 0 km/h
1072 14-12-2008 22:21:23 0.6 C 4.65 g/m*3 0.6 C 0 km/h
1073 14-12-2008 22:34:24 0.5 C 4.61 g/m*3 0.5 C 0 km/h
1074 14-12-2008 22:46:24 0.6 C 4.65 g/m*3 0.6 C 0 km/h
1075 14-12-2008 22:58:24 0.7 C 4.73 g/m*3 0.7 C 0 km/h
Sensor: Nr:Datum:Temp:Abs-Feuchte:Windchill:Wind:
Aussen-T/F 1076 14-12-2008 23:10:24 0.6 C 4.65 g/m*3 0.6 C 0 km/h
1077 14-12-2008 23:22:24 0.7 C 4.68 g/m*3 0.7 C 0 km/h
1078 14-12-2008 23:34:24 0.9 C 4.79 g/m*3 0.9 C 0 km/h
1079 14-12-2008 23:46:24 1.3 C 4.87 g/m*3 1.3 C 0 km/h
1080 14-12-2008 23:58:25 1.5 C 4.89 g/m*3 1.5 C 0 km/h
1081 15-12-2008 00:10:25 1.4 C 4.8 g/m*3 1.4 C 0 km/h
1082 15-12-2008 00:22:25 1.2 C 4.68 g/m*3 1.2 C 0 km/h
1083 15-12-2008 00:34:25 0.8 C 4.56 g/m*3 0.8 C 0 km/h
1084 15-12-2008 00:46:25 0.6 C 4.54 g/m*3 0.6 C 0 km/h
1085 15-12-2008 00:58:25 0.5 C 4.51 g/m*3 0.5 C 0 km/h
1086 15-12-2008 01:10:25 0.2 C 4.42 g/m*3 0.2 C 0 km/h
1087 15-12-2008 01:22:25 0.2 C 4.47 g/m*3 0.2 C 0 km/h
1088 15-12-2008 01:34:25 0.2 C 4.47 g/m*3 0.2 C 0 km/h
1089 15-12-2008 01:46:25 0.4 C 4.58 g/m*3 0.4 C 0 km/h
1090 15-12-2008 01:58:25 0.3 C 4.55 g/m*3 0.3 C 0 km/h
1091 15-12-2008 02:10:25 0.3 C 4.55 g/m*3 0.3 C 0 km/h
1092 15-12-2008 02:22:25 0.1 C 4.49 g/m*3 0.1 C 0 km/h
1093 15-12-2008 02:34:25 0 C 4.46 g/m*3 0 C 0 km/h
1094 15-12-2008 02:46:25 -0.1 C 4.43 g/m*3 -0.1 C 0 km/h
1095 15-12-2008 02:58:25 -0.1 C 4.43 g/m*3 -0.1 C 0 km/h
1096 15-12-2008 03:10:25 -0.2 C 4.4 g/m*3 -0.2 C 0 km/h
1097 15-12-2008 03:22:25 -0.3 C 4.41 g/m*3 -0.3 C 0 km/h
1098 15-12-2008 03:34:25 -0.4 C 4.38 g/m*3 -0.4 C 0 km/h
1099 15-12-2008 03:46:25 -0.3 C 4.41 g/m*3 -0.3 C 0 km/h
1100 15-12-2008 03:58:26 -0.4 C 4.38 g/m*3 -0.4 C 0 km/h
Sensor: Nr:Datum:Temp:Abs-Feuchte:Windchill:Wind:
Aussen-T/F 1101 15-12-2008 04:10:26 -0.4 C 4.38 g/m*3 -0.4 C 0 km/h
1102 15-12-2008 04:22:26 -0.3 C 4.46 g/m*3 -0.3 C 0 km/h
1103 15-12-2008 04:34:26 -0.3 C 4.46 g/m*3 -0.3 C 0 km/h
1104 15-12-2008 04:46:26 -0.3 C 4.46 g/m*3 -0.3 C 0 km/h
1105 15-12-2008 04:58:26 -0.3 C 4.46 g/m*3 -0.3 C 0 km/h
1106 15-12-2008 05:10:26 -0.5 C 4.4 g/m*3 -0.5 C 0 km/h
1107 15-12-2008 05:22:26 -0.4 C 4.43 g/m*3 -0.4 C 0 km/h
1108 15-12-2008 05:34:26 -0.5 C 4.4 g/m*3 -0.5 C 0 km/h
1109 15-12-2008 05:46:26 -0.6 C 4.37 g/m*3 -0.6 C 0 km/h
1110 15-12-2008 05:58:26 -0.9 C 4.28 g/m*3 -0.9 C 0 km/h
1111 15-12-2008 06:10:26 -1 C 4.25 g/m*3 -1 C 0 km/h
1112 15-12-2008 06:22:26 -1 C 4.25 g/m*3 -1 C 0 km/h
1113 15-12-2008 06:34:24 -1.1 C 4.26 g/m*3 -1.1 C 0 km/h
1114 15-12-2008 06:46:23 -1.3 C 4.16 g/m*3 -1.3 C 0 km/h
1115 15-12-2008 06:58:23 -1.6 C 4.07 g/m*3 -1.6 C 0 km/h
1116 15-12-2008 07:10:24 -1.4 C 4.18 g/m*3 -1.4 C 0 km/h
1117 15-12-2008 07:22:23 -1.5 C 4.15 g/m*3 -1.5 C 0 km/h
1118 15-12-2008 07:34:23 -1.4 C 4.18 g/m*3 -1.4 C 0 km/h
1119 15-12-2008 07:46:22 -1.4 C 4.18 g/m*3 -1.4 C 0 km/h
1120 15-12-2008 07:58:22 -1.6 C 4.12 g/m*3 -1.6 C 0 km/h
1121 15-12-2008 08:10:23 -1.7 C 4.09 g/m*3 -1.7 C 0 km/h
1122 15-12-2008 08:22:23 -1.9 C 4.03 g/m*3 -1.9 C 0 km/h
1123 15-12-2008 08:34:22 -2 C 4 g/m*3 -2 C 0 km/h
1124 15-12-2008 08:46:23 -2 C 4 g/m*3 -2 C 0 km/h
1125 15-12-2008 08:58:23 -2.1 C 3.98 g/m*3 -2.1 C 0 km/h
Sensor: Nr:Datum:Temp:Abs-Feuchte:Windchill:Wind:
Aussen-T/F 1126 15-12-2008 09:10:22 -2.1 C 3.98 g/m*3 -2.1 C 0 km/h
1127 15-12-2008 09:22:22 -1.8 C 4.06 g/m*3 -1.8 C 0 km/h
1128 15-12-2008 09:34:22 -1.8 C 4.06 g/m*3 -1.8 C 0 km/h
1129 15-12-2008 09:46:22 -1.8 C 4.06 g/m*3 -1.8 C 0 km/h
1130 15-12-2008 09:58:22 -1.7 C 4.09 g/m*3 -1.7 C 0 km/h
1131 15-12-2008 10:10:22 -1.6 C 4.12 g/m*3 -1.6 C 0 km/h
1132 15-12-2008 10:22:21 -1.5 C 4.15 g/m*3 -1.5 C 0 km/h
1133 15-12-2008 10:34:22 -1.4 C 4.18 g/m*3 -1.4 C 0 km/h
1134 15-12-2008 10:46:21 -1.1 C 4.26 g/m*3 -1.1 C 0 km/h
1135 15-12-2008 10:58:21 -0.9 C 4.32 g/m*3 -0.9 C 0 km/h
1136 15-12-2008 11:10:21 -0.7 C 4.39 g/m*3 -0.7 C 0 km/h
1137 15-12-2008 11:22:21 -0.8 C 4.35 g/m*3 -0.8 C 0 km/h
1138 15-12-2008 11:34:21 -0.7 C 4.39 g/m*3 -0.7 C 0 km/h
1139 15-12-2008 11:46:20 -0.6 C 4.42 g/m*3 -0.6 C 0 km/h
1140 15-12-2008 11:58:20 -0.4 C 4.48 g/m*3 -0.4 C 0 km/h
1141 15-12-2008 12:10:21 -0.2 C 4.54 g/m*3 -0.2 C 0 km/h
1142 15-12-2008 12:22:21 -0.2 C 4.54 g/m*3 -0.2 C 0 km/h
1143 15-12-2008 12:34:20 0.1 C 4.63 g/m*3 0.1 C 0 km/h
1144 15-12-2008 12:46:21 0.2 C 4.67 g/m*3 0.2 C 0 km/h
1145 15-12-2008 12:58:21 0.3 C 4.7 g/m*3 0.3 C 0 km/h
1146 15-12-2008 13:10:20 0.5 C 4.76 g/m*3 0.5 C 0 km/h
1147 15-12-2008 13:22:20 0.5 C 4.76 g/m*3 0.5 C 0 km/h
1148 15-12-2008 13:34:19 0.5 C 4.76 g/m*3 0.5 C 0 km/h
1149 15-12-2008 13:46:20 0.7 C 4.83 g/m*3 0.7 C 0 km/h
1150 15-12-2008 13:58:20 0.7 C 4.83 g/m*3 0.7 C 0 km/h
Sensor: Nr:Datum:Temp:Abs-Feuchte:Windchill:Wind:
Aussen-T/F 1151 15-12-2008 14:10:19 0.8 C 4.86 g/m*3 0.8 C 0 km/h
1152 15-12-2008 14:22:19 1 C 4.93 g/m*3 1 C 0 km/h
1153 15-12-2008 14:34:20 1 C 4.93 g/m*3 1 C 0 km/h
1154 15-12-2008 14:46:19 1.1 C 4.96 g/m*3 1.1 C 0 km/h
1155 15-12-2008 14:58:19 1.1 C 4.96 g/m*3 1.1 C 0 km/h
1156 15-12-2008 15:10:19 1.1 C 4.96 g/m*3 1.1 C 0 km/h
1157 15-12-2008 15:22:19 1 C 4.93 g/m*3 1 C 0 km/h
1158 15-12-2008 15:34:19 1 C 4.93 g/m*3 1 C 0 km/h
1159 15-12-2008 15:46:18 0.9 C 4.9 g/m*3 0.9 C 0 km/h
1160 15-12-2008 15:58:18 0.7 C 4.83 g/m*3 0.7 C 0 km/h
1161 15-12-2008 16:10:19 0.7 C 4.83 g/m*3 0.7 C 0 km/h
1162 15-12-2008 16:22:19 0.5 C 4.76 g/m*3 0.5 C 0 km/h
1163 15-12-2008 16:34:18 0.2 C 4.67 g/m*3 0.2 C 0 km/h
1164 15-12-2008 16:46:18 0.2 C 4.67 g/m*3 0.2 C 0 km/h
1165 15-12-2008 16:58:18 0 C 4.6 g/m*3 0 C 0 km/h
1166 15-12-2008 17:10:18 -0.1 C 4.57 g/m*3 -0.1 C 0 km/h
1167 15-12-2008 17:22:18 0 C 4.6 g/m*3 0 C 0 km/h
1168 15-12-2008 17:34:17 0.3 C 4.7 g/m*3 0.3 C 0 km/h
1169 15-12-2008 17:46:18 0.3 C 4.7 g/m*3 0.3 C 0 km/h
1170 15-12-2008 17:58:18 0.2 C 4.67 g/m*3 0.2 C 0 km/h
1171 15-12-2008 18:10:17 0.1 C 4.63 g/m*3 0.1 C 0 km/h
1172 15-12-2008 18:22:17 0.1 C 4.63 g/m*3 0.1 C 0 km/h
1173 15-12-2008 18:34:18 0.1 C 4.63 g/m*3 0.1 C 0 km/h
1174 15-12-2008 18:46:17 0.2 C 4.67 g/m*3 0.2 C 0 km/h
1175 15-12-2008 18:58:17 0.2 C 4.67 g/m*3 0.2 C 0 km/h
Sensor: Nr:Datum:Temp:Abs-Feuchte:Windchill:Wind:
Aussen-T/F 1176 15-12-2008 19:10:17 0.3 C 4.7 g/m*3 0.3 C 0 km/h
1177 15-12-2008 19:22:17 0.3 C 4.7 g/m*3 0.3 C 0 km/h
1178 15-12-2008 19:34:16 0.4 C 4.73 g/m*3 0.4 C 0 km/h
1179 15-12-2008 19:46:17 0.4 C 4.73 g/m*3 0.4 C 0 km/h
1180 15-12-2008 19:58:17 0.4 C 4.73 g/m*3 0.4 C 0 km/h
1181 15-12-2008 20:10:16 0.4 C 4.73 g/m*3 0.4 C 0 km/h
1182 15-12-2008 20:22:16 0.4 C 4.73 g/m*3 0.4 C 0 km/h
1183 15-12-2008 20:34:16 0.6 C 4.8 g/m*3 0.6 C 0 km/h
1184 15-12-2008 20:46:16 0.6 C 4.8 g/m*3 0.6 C 0 km/h
1185 15-12-2008 20:58:16 0.6 C 4.8 g/m*3 0.6 C 0 km/h
1186 15-12-2008 21:10:15 0.6 C 4.8 g/m*3 0.6 C 0 km/h
1187 15-12-2008 21:22:16 0.6 C 4.8 g/m*3 0.6 C 0 km/h
1188 15-12-2008 21:34:16 0.5 C 4.76 g/m*3 0.5 C 0 km/h
1189 15-12-2008 21:46:15 0.6 C 4.8 g/m*3 0.6 C 0 km/h
1190 15-12-2008 21:58:15 0.6 C 4.8 g/m*3 0.6 C 0 km/h
1191 15-12-2008 22:10:16 0.6 C 4.8 g/m*3 0.6 C 0 km/h
1192 15-12-2008 22:23:15 0.6 C 4.8 g/m*3 0.6 C 0 km/h
1193 15-12-2008 22:35:15 0.6 C 4.8 g/m*3 0.6 C 0 km/h
1194 15-12-2008 22:47:15 0.6 C 4.8 g/m*3 0.6 C 0 km/h
1195 15-12-2008 22:59:15 0.6 C 4.8 g/m*3 0.6 C 0 km/h
1196 15-12-2008 23:11:15 0.6 C 4.8 g/m*3 0.6 C 0 km/h
1197 15-12-2008 23:23:15 0.6 C 4.8 g/m*3 0.6 C 0 km/h
1198 15-12-2008 23:35:15 0.6 C 4.8 g/m*3 0.6 C 0 km/h
1199 15-12-2008 23:47:15 0.6 C 4.8 g/m*3 0.6 C 0 km/h
1200 15-12-2008 23:59:15 0.6 C 4.8 g/m*3 0.6 C 0 km/h
Sensor: Nr:Datum:Temp:Abs-Feuchte:Windchill:Wind:
Aussen-T/F 1201 16-12-2008 00:11:16 0.7 C 4.83 g/m*3 0.7 C 0 km/h
1202 16-12-2008 00:23:16 0.7 C 4.83 g/m*3 0.7 C 0 km/h
1203 16-12-2008 00:35:16 0.7 C 4.83 g/m*3 0.7 C 0 km/h
1204 16-12-2008 00:47:16 0.6 C 4.8 g/m*3 0.6 C 0 km/h
1205 16-12-2008 00:59:16 0.6 C 4.8 g/m*3 0.6 C 0 km/h
1206 16-12-2008 01:11:16 0.6 C 4.8 g/m*3 0.6 C 0 km/h
1207 16-12-2008 01:23:16 0.6 C 4.8 g/m*3 0.6 C 0 km/h
1208 16-12-2008 01:35:16 0.6 C 4.8 g/m*3 0.6 C 0 km/h
1209 16-12-2008 01:47:16 0.6 C 4.8 g/m*3 0.6 C 0 km/h
1210 16-12-2008 01:59:16 0.6 C 4.8 g/m*3 0.6 C 0 km/h
1211 16-12-2008 02:11:16 0.6 C 4.8 g/m*3 0.6 C 0 km/h
1212 16-12-2008 02:23:16 0.6 C 4.8 g/m*3 0.6 C 0 km/h
1213 16-12-2008 02:35:16 0.5 C 4.76 g/m*3 0.5 C 0 km/h
1214 16-12-2008 02:47:16 0.5 C 4.76 g/m*3 0.5 C 0 km/h
1215 16-12-2008 02:59:16 0.5 C 4.76 g/m*3 0.5 C 0 km/h
1216 16-12-2008 03:11:16 0.4 C 4.73 g/m*3 0.4 C 0 km/h
1217 16-12-2008 03:23:16 0.4 C 4.73 g/m*3 0.4 C 0 km/h
1218 16-12-2008 03:35:16 0.3 C 4.7 g/m*3 0.3 C 0 km/h
1219 16-12-2008 03:47:16 0.3 C 4.7 g/m*3 0.3 C 0 km/h
1220 16-12-2008 03:59:17 0.3 C 4.7 g/m*3 0.3 C 0 km/h
1221 16-12-2008 04:11:17 0.3 C 4.65 g/m*3 0.3 C 0 km/h
1222 16-12-2008 04:23:17 0.3 C 4.65 g/m*3 0.3 C 0 km/h
1223 16-12-2008 04:35:17 0.3 C 4.65 g/m*3 0.3 C 0 km/h
1224 16-12-2008 04:47:17 0.2 C 4.62 g/m*3 0.2 C 0 km/h
1225 16-12-2008 04:59:17 0.1 C 4.59 g/m*3 0.1 C 0 km/h
Sensor: Nr:Datum:Temp:Abs-Feuchte:Windchill:Wind:
Aussen-T/F 1226 16-12-2008 05:11:17 0.2 C 4.62 g/m*3 0.2 C 0 km/h
1227 16-12-2008 05:23:17 0.2 C 4.62 g/m*3 0.2 C 0 km/h
1228 16-12-2008 05:35:17 0.2 C 4.62 g/m*3 0.2 C 0 km/h
1229 16-12-2008 05:47:17 0.2 C 4.57 g/m*3 0.2 C 0 km/h
1230 16-12-2008 05:59:17 0 C 4.51 g/m*3 0 C 0 km/h
1231 16-12-2008 06:11:17 0 C 4.51 g/m*3 0 C 0 km/h
1232 16-12-2008 06:23:17 0 C 4.51 g/m*3 0 C 0 km/h
1233 16-12-2008 06:35:16 -0.1 C 4.47 g/m*3 -0.1 C 0 km/h
1234 16-12-2008 06:47:15 -0.2 C 4.4 g/m*3 -0.2 C 0 km/h
1235 16-12-2008 06:59:15 -0.2 C 4.4 g/m*3 -0.2 C 0 km/h
1236 16-12-2008 07:11:16 -0.2 C 4.4 g/m*3 -0.2 C 0 km/h
1237 16-12-2008 07:23:15 -0.2 C 4.4 g/m*3 -0.2 C 0 km/h
1238 16-12-2008 07:35:15 -0.1 C 4.43 g/m*3 -0.1 C 0 km/h
1239 16-12-2008 07:47:14 -0.1 C 4.43 g/m*3 -0.1 C 0 km/h
1240 16-12-2008 07:59:14 -0.1 C 4.43 g/m*3 -0.1 C 0 km/h
1241 16-12-2008 08:11:15 -0.1 C 4.43 g/m*3 -0.1 C 0 km/h
1242 16-12-2008 08:23:15 -0.2 C 4.4 g/m*3 -0.2 C 0 km/h
1243 16-12-2008 08:35:14 -0.3 C 4.37 g/m*3 -0.3 C 0 km/h
1244 16-12-2008 08:47:15 -0.3 C 4.32 g/m*3 -0.3 C 0 km/h
1245 16-12-2008 08:59:15 -0.3 C 4.32 g/m*3 -0.3 C 0 km/h
1246 16-12-2008 09:11:14 -0.2 C 4.35 g/m*3 -0.2 C 0 km/h
1247 16-12-2008 09:23:14 -0.2 C 4.35 g/m*3 -0.2 C 0 km/h
1248 16-12-2008 09:35:14 0 C 4.41 g/m*3 0 C 0 km/h
1249 16-12-2008 09:47:14 0 C 4.41 g/m*3 0 C 0 km/h
1250 16-12-2008 09:59:14 0.1 C 4.44 g/m*3 0.1 C 0 km/h
Sensor: Nr:Datum:Temp:Abs-Feuchte:Windchill:Wind:
Aussen-T/F 1251 16-12-2008 10:11:14 0 C 4.41 g/m*3 0 C 0 km/h
1252 16-12-2008 10:23:13 0 C 4.36 g/m*3 0 C 0 km/h
1253 16-12-2008 10:35:14 0 C 4.36 g/m*3 0 C 0 km/h
1254 16-12-2008 10:47:13 0 C 4.36 g/m*3 0 C 0 km/h
1255 16-12-2008 10:59:13 0 C 4.36 g/m*3 0 C 0 km/h
1256 16-12-2008 11:11:13 0 C 4.31 g/m*3 0 C 0 km/h
1257 16-12-2008 11:23:13 0.2 C 4.37 g/m*3 0.2 C 0 km/h
1258 16-12-2008 11:35:13 0.2 C 4.37 g/m*3 0.2 C 0 km/h
1259 16-12-2008 11:47:12 0.4 C 4.43 g/m*3 0.4 C 0 km/h
1260 16-12-2008 11:59:12 0.6 C 4.49 g/m*3 0.6 C 0 km/h
1261 16-12-2008 12:11:13 0.7 C 4.53 g/m*3 0.7 C 0 km/h
1262 16-12-2008 12:23:13 0.7 C 4.53 g/m*3 0.7 C 0 km/h
1263 16-12-2008 12:35:12 0.6 C 4.49 g/m*3 0.6 C 0 km/h
1264 16-12-2008 12:47:12 0.6 C 4.49 g/m*3 0.6 C 0 km/h
1265 16-12-2008 12:59:12 0.7 C 4.53 g/m*3 0.7 C 0 km/h
1266 16-12-2008 13:11:12 0.7 C 4.53 g/m*3 0.7 C 0 km/h
1267 16-12-2008 13:23:12 0.8 C 4.56 g/m*3 0.8 C 0 km/h
1268 16-12-2008 13:35:11 0.8 C 4.56 g/m*3 0.8 C 0 km/h
1269 16-12-2008 13:47:12 0.9 C 4.59 g/m*3 0.9 C 0 km/h
1270 16-12-2008 13:59:12 0.8 C 4.56 g/m*3 0.8 C 0 km/h
1271 16-12-2008 14:11:11 0.9 C 4.64 g/m*3 0.9 C 0 km/h
1272 16-12-2008 14:23:11 1 C 4.62 g/m*3 1 C 0 km/h
1273 16-12-2008 14:35:12 1 C 4.67 g/m*3 1 C 0 km/h
1274 16-12-2008 14:47:11 1 C 4.62 g/m*3 1 C 0 km/h
1275 16-12-2008 14:59:11 1 C 4.62 g/m*3 1 C 0 km/h
Sensor: Nr:Datum:Temp:Abs-Feuchte:Windchill:Wind:
Aussen-T/F 1276 16-12-2008 15:11:11 0.9 C 4.64 g/m*3 0.9 C 0 km/h
1277 16-12-2008 15:23:11 0.8 C 4.61 g/m*3 0.8 C 0 km/h
1278 16-12-2008 15:35:11 0.8 C 4.61 g/m*3 0.8 C 0 km/h
1279 16-12-2008 15:47:10 0.9 C 4.69 g/m*3 0.9 C 0 km/h
1280 16-12-2008 15:59:10 0.8 C 4.66 g/m*3 0.8 C 0 km/h
1281 16-12-2008 16:11:10 0.8 C 4.66 g/m*3 0.8 C 0 km/h
1282 16-12-2008 16:23:11 0.7 C 4.63 g/m*3 0.7 C 0 km/h
1283 16-12-2008 16:35:10 0.6 C 4.6 g/m*3 0.6 C 0 km/h
1284 16-12-2008 16:47:10 0.7 C 4.63 g/m*3 0.7 C 0 km/h
1285 16-12-2008 16:59:10 0.7 C 4.63 g/m*3 0.7 C 0 km/h
1286 16-12-2008 17:11:10 0.7 C 4.63 g/m*3 0.7 C 0 km/h
1287 16-12-2008 17:23:10 0.6 C 4.6 g/m*3 0.6 C 0 km/h
1288 16-12-2008 17:35:10 0.7 C 4.68 g/m*3 0.7 C 0 km/h
1289 16-12-2008 17:47:10 0.7 C 4.68 g/m*3 0.7 C 0 km/h
1290 16-12-2008 17:59:10 0.6 C 4.65 g/m*3 0.6 C 0 km/h
1291 16-12-2008 18:11:09 0.6 C 4.65 g/m*3 0.6 C 0 km/h
1292 16-12-2008 18:23:09 0.5 C 4.61 g/m*3 0.5 C 0 km/h
1293 16-12-2008 18:35:10 0.6 C 4.65 g/m*3 0.6 C 0 km/h
1294 16-12-2008 18:47:09 0.6 C 4.65 g/m*3 0.6 C 0 km/h
1295 16-12-2008 18:59:09 0.6 C 4.65 g/m*3 0.6 C 0 km/h
1296 16-12-2008 19:11:09 0.5 C 4.61 g/m*3 0.5 C 0 km/h
1297 16-12-2008 19:23:09 0.6 C 4.65 g/m*3 0.6 C 0 km/h
1298 16-12-2008 19:35:08 0.6 C 4.65 g/m*3 0.6 C 0 km/h
1299 16-12-2008 19:47:09 0.6 C 4.65 g/m*3 0.6 C 0 km/h
1300 16-12-2008 19:59:10 0.6 C 4.65 g/m*3 0.6 C 0 km/h
Sensor: Nr:Datum:Temp:Abs-Feuchte:Windchill:Wind:
Aussen-T/F 1301 16-12-2008 20:11:08 0.5 C 4.61 g/m*3 0.5 C 0 km/h
1302 16-12-2008 20:23:08 0.6 C 4.65 g/m*3 0.6 C 0 km/h
1303 16-12-2008 20:35:08 0.6 C 4.65 g/m*3 0.6 C 0 km/h
1304 16-12-2008 20:47:08 0.5 C 4.61 g/m*3 0.5 C 0 km/h
1305 16-12-2008 20:59:08 0.6 C 4.65 g/m*3 0.6 C 0 km/h
1306 16-12-2008 21:11:08 0.6 C 4.65 g/m*3 0.6 C 0 km/h
1307 16-12-2008 21:23:08 0.6 C 4.65 g/m*3 0.6 C 0 km/h
1308 16-12-2008 21:35:07 0.6 C 4.65 g/m*3 0.6 C 0 km/h
1309 16-12-2008 21:48:08 0.6 C 4.65 g/m*3 0.6 C 0 km/h
1310 16-12-2008 22:00:08 0.5 C 4.61 g/m*3 0.5 C 0 km/h
1311 16-12-2008 22:12:08 0.5 C 4.61 g/m*3 0.5 C 0 km/h
1312 16-12-2008 22:24:08 0.5 C 4.61 g/m*3 0.5 C 0 km/h
1313 16-12-2008 22:36:08 0.5 C 4.61 g/m*3 0.5 C 0 km/h
1314 16-12-2008 22:48:08 0.5 C 4.61 g/m*3 0.5 C 0 km/h
1315 16-12-2008 23:00:08 0.5 C 4.61 g/m*3 0.5 C 0 km/h
1316 16-12-2008 23:12:08 0.5 C 4.61 g/m*3 0.5 C 0 km/h
1317 16-12-2008 23:24:08 0.5 C 4.61 g/m*3 0.5 C 0 km/h
1318 16-12-2008 23:36:08 0.5 C 4.61 g/m*3 0.5 C 0 km/h
1319 16-12-2008 23:48:08 0.5 C 4.61 g/m*3 0.5 C 0 km/h
1320 17-12-2008 00:00:09 0.5 C 4.61 g/m*3 0.5 C 0 km/h
1321 17-12-2008 00:12:09 0.3 C 4.55 g/m*3 0.3 C 0 km/h
1322 17-12-2008 00:24:09 0.4 C 4.58 g/m*3 0.4 C 0 km/h
1323 17-12-2008 00:36:09 0.5 C 4.61 g/m*3 0.5 C 0 km/h
1324 17-12-2008 00:48:09 0.3 C 4.55 g/m*3 0.3 C 0 km/h
1325 17-12-2008 01:00:09 0.3 C 4.55 g/m*3 0.3 C 0 km/h
Sensor: Nr:Datum:Temp:Abs-Feuchte:Windchill:Wind:
Aussen-T/F 1326 17-12-2008 01:12:09 0.3 C 4.55 g/m*3 0.3 C 0 km/h
1327 17-12-2008 01:24:09 0.2 C 4.52 g/m*3 0.2 C 0 km/h
1328 17-12-2008 01:36:09 0.1 C 4.49 g/m*3 0.1 C 0 km/h
1329 17-12-2008 01:48:09 0.1 C 4.49 g/m*3 0.1 C 0 km/h
1330 17-12-2008 02:00:09 0 C 4.46 g/m*3 0 C 0 km/h
1331 17-12-2008 02:12:09 0 C 4.46 g/m*3 0 C 0 km/h
1332 17-12-2008 02:24:09 -0.1 C 4.43 g/m*3 -0.1 C 0 km/h
1333 17-12-2008 02:36:09 -0.1 C 4.43 g/m*3 -0.1 C 0 km/h
1334 17-12-2008 02:48:09 -0.2 C 4.4 g/m*3 -0.2 C 0 km/h
1335 17-12-2008 03:00:09 -0.2 C 4.35 g/m*3 -0.2 C 0 km/h
1336 17-12-2008 03:12:09 -0.3 C 4.32 g/m*3 -0.3 C 0 km/h
1337 17-12-2008 03:24:09 -0.2 C 4.35 g/m*3 -0.2 C 0 km/h
1338 17-12-2008 03:36:09 -0.3 C 4.32 g/m*3 -0.3 C 0 km/h
1339 17-12-2008 03:48:09 -0.4 C 4.29 g/m*3 -0.4 C 0 km/h
1340 17-12-2008 04:00:10 -0.4 C 4.29 g/m*3 -0.4 C 0 km/h
1341 17-12-2008 04:12:10 -0.4 C 4.29 g/m*3 -0.4 C 0 km/h
1342 17-12-2008 04:24:10 -0.5 C 4.26 g/m*3 -0.5 C 0 km/h
1343 17-12-2008 04:36:10 -0.5 C 4.21 g/m*3 -0.5 C 0 km/h
1344 17-12-2008 04:48:10 -0.6 C 4.18 g/m*3 -0.6 C 0 km/h
1345 17-12-2008 05:00:10 -0.6 C 4.18 g/m*3 -0.6 C 0 km/h
1346 17-12-2008 05:12:10 -0.6 C 4.18 g/m*3 -0.6 C 0 km/h
1347 17-12-2008 05:24:10 -0.7 C 4.15 g/m*3 -0.7 C 0 km/h
1348 17-12-2008 05:36:10 -0.8 C 4.13 g/m*3 -0.8 C 0 km/h
1349 17-12-2008 05:48:10 -1 C 4.07 g/m*3 -1 C 0 km/h
1350 17-12-2008 06:00:10 -1.1 C 4 g/m*3 -1.1 C 0 km/h
Sensor: Nr:Datum:Temp:Abs-Feuchte:Windchill:Wind:
Aussen-T/F 1351 17-12-2008 06:12:10 -1.2 C 3.97 g/m*3 -1.2 C 0 km/h
1352 17-12-2008 06:24:10 -1.2 C 3.97 g/m*3 -1.2 C 0 km/h
1353 17-12-2008 06:36:10 -1.2 C 3.97 g/m*3 -1.2 C 0 km/h
1354 17-12-2008 06:48:10 -1.2 C 3.92 g/m*3 -1.2 C 0 km/h
1355 17-12-2008 07:00:10 -1.2 C 3.92 g/m*3 -1.2 C 0 km/h
1356 17-12-2008 07:12:09 -1.2 C 3.92 g/m*3 -1.2 C 0 km/h
1357 17-12-2008 07:24:08 -1.2 C 3.88 g/m*3 -1.2 C 0 km/h
1358 17-12-2008 07:36:08 -1.2 C 3.88 g/m*3 -1.2 C 0 km/h
1359 17-12-2008 07:48:08 -1.1 C 3.86 g/m*3 -1.1 C 0 km/h
1360 17-12-2008 08:00:08 -1 C 3.89 g/m*3 -1 C 0 km/h
1361 17-12-2008 08:12:08 -1 C 3.89 g/m*3 -1 C 0 km/h
1362 17-12-2008 08:24:08 -1.1 C 3.82 g/m*3 -1.1 C 0 km/h
1363 17-12-2008 08:36:08 -1.2 C 3.74 g/m*3 -1.2 C 0 km/h
1364 17-12-2008 08:48:08 -1.2 C 3.74 g/m*3 -1.2 C 0 km/h
1365 17-12-2008 09:00:08 -1.1 C 3.82 g/m*3 -1.1 C 0 km/h
1366 17-12-2008 09:12:08 -1.1 C 3.77 g/m*3 -1.1 C 0 km/h
1367 17-12-2008 09:24:07 -0.9 C 3.82 g/m*3 -0.9 C 0 km/h
1368 17-12-2008 09:36:07 -1 C 3.8 g/m*3 -1 C 0 km/h
1369 17-12-2008 09:48:07 -0.9 C 3.78 g/m*3 -0.9 C 0 km/h
1370 17-12-2008 10:00:07 -0.9 C 3.78 g/m*3 -0.9 C 0 km/h
1371 17-12-2008 10:12:07 -0.7 C 3.78 g/m*3 -0.7 C 0 km/h
1372 17-12-2008 10:24:06 -0.7 C 3.78 g/m*3 -0.7 C 0 km/h
1373 17-12-2008 10:36:07 -0.6 C 3.76 g/m*3 -0.6 C 0 km/h
1374 17-12-2008 10:48:06 -0.4 C 3.82 g/m*3 -0.4 C 0 km/h
1375 17-12-2008 11:00:06 -0.3 C 3.8 g/m*3 -0.3 C 0 km/h
Sensor: Nr:Datum:Temp:Abs-Feuchte:Windchill:Wind:
Aussen-T/F 1376 17-12-2008 11:12:06 -0.1 C 3.85 g/m*3 -0.1 C 0 km/h
1377 17-12-2008 11:24:07 0.1 C 3.85 g/m*3 0.1 C 0 km/h
1378 17-12-2008 11:36:06 0.1 C 3.81 g/m*3 0.1 C 0 km/h
1379 17-12-2008 11:48:06 0 C 3.73 g/m*3 0 C 0 km/h
1380 17-12-2008 12:00:06 0.1 C 3.76 g/m*3 0.1 C 0 km/h
1381 17-12-2008 12:12:06 0.1 C 3.76 g/m*3 0.1 C 0 km/h
1382 17-12-2008 12:24:06 0.2 C 3.78 g/m*3 0.2 C 0 km/h
1383 17-12-2008 12:36:05 0.2 C 3.78 g/m*3 0.2 C 0 km/h
1384 17-12-2008 12:48:06 0.3 C 3.81 g/m*3 0.3 C 0 km/h
1385 17-12-2008 13:00:07 0.4 C 3.88 g/m*3 0.4 C 0 km/h
1386 17-12-2008 13:12:05 0.5 C 3.86 g/m*3 0.5 C 0 km/h
1387 17-12-2008 13:24:05 0.5 C 3.91 g/m*3 0.5 C 0 km/h
1388 17-12-2008 13:36:05 0.6 C 3.94 g/m*3 0.6 C 0 km/h
1389 17-12-2008 13:48:05 0.6 C 3.94 g/m*3 0.6 C 0 km/h
1390 17-12-2008 14:00:05 0.6 C 3.99 g/m*3 0.6 C 0 km/h
1391 17-12-2008 14:12:05 0.4 C 4.03 g/m*3 0.4 C 0 km/h
1392 17-12-2008 14:24:04 0.3 C 4.16 g/m*3 0.3 C 0 km/h
1393 17-12-2008 14:36:05 0.2 C 4.22 g/m*3 0.2 C 0 km/h
1394 17-12-2008 14:48:04 0.1 C 4.29 g/m*3 0.1 C 0 km/h
1395 17-12-2008 15:00:04 0.1 C 4.34 g/m*3 0.1 C 0 km/h
1396 17-12-2008 15:12:05 0.1 C 4.39 g/m*3 0.1 C 0 km/h
1397 17-12-2008 15:24:04 0.1 C 4.44 g/m*3 0.1 C 0 km/h
1398 17-12-2008 15:36:04 0.1 C 4.44 g/m*3 0.1 C 0 km/h
1399 17-12-2008 15:48:04 0.2 C 4.47 g/m*3 0.2 C 0 km/h
1400 17-12-2008 16:00:04 0.2 C 4.52 g/m*3 0.2 C 0 km/h
Sensor: Nr:Datum:Temp:Abs-Feuchte:Windchill:Wind:
Aussen-T/F 1401 17-12-2008 16:12:04 0.2 C 4.52 g/m*3 0.2 C 0 km/h
1402 17-12-2008 16:24:03 0.1 C 4.49 g/m*3 0.1 C 0 km/h
1403 17-12-2008 16:36:03 0 C 4.51 g/m*3 0 C 0 km/h
1404 17-12-2008 16:48:03 0 C 4.51 g/m*3 0 C 0 km/h
1405 17-12-2008 17:00:03 0 C 4.55 g/m*3 0 C 0 km/h
1406 17-12-2008 17:12:03 0.1 C 4.59 g/m*3 0.1 C 0 km/h
1407 17-12-2008 17:24:03 0.1 C 4.59 g/m*3 0.1 C 0 km/h
1408 17-12-2008 17:36:03 0.1 C 4.59 g/m*3 0.1 C 0 km/h
1409 17-12-2008 17:48:03 0.1 C 4.59 g/m*3 0.1 C 0 km/h
1410 17-12-2008 18:00:03 0.2 C 4.67 g/m*3 0.2 C 0 km/h
1411 17-12-2008 18:12:02 0.2 C 4.67 g/m*3 0.2 C 0 km/h
1412 17-12-2008 18:24:03 0.3 C 4.7 g/m*3 0.3 C 0 km/h
1413 17-12-2008 18:36:02 0.3 C 4.7 g/m*3 0.3 C 0 km/h
1414 17-12-2008 18:48:02 0.4 C 4.73 g/m*3 0.4 C 0 km/h
1415 17-12-2008 19:00:02 0.5 C 4.76 g/m*3 0.5 C 0 km/h
1416 17-12-2008 19:12:02 0.5 C 4.76 g/m*3 0.5 C 0 km/h
1417 17-12-2008 19:24:02 0.5 C 4.76 g/m*3 0.5 C 0 km/h
1418 17-12-2008 19:36:02 0.5 C 4.76 g/m*3 0.5 C 0 km/h
1419 17-12-2008 19:48:02 0.5 C 4.76 g/m*3 0.5 C 0 km/h
1420 17-12-2008 20:00:02 0.5 C 4.76 g/m*3 0.5 C 0 km/h
1421 17-12-2008 20:12:01 0.6 C 4.8 g/m*3 0.6 C 0 km/h
1422 17-12-2008 20:24:01 0.6 C 4.8 g/m*3 0.6 C 0 km/h
1423 17-12-2008 20:36:01 0.6 C 4.8 g/m*3 0.6 C 0 km/h
1424 17-12-2008 20:48:02 0.6 C 4.8 g/m*3 0.6 C 0 km/h
1425 17-12-2008 21:00:02 0.7 C 4.83 g/m*3 0.7 C 0 km/h
Sensor: Nr:Datum:Temp:Abs-Feuchte:Windchill:Wind:
Aussen-T/F 1426 17-12-2008 21:12:01 0.7 C 4.83 g/m*3 0.7 C 0 km/h
1427 17-12-2008 21:24:00 0.7 C 4.83 g/m*3 0.7 C 0 km/h
1428 17-12-2008 21:36:01 0.7 C 4.83 g/m*3 0.7 C 0 km/h
1429 17-12-2008 21:49:03 0.8 C 4.86 g/m*3 0.8 C 0 km/h
1430 17-12-2008 22:01:03 0.8 C 4.86 g/m*3 0.8 C 0 km/h
1431 17-12-2008 22:13:03 0.8 C 4.86 g/m*3 0.8 C 0 km/h
1432 17-12-2008 22:25:03 0.8 C 4.86 g/m*3 0.8 C 0 km/h
1433 17-12-2008 22:37:03 0.9 C 4.9 g/m*3 0.9 C 0 km/h
1434 17-12-2008 22:49:03 0.9 C 4.9 g/m*3 0.9 C 0 km/h
1435 17-12-2008 23:01:03 1 C 4.93 g/m*3 1 C 0 km/h
1436 17-12-2008 23:13:03 1 C 4.93 g/m*3 1 C 0 km/h
1437 17-12-2008 23:25:03 1 C 4.93 g/m*3 1 C 0 km/h
1438 17-12-2008 23:37:03 1 C 4.93 g/m*3 1 C 0 km/h
1439 17-12-2008 23:49:03 1 C 4.93 g/m*3 1 C 0 km/h
1440 18-12-2008 00:01:03 1 C 4.93 g/m*3 1 C 0 km/h
1441 18-12-2008 00:13:03 1 C 4.93 g/m*3 1 C 0 km/h
1442 18-12-2008 00:25:03 1.1 C 4.96 g/m*3 1.1 C 0 km/h
1443 18-12-2008 00:37:03 1.1 C 4.96 g/m*3 1.1 C 0 km/h
1444 18-12-2008 00:49:03 1.1 C 4.96 g/m*3 1.1 C 0 km/h
1445 18-12-2008 01:01:03 1.2 C 5 g/m*3 1.2 C 0 km/h
1446 18-12-2008 01:13:03 1.2 C 5 g/m*3 1.2 C 0 km/h
1447 18-12-2008 01:25:03 1.2 C 5 g/m*3 1.2 C 0 km/h
1448 18-12-2008 01:37:04 1.2 C 5 g/m*3 1.2 C 0 km/h
1449 18-12-2008 01:49:04 1.2 C 5 g/m*3 1.2 C 0 km/h
1450 18-12-2008 02:01:04 1.2 C 5 g/m*3 1.2 C 0 km/h
Sensor: Nr:Datum:Temp:Abs-Feuchte:Windchill:Wind:
Aussen-T/F 1451 18-12-2008 02:13:04 1.3 C 5.03 g/m*3 1.3 C 0 km/h
1452 18-12-2008 02:25:04 1.3 C 5.03 g/m*3 1.3 C 0 km/h
1453 18-12-2008 02:37:04 1.3 C 5.03 g/m*3 1.3 C 0 km/h
1454 18-12-2008 02:49:04 1.3 C 5.03 g/m*3 1.3 C 0 km/h
1455 18-12-2008 03:01:04 1.3 C 5.03 g/m*3 1.3 C 0 km/h
1456 18-12-2008 03:13:04 1.4 C 5.07 g/m*3 1.4 C 0 km/h
1457 18-12-2008 03:25:04 1.4 C 5.07 g/m*3 1.4 C 0 km/h
1458 18-12-2008 03:37:04 1.4 C 5.07 g/m*3 1.4 C 0 km/h
1459 18-12-2008 03:49:04 1.4 C 5.07 g/m*3 1.4 C 0 km/h
1460 18-12-2008 04:01:04 1.5 C 5.1 g/m*3 1.5 C 0 km/h
1461 18-12-2008 04:13:04 1.5 C 5.1 g/m*3 1.5 C 0 km/h
1462 18-12-2008 04:25:04 1.5 C 5.1 g/m*3 1.5 C 0 km/h
1463 18-12-2008 04:37:04 1.5 C 5.1 g/m*3 1.5 C 0 km/h
1464 18-12-2008 04:49:04 1.5 C 5.1 g/m*3 1.5 C 0 km/h
1465 18-12-2008 05:01:04 1.5 C 5.1 g/m*3 1.5 C 0 km/h
1466 18-12-2008 05:13:04 1.5 C 5.1 g/m*3 1.5 C 0 km/h
1467 18-12-2008 05:25:05 1.6 C 5.14 g/m*3 1.6 C 0 km/h
1468 18-12-2008 05:37:05 1.6 C 5.14 g/m*3 1.6 C 0 km/h
1469 18-12-2008 05:49:05 1.6 C 5.14 g/m*3 1.6 C 0 km/h
1470 18-12-2008 06:01:02 1.6 C 5.14 g/m*3 1.6 C 0 km/h
1471 18-12-2008 06:13:02 1.6 C 5.14 g/m*3 1.6 C 0 km/h
1472 18-12-2008 06:25:03 1.6 C 5.14 g/m*3 1.6 C 0 km/h
1473 18-12-2008 06:37:02 1.6 C 5.14 g/m*3 1.6 C 0 km/h
1474 18-12-2008 06:49:02 1.6 C 5.14 g/m*3 1.6 C 0 km/h
1475 18-12-2008 07:01:02 1.6 C 5.14 g/m*3 1.6 C 0 km/h
Sensor: Nr:Datum:Temp:Abs-Feuchte:Windchill:Wind:
Aussen-T/F 1476 18-12-2008 07:13:02 1.6 C 5.14 g/m*3 1.6 C 0 km/h
1477 18-12-2008 07:25:02 1.6 C 5.14 g/m*3 1.6 C 0 km/h
1478 18-12-2008 07:37:02 1.6 C 5.14 g/m*3 1.6 C 0 km/h
1479 18-12-2008 07:49:02 1.7 C 5.17 g/m*3 1.7 C 0 km/h
1480 18-12-2008 08:01:02 1.7 C 5.17 g/m*3 1.7 C 0 km/h
1481 18-12-2008 08:13:02 1.7 C 5.17 g/m*3 1.7 C 0 km/h
1482 18-12-2008 08:25:01 1.7 C 5.17 g/m*3 1.7 C 0 km/h
1483 18-12-2008 08:37:02 1.7 C 5.17 g/m*3 1.7 C 0 km/h
1484 18-12-2008 08:49:01 1.7 C 5.17 g/m*3 1.7 C 0 km/h
1485 18-12-2008 09:01:01 1.8 C 5.21 g/m*3 1.8 C 0 km/h
1486 18-12-2008 09:13:01 1.8 C 5.21 g/m*3 1.8 C 0 km/h
1487 18-12-2008 09:25:01 1.9 C 5.24 g/m*3 1.9 C 0 km/h
1488 18-12-2008 09:37:01 1.9 C 5.24 g/m*3 1.9 C 0 km/h
1489 18-12-2008 09:49:00 2 C 5.22 g/m*3 2 C 0 km/h
1490 18-12-2008 10:01:01 2.1 C 5.26 g/m*3 2.1 C 0 km/h
1491 18-12-2008 10:13:01 2 C 5.17 g/m*3 2 C 0 km/h
1492 18-12-2008 10:25:00 2.2 C 5.24 g/m*3 2.2 C 0 km/h
1493 18-12-2008 10:37:00 2.4 C 5.31 g/m*3 2.4 C 0 km/h
1494 18-12-2008 10:49:00 2.5 C 5.29 g/m*3 2.5 C 0 km/h
1495 18-12-2008 11:01:00 2.5 C 5.23 g/m*3 2.5 C 0 km/h
1496 18-12-2008 11:13:00 2.6 C 5.21 g/m*3 2.6 C 0 km/h
1497 18-12-2008 11:25:00 2.7 C 5.13 g/m*3 2.7 C 0 km/h
1498 18-12-2008 11:36:59 2.7 C 5.07 g/m*3 2.7 C 0 km/h
1499 18-12-2008 11:49:00 2.7 C 5.01 g/m*3 2.7 C 0 km/h
1500 18-12-2008 12:01:59 2.6 C 4.92 g/m*3 2.6 C 0 km/h
Sensor: Nr:Datum:Temp:Abs-Feuchte:Windchill:Wind:
Aussen-T/F 1501 18-12-2008 12:13:59 2.5 C 4.89 g/m*3 2.5 C 0 km/h
1502 18-12-2008 12:25:00 2.6 C 4.92 g/m*3 2.6 C 0 km/h
1503 18-12-2008 12:37:59 2.6 C 4.86 g/m*3 2.6 C 0 km/h
1504 18-12-2008 12:49:59 2.7 C 4.84 g/m*3 2.7 C 0 km/h
1505 18-12-2008 13:01:59 2.7 C 4.72 g/m*3 2.7 C 0 km/h
1506 18-12-2008 13:13:59 2.5 C 4.6 g/m*3 2.5 C 0 km/h
1507 18-12-2008 13:25:59 2.5 C 4.66 g/m*3 2.5 C 0 km/h
1508 18-12-2008 13:37:58 2.6 C 4.63 g/m*3 2.6 C 0 km/h
1509 18-12-2008 13:49:59 2.8 C 4.63 g/m*3 2.8 C 0 km/h
1510 18-12-2008 14:01:58 3 C 4.58 g/m*3 3 C 0 km/h
1511 18-12-2008 14:13:58 3.1 C 4.55 g/m*3 3.1 C 0 km/h
1512 18-12-2008 14:25:58 3.1 C 4.55 g/m*3 3.1 C 0 km/h
1513 18-12-2008 14:37:58 3.1 C 4.61 g/m*3 3.1 C 0 km/h
1514 18-12-2008 14:49:58 3.1 C 4.61 g/m*3 3.1 C 0 km/h
1515 18-12-2008 15:01:58 3 C 4.52 g/m*3 3 C 0 km/h
1516 18-12-2008 15:13:58 2.9 C 4.55 g/m*3 2.9 C 0 km/h
1517 18-12-2008 15:25:57 2.9 C 4.61 g/m*3 2.9 C 0 km/h
1518 18-12-2008 15:37:58 3 C 4.64 g/m*3 3 C 0 km/h
1519 18-12-2008 15:49:57 3 C 4.64 g/m*3 3 C 0 km/h
1520 18-12-2008 16:01:57 2.9 C 4.72 g/m*3 2.9 C 0 km/h
1521 18-12-2008 16:13:57 2.9 C 4.72 g/m*3 2.9 C 0 km/h
1522 18-12-2008 16:25:57 2.8 C 4.69 g/m*3 2.8 C 0 km/h
1523 18-12-2008 16:37:57 2.7 C 4.72 g/m*3 2.7 C 0 km/h
1524 18-12-2008 16:49:57 2.7 C 4.78 g/m*3 2.7 C 0 km/h
1525 18-12-2008 17:01:56 2.6 C 4.75 g/m*3 2.6 C 0 km/h
Sensor: Nr:Datum:Temp:Abs-Feuchte:Windchill:Wind:
Aussen-T/F 1526 18-12-2008 17:13:56 2.5 C 4.77 g/m*3 2.5 C 0 km/h
1527 18-12-2008 17:25:57 2.4 C 4.85 g/m*3 2.4 C 0 km/h
1528 18-12-2008 17:37:56 2.3 C 4.88 g/m*3 2.3 C 0 km/h
1529 18-12-2008 17:49:57 2.3 C 4.93 g/m*3 2.3 C 0 km/h
1530 18-12-2008 18:01:56 2.3 C 4.93 g/m*3 2.3 C 0 km/h
1531 18-12-2008 18:13:56 2.3 C 4.99 g/m*3 2.3 C 0 km/h
1532 18-12-2008 18:25:56 2.3 C 4.99 g/m*3 2.3 C 0 km/h
1533 18-12-2008 18:37:55 2.3 C 4.99 g/m*3 2.3 C 0 km/h
1534 18-12-2008 18:49:56 2.4 C 5.02 g/m*3 2.4 C 0 km/h
1535 18-12-2008 19:01:55 2.5 C 5.06 g/m*3 2.5 C 0 km/h
1536 18-12-2008 19:13:55 2.5 C 5.06 g/m*3 2.5 C 0 km/h
1537 18-12-2008 19:25:55 2.5 C 5.06 g/m*3 2.5 C 0 km/h
1538 18-12-2008 19:37:56 2.6 C 5.09 g/m*3 2.6 C 0 km/h
1539 18-12-2008 19:49:55 2.7 C 5.13 g/m*3 2.7 C 0 km/h
1540 18-12-2008 20:01:55 2.6 C 5.09 g/m*3 2.6 C 0 km/h
1541 18-12-2008 20:13:55 2.6 C 5.09 g/m*3 2.6 C 0 km/h
1542 18-12-2008 20:25:55 2.5 C 5.12 g/m*3 2.5 C 0 km/h
1543 18-12-2008 20:37:55 2.5 C 5.12 g/m*3 2.5 C 0 km/h
1544 18-12-2008 20:49:54 2.5 C 5.12 g/m*3 2.5 C 0 km/h
1545 18-12-2008 21:01:54 2.6 C 5.15 g/m*3 2.6 C 0 km/h
1546 18-12-2008 21:13:54 2.6 C 5.15 g/m*3 2.6 C 0 km/h
1547 18-12-2008 21:25:55 2.6 C 5.15 g/m*3 2.6 C 0 km/h
1548 18-12-2008 21:37:54 2.7 C 5.13 g/m*3 2.7 C 0 km/h
1549 18-12-2008 21:49:54 2.8 C 5.1 g/m*3 2.8 C 0 km/h
1550 18-12-2008 22:01:54 2.8 C 5.04 g/m*3 2.8 C 0 km/h
Sensor: Nr:Datum:Temp:Abs-Feuchte:Windchill:Wind:
Aussen-T/F 1551 18-12-2008 22:13:54 2.9 C 5.02 g/m*3 2.9 C 0 km/h
1552 18-12-2008 22:26:55 2.8 C 4.99 g/m*3 2.8 C 0 km/h
1553 18-12-2008 22:38:55 2.8 C 4.99 g/m*3 2.8 C 0 km/h
1554 18-12-2008 22:50:55 2.7 C 5.01 g/m*3 2.7 C 0 km/h
1555 18-12-2008 23:02:55 2.7 C 5.07 g/m*3 2.7 C 0 km/h
1556 18-12-2008 23:14:55 2.5 C 5.12 g/m*3 2.5 C 0 km/h
1557 18-12-2008 23:26:55 2.6 C 5.21 g/m*3 2.6 C 0 km/h
1558 18-12-2008 23:38:55 2.6 C 5.21 g/m*3 2.6 C 0 km/h
1559 18-12-2008 23:50:55 2.6 C 5.21 g/m*3 2.6 C 0 km/h
1560 19-12-2008 00:02:55 2.7 C 5.24 g/m*3 2.7 C 0 km/h
1561 19-12-2008 00:14:55 2.8 C 5.28 g/m*3 2.8 C 0 km/h
1562 19-12-2008 00:26:55 2.9 C 5.26 g/m*3 2.9 C 0 km/h
1563 19-12-2008 00:38:55 2.9 C 5.26 g/m*3 2.9 C 0 km/h
1564 19-12-2008 00:50:55 2.8 C 5.22 g/m*3 2.8 C 0 km/h
1565 19-12-2008 01:02:55 2.8 C 5.22 g/m*3 2.8 C 0 km/h
1566 19-12-2008 01:14:55 2.9 C 5.26 g/m*3 2.9 C 0 km/h
1567 19-12-2008 01:26:55 3 C 5.23 g/m*3 3 C 0 km/h
1568 19-12-2008 01:38:55 3.1 C 5.27 g/m*3 3.1 C 0 km/h
1569 19-12-2008 01:50:56 3.2 C 5.3 g/m*3 3.2 C 0 km/h
1570 19-12-2008 02:02:56 3.3 C 5.34 g/m*3 3.3 C 0 km/h
1571 19-12-2008 02:14:56 3.3 C 5.28 g/m*3 3.3 C 0 km/h
1572 19-12-2008 02:26:56 3.5 C 5.35 g/m*3 3.5 C 0 km/h
1573 19-12-2008 02:38:56 3.5 C 5.35 g/m*3 3.5 C 0 km/h
1574 19-12-2008 02:50:56 3.6 C 5.39 g/m*3 3.6 C 0 km/h
1575 19-12-2008 03:02:56 3.5 C 5.35 g/m*3 3.5 C 0 km/h
Sensor: Nr:Datum:Temp:Abs-Feuchte:Windchill:Wind:
Aussen-T/F 1576 19-12-2008 03:14:56 3.6 C 5.32 g/m*3 3.6 C 0 km/h
1577 19-12-2008 03:26:56 3.6 C 5.32 g/m*3 3.6 C 0 km/h
1578 19-12-2008 03:38:56 3.5 C 5.29 g/m*3 3.5 C 0 km/h
1579 19-12-2008 03:50:56 3.4 C 5.25 g/m*3 3.4 C 0 km/h
1580 19-12-2008 04:02:56 3.4 C 5.31 g/m*3 3.4 C 0 km/h
1581 19-12-2008 04:14:56 3.4 C 5.31 g/m*3 3.4 C 0 km/h
1582 19-12-2008 04:26:56 3.5 C 5.35 g/m*3 3.5 C 0 km/h
1583 19-12-2008 04:38:56 3.4 C 5.37 g/m*3 3.4 C 0 km/h
1584 19-12-2008 04:50:56 3.2 C 5.36 g/m*3 3.2 C 0 km/h
1585 19-12-2008 05:02:56 3.2 C 5.42 g/m*3 3.2 C 0 km/h
1586 19-12-2008 05:14:56 3.3 C 5.52 g/m*3 3.3 C 0 km/h
1587 19-12-2008 05:26:56 3.3 C 5.58 g/m*3 3.3 C 0 km/h
1588 19-12-2008 05:38:57 3.3 C 5.64 g/m*3 3.3 C 0 km/h
1589 19-12-2008 05:50:57 3.4 C 5.68 g/m*3 3.4 C 0 km/h
1590 19-12-2008 06:02:57 3.4 C 5.68 g/m*3 3.4 C 0 km/h
1591 19-12-2008 06:14:57 3.4 C 5.68 g/m*3 3.4 C 0 km/h
1592 19-12-2008 06:26:57 3.4 C 5.68 g/m*3 3.4 C 0 km/h
1593 19-12-2008 06:38:57 3.5 C 5.78 g/m*3 3.5 C 0 km/h
1594 19-12-2008 06:50:55 3.5 C 5.78 g/m*3 3.5 C 0 km/h
1595 19-12-2008 07:02:55 3.6 C 5.82 g/m*3 3.6 C 0 km/h
1596 19-12-2008 07:14:54 3.6 C 5.88 g/m*3 3.6 C 0 km/h
1597 19-12-2008 07:26:54 3.7 C 5.92 g/m*3 3.7 C 0 km/h
1598 19-12-2008 07:38:54 3.8 C 5.96 g/m*3 3.8 C 0 km/h
1599 19-12-2008 07:50:54 3.9 C 6 g/m*3 3.9 C 0 km/h
1600 19-12-2008 08:02:53 3.8 C 5.96 g/m*3 3.8 C 0 km/h
Sensor: Nr:Datum:Temp:Abs-Feuchte:Windchill:Wind:
Aussen-T/F 1601 19-12-2008 08:14:54 4 C 6.04 g/m*3 4 C 0 km/h
1602 19-12-2008 08:26:54 4.2 C 6.06 g/m*3 4.2 C 0 km/h
1603 19-12-2008 08:38:54 4.3 C 6.1 g/m*3 4.3 C 0 km/h
1604 19-12-2008 08:50:53 4.3 C 6.1 g/m*3 4.3 C 0 km/h
1605 19-12-2008 09:02:54 4.3 C 6.1 g/m*3 4.3 C 0 km/h
1606 19-12-2008 09:14:53 4.4 C 6.14 g/m*3 4.4 C 0 km/h
1607 19-12-2008 09:26:53 4.5 C 6.18 g/m*3 4.5 C 0 km/h
1608 19-12-2008 09:38:53 4.6 C 6.22 g/m*3 4.6 C 0 km/h
1609 19-12-2008 09:50:53 4.7 C 6.19 g/m*3 4.7 C 0 km/h
1610 19-12-2008 10:02:53 4.8 C 6.24 g/m*3 4.8 C 0 km/h
1611 19-12-2008 10:14:52 5 C 6.25 g/m*3 5 C 0 km/h
1612 19-12-2008 10:26:52 5 C 6.18 g/m*3 5 C 0 km/h
1613 19-12-2008 10:38:52 5.2 C 6.27 g/m*3 5.2 C 0 km/h
1614 19-12-2008 10:50:52 5.4 C 6.28 g/m*3 5.4 C 0 km/h
1615 19-12-2008 11:02:52 5.3 C 6.17 g/m*3 5.3 C 0 km/h
1616 19-12-2008 11:14:53 5.4 C 6.21 g/m*3 5.4 C 0 km/h
1617 19-12-2008 11:26:53 5.6 C 6.29 g/m*3 5.6 C 0 km/h
1618 19-12-2008 11:38:52 5.8 C 6.02 g/m*3 5.8 C 0 km/h
1619 19-12-2008 11:50:52 5.9 C 5.91 g/m*3 5.9 C 0 km/h
1620 19-12-2008 12:02:52 6.1 C 5.7 g/m*3 6.1 C 0 km/h
1621 19-12-2008 12:14:52 6.5 C 5.77 g/m*3 6.5 C 0 km/h
1622 19-12-2008 12:26:52 6.7 C 5.24 g/m*3 6.7 C 0 km/h
1623 19-12-2008 12:38:51 6.8 C 5.05 g/m*3 6.8 C 0 km/h
1624 19-12-2008 12:50:51 6.8 C 5.2 g/m*3 6.8 C 0 km/h
1625 19-12-2008 13:02:51 6.5 C 5.1 g/m*3 6.5 C 0 km/h
Sensor: Nr:Datum:Temp:Abs-Feuchte:Windchill:Wind:
Aussen-T/F 1626 19-12-2008 13:14:51 6.6 C 5.21 g/m*3 6.6 C 0 km/h
1627 19-12-2008 13:26:51 6.9 C 5.16 g/m*3 6.9 C 0 km/h
1628 19-12-2008 13:38:51 7 C 5.11 g/m*3 7 C 0 km/h
1629 19-12-2008 13:50:51 6.5 C 5.02 g/m*3 6.5 C 0 km/h
1630 19-12-2008 14:02:51 6.1 C 4.89 g/m*3 6.1 C 0 km/h
1631 19-12-2008 14:14:50 5.8 C 4.87 g/m*3 5.8 C 0 km/h
1632 19-12-2008 14:26:50 6.3 C 4.96 g/m*3 6.3 C 0 km/h
1633 19-12-2008 14:38:51 6.1 C 4.82 g/m*3 6.1 C 0 km/h
1634 19-12-2008 14:50:50 6.2 C 4.78 g/m*3 6.2 C 0 km/h
1635 19-12-2008 15:02:50 6.6 C 4.76 g/m*3 6.6 C 0 km/h
1636 19-12-2008 15:14:50 6.6 C 4.6 g/m*3 6.6 C 0 km/h
1637 19-12-2008 15:26:50 6.5 C 4.72 g/m*3 6.5 C 0 km/h
1638 19-12-2008 15:38:50 6.4 C 4.77 g/m*3 6.4 C 0 km/h
1639 19-12-2008 15:50:49 6.5 C 4.8 g/m*3 6.5 C 0 km/h
1640 19-12-2008 16:02:49 6.4 C 4.62 g/m*3 6.4 C 0 km/h
1641 19-12-2008 16:14:50 6.2 C 4.41 g/m*3 6.2 C 0 km/h
1642 19-12-2008 16:26:50 6 C 4.43 g/m*3 6 C 0 km/h
1643 19-12-2008 16:38:49 6 C 4.35 g/m*3 6 C 0 km/h
1644 19-12-2008 16:50:49 5.8 C 4.37 g/m*3 5.8 C 0 km/h
1645 19-12-2008 17:02:49 5.6 C 4.45 g/m*3 5.6 C 0 km/h
1646 19-12-2008 17:14:49 5.5 C 4.49 g/m*3 5.5 C 0 km/h
1647 19-12-2008 17:26:49 5.2 C 4.54 g/m*3 5.2 C 0 km/h
1648 19-12-2008 17:38:48 5.1 C 4.45 g/m*3 5.1 C 0 km/h
1649 19-12-2008 17:50:49 4.9 C 4.52 g/m*3 4.9 C 0 km/h
1650 19-12-2008 18:02:48 4.5 C 4.47 g/m*3 4.5 C 0 km/h
Sensor: Nr:Datum:Temp:Abs-Feuchte:Windchill:Wind:
Aussen-T/F 1651 19-12-2008 18:14:48 4.1 C 4.42 g/m*3 4.1 C 0 km/h
1652 19-12-2008 18:26:48 3.8 C 4.52 g/m*3 3.8 C 0 km/h
1653 19-12-2008 18:38:49 3.5 C 4.49 g/m*3 3.5 C 0 km/h
1654 19-12-2008 18:50:48 3.4 C 4.52 g/m*3 3.4 C 0 km/h
1655 19-12-2008 19:02:48 3.4 C 4.58 g/m*3 3.4 C 0 km/h
1656 19-12-2008 19:14:48 3.1 C 4.49 g/m*3 3.1 C 0 km/h
1657 19-12-2008 19:26:48 3.1 C 4.55 g/m*3 3.1 C 0 km/h
1658 19-12-2008 19:38:48 2.8 C 4.52 g/m*3 2.8 C 0 km/h
1659 19-12-2008 19:50:47 2.7 C 4.54 g/m*3 2.7 C 0 km/h
1660 19-12-2008 20:02:48 2.7 C 4.6 g/m*3 2.7 C 0 km/h
1661 19-12-2008 20:14:47 2.6 C 4.57 g/m*3 2.6 C 0 km/h
1662 19-12-2008 20:26:47 2.4 C 4.51 g/m*3 2.4 C 0 km/h
1663 19-12-2008 20:38:47 2.4 C 4.51 g/m*3 2.4 C 0 km/h
1664 19-12-2008 20:50:47 2.3 C 4.48 g/m*3 2.3 C 0 km/h
1665 19-12-2008 21:02:47 2.1 C 4.48 g/m*3 2.1 C 0 km/h
1666 19-12-2008 21:14:47 2.2 C 4.56 g/m*3 2.2 C 0 km/h
1667 19-12-2008 21:26:47 2.3 C 4.59 g/m*3 2.3 C 0 km/h
1668 19-12-2008 21:38:47 2.5 C 4.66 g/m*3 2.5 C 0 km/h
1669 19-12-2008 21:50:46 2.8 C 4.75 g/m*3 2.8 C 0 km/h
1670 19-12-2008 22:02:47 2.8 C 4.69 g/m*3 2.8 C 0 km/h
1671 19-12-2008 22:14:46 3.2 C 4.76 g/m*3 3.2 C 0 km/h
1672 19-12-2008 22:26:46 3.1 C 4.67 g/m*3 3.1 C 0 km/h
1673 19-12-2008 22:38:46 3 C 4.7 g/m*3 3 C 0 km/h
1674 19-12-2008 22:51:46 3.1 C 4.73 g/m*3 3.1 C 0 km/h
1675 19-12-2008 23:03:46 3.2 C 4.76 g/m*3 3.2 C 0 km/h
Sensor: Nr:Datum:Temp:Abs-Feuchte:Windchill:Wind:
Aussen-T/F 1676 19-12-2008 23:15:46 3.2 C 4.76 g/m*3 3.2 C 0 km/h
1677 19-12-2008 23:27:46 3.3 C 4.79 g/m*3 3.3 C 0 km/h
1678 19-12-2008 23:39:46 3.7 C 4.86 g/m*3 3.7 C 0 km/h
1679 19-12-2008 23:51:46 3.7 C 4.8 g/m*3 3.7 C 0 km/h
1680 20-12-2008 00:03:46 3.7 C 4.8 g/m*3 3.7 C 0 km/h
1681 20-12-2008 00:15:46 3.8 C 4.77 g/m*3 3.8 C 0 km/h
1682 20-12-2008 00:27:46 3.7 C 4.86 g/m*3 3.7 C 0 km/h
1683 20-12-2008 00:39:46 3.4 C 4.95 g/m*3 3.4 C 0 km/h
1684 20-12-2008 00:51:47 3.2 C 5.12 g/m*3 3.2 C 0 km/h
1685 20-12-2008 01:03:47 3.1 C 5.21 g/m*3 3.1 C 0 km/h
1686 20-12-2008 01:15:47 3.1 C 5.27 g/m*3 3.1 C 0 km/h
1687 20-12-2008 01:27:47 3 C 5.29 g/m*3 3 C 0 km/h
1688 20-12-2008 01:39:47 3 C 5.29 g/m*3 3 C 0 km/h
1689 20-12-2008 01:51:47 3 C 5.35 g/m*3 3 C 0 km/h
1690 20-12-2008 02:03:47 3.1 C 5.45 g/m*3 3.1 C 0 km/h
1691 20-12-2008 02:15:47 3.4 C 5.62 g/m*3 3.4 C 0 km/h
1692 20-12-2008 02:27:47 3.7 C 5.73 g/m*3 3.7 C 0 km/h
1693 20-12-2008 02:39:47 3.8 C 5.71 g/m*3 3.8 C 0 km/h
1694 20-12-2008 02:51:47 3.8 C 5.65 g/m*3 3.8 C 0 km/h
1695 20-12-2008 03:03:47 3.9 C 5.68 g/m*3 3.9 C 0 km/h
1696 20-12-2008 03:15:47 3.9 C 5.68 g/m*3 3.9 C 0 km/h
1697 20-12-2008 03:27:47 4.1 C 5.7 g/m*3 4.1 C 0 km/h
1698 20-12-2008 03:39:47 4.2 C 5.73 g/m*3 4.2 C 0 km/h
1699 20-12-2008 03:51:47 4.3 C 5.77 g/m*3 4.3 C 0 km/h
1700 20-12-2008 04:03:47 4.3 C 5.77 g/m*3 4.3 C 0 km/h
Sensor: Nr:Datum:Temp:Abs-Feuchte:Windchill:Wind:
Aussen-T/F 1701 20-12-2008 04:15:47 4.4 C 5.81 g/m*3 4.4 C 0 km/h
1702 20-12-2008 04:27:47 4.4 C 5.81 g/m*3 4.4 C 0 km/h
1703 20-12-2008 04:39:48 4.4 C 5.88 g/m*3 4.4 C 0 km/h
1704 20-12-2008 04:51:48 4.4 C 5.88 g/m*3 4.4 C 0 km/h
1705 20-12-2008 05:03:48 4.5 C 5.98 g/m*3 4.5 C 0 km/h
1706 20-12-2008 05:15:48 4.5 C 5.98 g/m*3 4.5 C 0 km/h
1707 20-12-2008 05:27:48 4.5 C 5.98 g/m*3 4.5 C 0 km/h
1708 20-12-2008 05:39:48 4.6 C 6.02 g/m*3 4.6 C 0 km/h
1709 20-12-2008 05:51:48 4.7 C 6.06 g/m*3 4.7 C 0 km/h
1710 20-12-2008 06:03:48 4.8 C 6.1 g/m*3 4.8 C 0 km/h
1711 20-12-2008 06:15:48 4.9 C 6.14 g/m*3 4.9 C 0 km/h
1712 20-12-2008 06:27:48 5 C 6.12 g/m*3 5 C 0 km/h
1713 20-12-2008 06:39:48 5.2 C 6.13 g/m*3 5.2 C 0 km/h
1714 20-12-2008 06:51:48 5.3 C 6.1 g/m*3 5.3 C 0 km/h
1715 20-12-2008 07:03:48 5.3 C 6.1 g/m*3 5.3 C 0 km/h
1716 20-12-2008 07:15:48 5.4 C 6.14 g/m*3 5.4 C 0 km/h
1717 20-12-2008 07:27:48 5.4 C 6.07 g/m*3 5.4 C 0 km/h
1718 20-12-2008 07:39:48 5.6 C 6.15 g/m*3 5.6 C 0 km/h
1719 20-12-2008 07:51:48 5.6 C 6.15 g/m*3 5.6 C 0 km/h
1720 20-12-2008 08:03:48 5.9 C 6.2 g/m*3 5.9 C 0 km/h
1721 20-12-2008 08:15:48 6 C 6.1 g/m*3 6 C 0 km/h
1722 20-12-2008 08:27:49 6 C 6.1 g/m*3 6 C 0 km/h
1723 20-12-2008 08:39:49 6 C 6.1 g/m*3 6 C 0 km/h
1724 20-12-2008 08:51:49 6 C 6.17 g/m*3 6 C 0 km/h
1725 20-12-2008 09:03:47 6 C 6.17 g/m*3 6 C 0 km/h
Sensor: Nr:Datum:Temp:Abs-Feuchte:Windchill:Wind:
Aussen-T/F 1726 20-12-2008 09:15:46 5.9 C 6.27 g/m*3 5.9 C 0 km/h
1727 20-12-2008 09:27:46 6 C 6.24 g/m*3 6 C 0 km/h
1728 20-12-2008 09:39:46 6 C 6.31 g/m*3 6 C 0 km/h
1729 20-12-2008 09:51:46 6.2 C 6.4 g/m*3 6.2 C 0 km/h
1730 20-12-2008 10:03:46 6.3 C 6.44 g/m*3 6.3 C 0 km/h
1731 20-12-2008 10:15:45 6.5 C 6.52 g/m*3 6.5 C 0 km/h
1732 20-12-2008 10:27:45 6.7 C 6.53 g/m*3 6.7 C 0 km/h
1733 20-12-2008 10:39:46 6.8 C 6.5 g/m*3 6.8 C 0 km/h
1734 20-12-2008 10:51:45 6.9 C 6.54 g/m*3 6.9 C 0 km/h
1735 20-12-2008 11:03:45 7 C 6.43 g/m*3 7 C 0 km/h
1736 20-12-2008 11:15:46 7 C 6.51 g/m*3 7 C 0 km/h
1737 20-12-2008 11:27:46 7.2 C 6.59 g/m*3 7.2 C 0 km/h
1738 20-12-2008 11:39:45 7.4 C 6.68 g/m*3 7.4 C 0 km/h
1739 20-12-2008 11:51:45 7.5 C 6.72 g/m*3 7.5 C 0 km/h
1740 20-12-2008 12:03:45 7.7 C 6.81 g/m*3 7.7 C 0 km/h
1741 20-12-2008 12:15:45 7.8 C 6.69 g/m*3 7.8 C 0 km/h
1742 20-12-2008 12:27:45 8.1 C 6.66 g/m*3 8.1 C 0 km/h
1743 20-12-2008 12:39:44 8.5 C 6.66 g/m*3 8.5 C 0 km/h
1744 20-12-2008 12:51:45 8.7 C 6.66 g/m*3 8.7 C 0 km/h
1745 20-12-2008 13:03:44 8.8 C 6.7 g/m*3 8.8 C 0 km/h
1746 20-12-2008 13:15:44 8.9 C 6.75 g/m*3 8.9 C 0 km/h
1747 20-12-2008 13:27:44 9.1 C 6.65 g/m*3 9.1 C 0 km/h
1748 20-12-2008 13:39:44 9 C 6.7 g/m*3 9 C 0 km/h
1749 20-12-2008 13:51:44 9 C 6.7 g/m*3 9 C 0 km/h
1750 20-12-2008 14:03:44 8.9 C 6.83 g/m*3 8.9 C 0 km/h
Sensor: Nr:Datum:Temp:Abs-Feuchte:Windchill:Wind:
Aussen-T/F 1751 20-12-2008 14:15:43 8.8 C 6.88 g/m*3 8.8 C 0 km/h
1752 20-12-2008 14:27:43 8.7 C 7.01 g/m*3 8.7 C 0 km/h
1753 20-12-2008 14:39:44 8.4 C 7.13 g/m*3 8.4 C 0 km/h
1754 20-12-2008 14:51:43 8.3 C 7.25 g/m*3 8.3 C 0 km/h
1755 20-12-2008 15:03:43 8.4 C 7.3 g/m*3 8.4 C 0 km/h
1756 20-12-2008 15:15:43 8.5 C 7.17 g/m*3 8.5 C 0 km/h
1757 20-12-2008 15:27:43 8.7 C 7.18 g/m*3 8.7 C 0 km/h
1758 20-12-2008 15:39:43 9 C 7.14 g/m*3 9 C 0 km/h
1759 20-12-2008 15:51:42 8.9 C 7.1 g/m*3 8.9 C 0 km/h
1760 20-12-2008 16:03:43 8.9 C 7.1 g/m*3 8.9 C 0 km/h
1761 20-12-2008 16:15:43 8.8 C 6.96 g/m*3 8.8 C 0 km/h
1762 20-12-2008 16:27:43 8.8 C 6.96 g/m*3 8.8 C 0 km/h
1763 20-12-2008 16:39:42 8.8 C 6.96 g/m*3 8.8 C 0 km/h
1764 20-12-2008 16:51:42 8.8 C 6.96 g/m*3 8.8 C 0 km/h
1765 20-12-2008 17:03:43 8.8 C 6.96 g/m*3 8.8 C 0 km/h
1766 20-12-2008 17:15:42 8.8 C 7.05 g/m*3 8.8 C 0 km/h
1767 20-12-2008 17:27:42 8.9 C 7.1 g/m*3 8.9 C 0 km/h
1768 20-12-2008 17:39:42 8.9 C 7.1 g/m*3 8.9 C 0 km/h
1769 20-12-2008 17:51:42 8.8 C 7.14 g/m*3 8.8 C 0 km/h
1770 20-12-2008 18:03:41 8.7 C 7.18 g/m*3 8.7 C 0 km/h
1771 20-12-2008 18:15:42 8.5 C 7.34 g/m*3 8.5 C 0 km/h
1772 20-12-2008 18:27:42 8.5 C 7.43 g/m*3 8.5 C 0 km/h
1773 20-12-2008 18:39:41 8.4 C 7.47 g/m*3 8.4 C 0 km/h
1774 20-12-2008 18:51:41 8.4 C 7.55 g/m*3 8.4 C 0 km/h
1775 20-12-2008 19:03:42 8.3 C 7.59 g/m*3 8.3 C 0 km/h
Sensor: Nr:Datum:Temp:Abs-Feuchte:Windchill:Wind:
Aussen-T/F 1776 20-12-2008 19:15:41 8.5 C 7.85 g/m*3 8.5 C 0 km/h
1777 20-12-2008 19:27:41 8.4 C 7.8 g/m*3 8.4 C 0 km/h
1778 20-12-2008 19:39:41 8.4 C 7.8 g/m*3 8.4 C 0 km/h
1779 20-12-2008 19:51:41 8.3 C 7.75 g/m*3 8.3 C 0 km/h
1780 20-12-2008 20:03:41 8 C 7.61 g/m*3 8 C 0 km/h
1781 20-12-2008 20:15:40 7.8 C 7.59 g/m*3 7.8 C 0 km/h
1782 20-12-2008 20:27:40 7.8 C 7.59 g/m*3 7.8 C 0 km/h
1783 20-12-2008 20:39:40 7.5 C 7.44 g/m*3 7.5 C 0 km/h
1784 20-12-2008 20:51:40 7.2 C 7.3 g/m*3 7.2 C 0 km/h
1785 20-12-2008 21:03:40 7 C 7.21 g/m*3 7 C 0 km/h
1786 20-12-2008 21:15:40 7 C 7.21 g/m*3 7 C 0 km/h
1787 20-12-2008 21:27:40 6.7 C 7.07 g/m*3 6.7 C 0 km/h
1788 20-12-2008 21:39:40 6.5 C 6.97 g/m*3 6.5 C 0 km/h
1789 20-12-2008 21:51:40 6.4 C 6.93 g/m*3 6.4 C 0 km/h
1790 20-12-2008 22:03:40 6.2 C 6.84 g/m*3 6.2 C 0 km/h
1791 20-12-2008 22:15:39 6 C 6.75 g/m*3 6 C 0 km/h
1792 20-12-2008 22:27:39 6 C 6.75 g/m*3 6 C 0 km/h
1793 20-12-2008 22:39:39 6.1 C 6.79 g/m*3 6.1 C 0 km/h
1794 20-12-2008 22:51:39 6.1 C 6.79 g/m*3 6.1 C 0 km/h
1795 20-12-2008 23:03:39 6.1 C 6.79 g/m*3 6.1 C 0 km/h
1796 20-12-2008 23:15:38 6 C 6.75 g/m*3 6 C 0 km/h
1797 20-12-2008 23:27:38 6 C 6.82 g/m*3 6 C 0 km/h
1798 20-12-2008 23:39:39 5.9 C 6.78 g/m*3 5.9 C 0 km/h
1799 20-12-2008 23:51:38 5.9 C 6.78 g/m*3 5.9 C 0 km/h
1800 21-12-2008 00:03:38 5.9 C 6.78 g/m*3 5.9 C 0 km/h
Sensor: Nr:Datum:Temp:Abs-Feuchte:Windchill:Wind:
Aussen-T/F 1801 21-12-2008 00:15:38 5.9 C 6.71 g/m*3 5.9 C 0 km/h
1802 21-12-2008 00:27:38 5.9 C 6.71 g/m*3 5.9 C 0 km/h
1803 21-12-2008 00:39:38 5.9 C 6.71 g/m*3 5.9 C 0 km/h
1804 21-12-2008 00:51:38 5.9 C 6.71 g/m*3 5.9 C 0 km/h
1805 21-12-2008 01:03:38 5.9 C 6.71 g/m*3 5.9 C 0 km/h
1806 21-12-2008 01:15:37 5.9 C 6.71 g/m*3 5.9 C 0 km/h
1807 21-12-2008 01:27:37 5.9 C 6.63 g/m*3 5.9 C 0 km/h
1808 21-12-2008 01:39:38 5.9 C 6.63 g/m*3 5.9 C 0 km/h
1809 21-12-2008 01:51:37 5.9 C 6.63 g/m*3 5.9 C 0 km/h
1810 21-12-2008 02:03:37 5.9 C 6.63 g/m*3 5.9 C 0 km/h
1811 21-12-2008 02:15:37 6 C 6.6 g/m*3 6 C 0 km/h
1812 21-12-2008 02:27:37 6.1 C 6.65 g/m*3 6.1 C 0 km/h
1813 21-12-2008 02:39:37 6.1 C 6.65 g/m*3 6.1 C 0 km/h
1814 21-12-2008 02:52:01 6.1 C 6.65 g/m*3 6.1 C 0 km/h
1815 21-12-2008 03:04:01 6.1 C 6.65 g/m*3 6.1 C 0 km/h
1816 21-12-2008 03:16:01 6.2 C 6.69 g/m*3 6.2 C 0 km/h
1817 21-12-2008 03:28:01 6.2 C 6.69 g/m*3 6.2 C 0 km/h
1818 21-12-2008 03:40:01 6.2 C 6.69 g/m*3 6.2 C 0 km/h
1819 21-12-2008 03:52:02 6.1 C 6.65 g/m*3 6.1 C 0 km/h
1820 21-12-2008 04:04:01 6.1 C 6.65 g/m*3 6.1 C 0 km/h
1821 21-12-2008 04:16:01 6.1 C 6.65 g/m*3 6.1 C 0 km/h
1822 21-12-2008 04:28:01 6.1 C 6.65 g/m*3 6.1 C 0 km/h
1823 21-12-2008 04:40:02 6.1 C 6.65 g/m*3 6.1 C 0 km/h
1824 21-12-2008 04:52:01 6.1 C 6.65 g/m*3 6.1 C 0 km/h
1825 21-12-2008 05:04:01 6.1 C 6.65 g/m*3 6.1 C 0 km/h
Sensor: Nr:Datum:Temp:Abs-Feuchte:Windchill:Wind:
Aussen-T/F 1826 21-12-2008 05:16:02 6.1 C 6.72 g/m*3 6.1 C 0 km/h
1827 21-12-2008 05:28:02 6.1 C 6.72 g/m*3 6.1 C 0 km/h
1828 21-12-2008 05:40:01 6.1 C 6.72 g/m*3 6.1 C 0 km/h
1829 21-12-2008 05:52:01 6.1 C 6.72 g/m*3 6.1 C 0 km/h
1830 21-12-2008 06:04:01 6.2 C 6.77 g/m*3 6.2 C 0 km/h
1831 21-12-2008 06:16:01 6.2 C 6.77 g/m*3 6.2 C 0 km/h
1832 21-12-2008 06:28:01 6.2 C 6.77 g/m*3 6.2 C 0 km/h
1833 21-12-2008 06:40:01 6.2 C 6.84 g/m*3 6.2 C 0 km/h
1834 21-12-2008 06:52:01 6.4 C 6.93 g/m*3 6.4 C 0 km/h
1835 21-12-2008 07:04:01 6.9 C 7.24 g/m*3 6.9 C 0 km/h
1836 21-12-2008 07:16:02 7.3 C 7.51 g/m*3 7.3 C 0 km/h
1837 21-12-2008 07:28:02 7.5 C 7.6 g/m*3 7.5 C 0 km/h
1838 21-12-2008 07:40:01 7.1 C 7.41 g/m*3 7.1 C 0 km/h
1839 21-12-2008 07:52:02 6.7 C 7.22 g/m*3 6.7 C 0 km/h
1840 21-12-2008 08:04:01 6.6 C 7.17 g/m*3 6.6 C 0 km/h
1841 21-12-2008 08:16:02 6.6 C 7.17 g/m*3 6.6 C 0 km/h
1842 21-12-2008 08:28:02 7.1 C 7.41 g/m*3 7.1 C 0 km/h
1843 21-12-2008 08:40:01 7.7 C 7.7 g/m*3 7.7 C 0 km/h
1844 21-12-2008 08:52:02 7.8 C 7.75 g/m*3 7.8 C 0 km/h
1845 21-12-2008 09:04:01 7.9 C 7.8 g/m*3 7.9 C 0 km/h
1846 21-12-2008 09:16:01 7.8 C 7.75 g/m*3 7.8 C 0 km/h
1847 21-12-2008 09:28:01 7.7 C 7.7 g/m*3 7.7 C 0 km/h
1848 21-12-2008 09:40:02 7.4 C 7.55 g/m*3 7.4 C 0 km/h
1849 21-12-2008 09:52:01 7.1 C 7.41 g/m*3 7.1 C 0 km/h
1850 21-12-2008 10:04:02 7.2 C 7.46 g/m*3 7.2 C 0 km/h
Sensor: Nr:Datum:Temp:Abs-Feuchte:Windchill:Wind:
Aussen-T/F 1851 21-12-2008 10:16:01 7.3 C 7.51 g/m*3 7.3 C 0 km/h
1852 21-12-2008 10:28:01 7.4 C 7.55 g/m*3 7.4 C 0 km/h
1853 21-12-2008 10:40:02 7.5 C 7.6 g/m*3 7.5 C 0 km/h
1854 21-12-2008 10:52:01 7.5 C 7.6 g/m*3 7.5 C 0 km/h
1855 21-12-2008 11:04:02 7.6 C 7.65 g/m*3 7.6 C 0 km/h
1856 21-12-2008 11:16:01 7.9 C 7.8 g/m*3 7.9 C 0 km/h
1857 21-12-2008 11:28:01 7.9 C 7.8 g/m*3 7.9 C 0 km/h
1858 21-12-2008 11:40:01 8.1 C 7.9 g/m*3 8.1 C 0 km/h
1859 21-12-2008 11:52:01 8.7 C 8.22 g/m*3 8.7 C 0 km/h
1860 21-12-2008 12:04:01 9.1 C 8.43 g/m*3 9.1 C 0 km/h
1861 21-12-2008 12:16:01 9.4 C 8.41 g/m*3 9.4 C 0 km/h
1862 21-12-2008 12:28:01 9.7 C 8.11 g/m*3 9.7 C 0 km/h
1863 21-12-2008 12:40:01 9.8 C 7.61 g/m*3 9.8 C 0 km/h
1864 21-12-2008 12:52:01 9.8 C 7.42 g/m*3 9.8 C 0 km/h
1865 21-12-2008 13:04:01 10 C 7.14 g/m*3 10 C 0 km/h
1866 21-12-2008 13:16:02 10.2 C 7.23 g/m*3 10.2 C 0 km/h
1867 21-12-2008 13:28:02 10.7 C 7.07 g/m*3 10.7 C 0 km/h
1868 21-12-2008 13:40:01 10.7 C 6.97 g/m*3 10.7 C 0 km/h
1869 21-12-2008 13:52:02 10.7 C 6.68 g/m*3 10.7 C 0 km/h
1870 21-12-2008 14:04:01 10.5 C 6.6 g/m*3 10.5 C 0 km/h
1871 21-12-2008 14:16:01 10.4 C 6.65 g/m*3 10.4 C 0 km/h
1872 21-12-2008 14:28:02 10.2 C 6.66 g/m*3 10.2 C 0 km/h
1873 21-12-2008 14:40:01 10.1 C 6.71 g/m*3 10.1 C 0 km/h
1874 21-12-2008 14:52:01 10.1 C 6.52 g/m*3 10.1 C 0 km/h
1875 21-12-2008 15:04:01 10 C 6.48 g/m*3 10 C 0 km/h
Sensor: Nr:Datum:Temp:Abs-Feuchte:Windchill:Wind:
Aussen-T/F 1876 21-12-2008 15:16:01 9.9 C 6.54 g/m*3 9.9 C 0 km/h
1877 21-12-2008 15:28:01 9.8 C 6.59 g/m*3 9.8 C 0 km/h
1878 21-12-2008 15:40:02 9.7 C 6.64 g/m*3 9.7 C 0 km/h
1879 21-12-2008 15:52:01 9.6 C 6.6 g/m*3 9.6 C 0 km/h
1880 21-12-2008 16:04:02 9.6 C 6.5 g/m*3 9.6 C 0 km/h
1881 21-12-2008 16:16:01 9.5 C 6.28 g/m*3 9.5 C 0 km/h
1882 21-12-2008 16:28:01 9.5 C 6.28 g/m*3 9.5 C 0 km/h
1883 21-12-2008 16:40:02 9.4 C 6.24 g/m*3 9.4 C 0 km/h
1884 21-12-2008 16:52:01 9.2 C 6.25 g/m*3 9.2 C 0 km/h
1885 21-12-2008 17:04:02 9.2 C 6.16 g/m*3 9.2 C 0 km/h
1886 21-12-2008 17:16:01 9.1 C 6.12 g/m*3 9.1 C 0 km/h
1887 21-12-2008 17:28:01 9.1 C 6.12 g/m*3 9.1 C 0 km/h
1888 21-12-2008 17:40:01 9 C 6.08 g/m*3 9 C 0 km/h
1889 21-12-2008 17:52:01 9 C 6.08 g/m*3 9 C 0 km/h
1890 21-12-2008 18:04:01 9 C 6.08 g/m*3 9 C 0 km/h
1891 21-12-2008 18:16:02 9.1 C 6.03 g/m*3 9.1 C 0 km/h
1892 21-12-2008 18:28:02 9.1 C 6.03 g/m*3 9.1 C 0 km/h
1893 21-12-2008 18:40:01 9 C 5.99 g/m*3 9 C 0 km/h
1894 21-12-2008 18:52:02 8.9 C 6.04 g/m*3 8.9 C 0 km/h
1895 21-12-2008 19:04:01 8.9 C 6.04 g/m*3 8.9 C 0 km/h
1896 21-12-2008 19:16:02 8.8 C 6.09 g/m*3 8.8 C 0 km/h
1897 21-12-2008 19:28:02 8.7 C 6.14 g/m*3 8.7 C 0 km/h
1898 21-12-2008 19:40:01 8.7 C 6.31 g/m*3 8.7 C 0 km/h
1899 21-12-2008 19:52:02 8.7 C 6.31 g/m*3 8.7 C 0 km/h
1900 21-12-2008 20:04:01 8.7 C 6.31 g/m*3 8.7 C 0 km/h
Sensor: Nr:Datum:Temp:Abs-Feuchte:Windchill:Wind:
Aussen-T/F 1901 21-12-2008 20:16:01 8.7 C 6.23 g/m*3 8.7 C 0 km/h
1902 21-12-2008 20:28:01 8.7 C 6.23 g/m*3 8.7 C 0 km/h
1903 21-12-2008 20:40:02 8.8 C 6.18 g/m*3 8.8 C 0 km/h
1904 21-12-2008 20:52:01 8.9 C 6.13 g/m*3 8.9 C 0 km/h
1905 21-12-2008 21:04:01 8.9 C 6.13 g/m*3 8.9 C 0 km/h
1906 21-12-2008 21:16:01 8.9 C 6.04 g/m*3 8.9 C 0 km/h
1907 21-12-2008 21:28:01 8.9 C 6.13 g/m*3 8.9 C 0 km/h
1908 21-12-2008 21:40:02 8.8 C 6.18 g/m*3 8.8 C 0 km/h
1909 21-12-2008 21:52:01 8.7 C 6.14 g/m*3 8.7 C 0 km/h
1910 21-12-2008 22:04:02 8.7 C 6.23 g/m*3 8.7 C 0 km/h
1911 21-12-2008 22:16:01 8.6 C 6.19 g/m*3 8.6 C 0 km/h
1912 21-12-2008 22:28:01 8.6 C 6.19 g/m*3 8.6 C 0 km/h
1913 21-12-2008 22:40:02 8.6 C 6.19 g/m*3 8.6 C 0 km/h
1914 21-12-2008 22:52:01 8.5 C 6.23 g/m*3 8.5 C 0 km/h
1915 21-12-2008 23:04:01 8.5 C 6.23 g/m*3 8.5 C 0 km/h
1916 21-12-2008 23:16:01 8.5 C 6.23 g/m*3 8.5 C 0 km/h
1917 21-12-2008 23:28:01 8.5 C 6.23 g/m*3 8.5 C 0 km/h
1918 21-12-2008 23:40:01 8.5 C 6.32 g/m*3 8.5 C 0 km/h
1919 21-12-2008 23:52:01 8.5 C 6.32 g/m*3 8.5 C 0 km/h
1920 22-12-2008 00:04:01 8.6 C 6.36 g/m*3 8.6 C 0 km/h
1921 22-12-2008 00:16:02 8.6 C 6.36 g/m*3 8.6 C 0 km/h
1922 22-12-2008 00:28:02 8.6 C 6.36 g/m*3 8.6 C 0 km/h
1923 22-12-2008 00:40:01 8.6 C 6.44 g/m*3 8.6 C 0 km/h
1924 22-12-2008 00:52:02 8.6 C 6.44 g/m*3 8.6 C 0 km/h
1925 22-12-2008 01:04:01 8.8 C 6.44 g/m*3 8.8 C 0 km/h
Sensor: Nr:Datum:Temp:Abs-Feuchte:Windchill:Wind:
Aussen-T/F 1926 22-12-2008 01:16:02 8.8 C 6.44 g/m*3 8.8 C 0 km/h
1927 22-12-2008 01:28:02 8.8 C 6.44 g/m*3 8.8 C 0 km/h
1928 22-12-2008 01:40:01 8.9 C 6.39 g/m*3 8.9 C 0 km/h
1929 22-12-2008 01:52:02 8.9 C 6.39 g/m*3 8.9 C 0 km/h
1930 22-12-2008 02:04:01 8.9 C 6.48 g/m*3 8.9 C 0 km/h
1931 22-12-2008 02:16:01 8.7 C 6.49 g/m*3 8.7 C 0 km/h
1932 22-12-2008 02:28:01 8.7 C 6.57 g/m*3 8.7 C 0 km/h
1933 22-12-2008 02:40:01 8.8 C 6.61 g/m*3 8.8 C 0 km/h
1934 22-12-2008 02:52:27 8.9 C 6.57 g/m*3 8.9 C 0 km/h
1935 22-12-2008 03:04:27 8.9 C 6.57 g/m*3 8.9 C 0 km/h
1936 22-12-2008 03:16:27 8.9 C 6.57 g/m*3 8.9 C 0 km/h
1937 22-12-2008 03:28:27 8.7 C 6.57 g/m*3 8.7 C 0 km/h
1938 22-12-2008 03:40:27 8.6 C 6.7 g/m*3 8.6 C 0 km/h
1939 22-12-2008 03:52:27 8.2 C 6.95 g/m*3 8.2 C 0 km/h
1940 22-12-2008 04:04:26 8.1 C 7.16 g/m*3 8.1 C 0 km/h
1941 22-12-2008 04:16:27 8.1 C 7.24 g/m*3 8.1 C 0 km/h
1942 22-12-2008 04:28:27 8.1 C 7.32 g/m*3 8.1 C 0 km/h
1943 22-12-2008 04:40:26 8.1 C 7.32 g/m*3 8.1 C 0 km/h
1944 22-12-2008 04:52:26 8.3 C 7.25 g/m*3 8.3 C 0 km/h
1945 22-12-2008 05:04:26 8.3 C 7.16 g/m*3 8.3 C 0 km/h
1946 22-12-2008 05:16:26 8.3 C 7.16 g/m*3 8.3 C 0 km/h
1947 22-12-2008 05:28:26 8.2 C 7.2 g/m*3 8.2 C 0 km/h
1948 22-12-2008 05:40:26 8.1 C 7.16 g/m*3 8.1 C 0 km/h
1949 22-12-2008 05:52:25 8.1 C 7.24 g/m*3 8.1 C 0 km/h
1950 22-12-2008 06:04:26 8.1 C 7.24 g/m*3 8.1 C 0 km/h
Sensor: Nr:Datum:Temp:Abs-Feuchte:Windchill:Wind:
Aussen-T/F 1951 22-12-2008 06:16:26 8.1 C 7.24 g/m*3 8.1 C 0 km/h
1952 22-12-2008 06:28:26 8.1 C 7.16 g/m*3 8.1 C 0 km/h
1953 22-12-2008 06:40:25 8.3 C 7.16 g/m*3 8.3 C 0 km/h
1954 22-12-2008 06:52:26 8.6 C 7.05 g/m*3 8.6 C 0 km/h
1955 22-12-2008 07:04:25 8.6 C 6.96 g/m*3 8.6 C 0 km/h
1956 22-12-2008 07:16:25 8.8 C 6.88 g/m*3 8.8 C 0 km/h
1957 22-12-2008 07:28:25 8.9 C 6.83 g/m*3 8.9 C 0 km/h
1958 22-12-2008 07:40:24 8.9 C 6.83 g/m*3 8.9 C 0 km/h
1959 22-12-2008 07:52:25 8.9 C 6.83 g/m*3 8.9 C 0 km/h
1960 22-12-2008 08:04:24 8.9 C 6.83 g/m*3 8.9 C 0 km/h
1961 22-12-2008 08:16:24 9 C 6.7 g/m*3 9 C 0 km/h
1962 22-12-2008 08:28:24 9 C 6.61 g/m*3 9 C 0 km/h
1963 22-12-2008 08:40:25 9.1 C 6.65 g/m*3 9.1 C 0 km/h
1964 22-12-2008 08:52:24 9 C 6.61 g/m*3 9 C 0 km/h
1965 22-12-2008 09:04:24 9.1 C 6.65 g/m*3 9.1 C 0 km/h
1966 22-12-2008 09:16:24 9 C 6.61 g/m*3 9 C 0 km/h
1967 22-12-2008 09:28:24 9.1 C 6.65 g/m*3 9.1 C 0 km/h
1968 22-12-2008 09:40:24 9 C 6.7 g/m*3 9 C 0 km/h
1969 22-12-2008 09:52:23 9.1 C 6.74 g/m*3 9.1 C 0 km/h
1970 22-12-2008 10:04:24 9.2 C 6.79 g/m*3 9.2 C 0 km/h
1971 22-12-2008 10:16:23 9.3 C 6.74 g/m*3 9.3 C 0 km/h
1972 22-12-2008 10:28:23 9.2 C 6.79 g/m*3 9.2 C 0 km/h
1973 22-12-2008 10:40:23 9.2 C 6.97 g/m*3 9.2 C 0 km/h
1974 22-12-2008 10:52:23 9.3 C 7.01 g/m*3 9.3 C 0 km/h
1975 22-12-2008 11:04:23 9.3 C 7.1 g/m*3 9.3 C 0 km/h
Sensor: Nr:Datum:Temp:Abs-Feuchte:Windchill:Wind:
Aussen-T/F 1976 22-12-2008 11:16:23 9.4 C 7.24 g/m*3 9.4 C 0 km/h
1977 22-12-2008 11:28:23 9.5 C 7.19 g/m*3 9.5 C 0 km/h
1978 22-12-2008 11:40:23 9.6 C 7.24 g/m*3 9.6 C 0 km/h
1979 22-12-2008 11:52:23 9.6 C 7.24 g/m*3 9.6 C 0 km/h
1980 22-12-2008 12:04:22 9.9 C 7.28 g/m*3 9.9 C 0 km/h
1981 22-12-2008 12:16:22 10 C 7.14 g/m*3 10 C 0 km/h
1982 22-12-2008 12:28:22 10 C 7.14 g/m*3 10 C 0 km/h
1983 22-12-2008 12:40:22 9.9 C 7.38 g/m*3 9.9 C 0 km/h
1984 22-12-2008 12:52:22 9.9 C 7.66 g/m*3 9.9 C 0 km/h
1985 22-12-2008 13:04:22 9.9 C 7.56 g/m*3 9.9 C 0 km/h
1986 22-12-2008 13:16:22 10 C 7.42 g/m*3 10 C 0 km/h
1987 22-12-2008 13:28:22 10 C 7.42 g/m*3 10 C 0 km/h
1988 22-12-2008 13:40:22 9.9 C 7.47 g/m*3 9.9 C 0 km/h
1989 22-12-2008 13:52:21 10 C 7.33 g/m*3 10 C 0 km/h
1990 22-12-2008 14:04:21 10.1 C 7.19 g/m*3 10.1 C 0 km/h
1991 22-12-2008 14:16:21 10.3 C 6.99 g/m*3 10.3 C 0 km/h
1992 22-12-2008 14:28:21 10.3 C 6.9 g/m*3 10.3 C 0 km/h
1993 22-12-2008 14:40:22 9.7 C 7.01 g/m*3 9.7 C 0 km/h
1994 22-12-2008 14:52:21 9.6 C 7.05 g/m*3 9.6 C 0 km/h
1995 22-12-2008 15:04:21 9.6 C 7.05 g/m*3 9.6 C 0 km/h
1996 22-12-2008 15:16:21 9.7 C 6.91 g/m*3 9.7 C 0 km/h
1997 22-12-2008 15:28:21 9.7 C 6.82 g/m*3 9.7 C 0 km/h
1998 22-12-2008 15:40:21 9.7 C 6.45 g/m*3 9.7 C 0 km/h
1999 22-12-2008 15:52:20 9.6 C 6.32 g/m*3 9.6 C 0 km/h
2000 22-12-2008 16:04:21 9.6 C 6.23 g/m*3 9.6 C 0 km/h
Sensor: Nr:Datum:Temp:Abs-Feuchte:Windchill:Wind:
Aussen-T/F 2001 22-12-2008 16:16:20 9.5 C 6.19 g/m*3 9.5 C 0 km/h
2002 22-12-2008 16:28:20 9.6 C 6.05 g/m*3 9.6 C 0 km/h
2003 22-12-2008 16:40:20 9.5 C 6.01 g/m*3 9.5 C 0 km/h
2004 22-12-2008 16:52:02 9.5 C 5.92 g/m*3 9.5 C 0 km/h
2005 22-12-2008 17:04:02 9.5 C 6.01 g/m*3 9.5 C 0 km/h
2006 22-12-2008 17:16:02 9.3 C 5.93 g/m*3 9.3 C 0 km/h
2007 22-12-2008 17:28:02 9.1 C 6.03 g/m*3 9.1 C 0 km/h
2008 22-12-2008 17:40:02 8.8 C 6.18 g/m*3 8.8 C 0 km/h
2009 22-12-2008 17:52:02 8.5 C 6.15 g/m*3 8.5 C 0 km/h
2010 22-12-2008 18:04:01 8 C 6.12 g/m*3 8 C 0 km/h
2011 22-12-2008 18:16:02 7.6 C 6.28 g/m*3 7.6 C 0 km/h
2012 22-12-2008 18:28:02 7.3 C 6.32 g/m*3 7.3 C 0 km/h
2013 22-12-2008 18:40:02 7.1 C 6.32 g/m*3 7.1 C 0 km/h
2014 22-12-2008 18:52:02 6.9 C 6.39 g/m*3 6.9 C 0 km/h
2015 22-12-2008 19:04:02 6.9 C 6.47 g/m*3 6.9 C 0 km/h
2016 22-12-2008 19:16:02 6.7 C 6.38 g/m*3 6.7 C 0 km/h
2017 22-12-2008 19:28:02 6.3 C 6.22 g/m*3 6.3 C 0 km/h
2018 22-12-2008 19:40:01 6.2 C 6.25 g/m*3 6.2 C 0 km/h
2019 22-12-2008 19:52:02 5.9 C 6.2 g/m*3 5.9 C 0 km/h
2020 22-12-2008 20:04:01 5.8 C 6.16 g/m*3 5.8 C 0 km/h
2021 22-12-2008 20:16:01 6.1 C 6.28 g/m*3 6.1 C 0 km/h
2022 22-12-2008 20:28:01 6.1 C 6.28 g/m*3 6.1 C 0 km/h
2023 22-12-2008 20:40:00 6.2 C 6.25 g/m*3 6.2 C 0 km/h
2024 22-12-2008 20:52:01 6.3 C 6.29 g/m*3 6.3 C 0 km/h
2025 22-12-2008 21:04:01 6.3 C 6.22 g/m*3 6.3 C 0 km/h
Sensor: Nr:Datum:Temp:Abs-Feuchte:Windchill:Wind:
Aussen-T/F 2026 22-12-2008 21:16:00 6.5 C 6.3 g/m*3 6.5 C 0 km/h
2027 22-12-2008 21:28:00 6.4 C 6.18 g/m*3 6.4 C 0 km/h
2028 22-12-2008 21:40:00 6.4 C 6.18 g/m*3 6.4 C 0 km/h
2029 22-12-2008 21:52:00 6.5 C 6.3 g/m*3 6.5 C 0 km/h
2030 22-12-2008 22:05:02 6.5 C 6.22 g/m*3 6.5 C 0 km/h
2031 22-12-2008 22:17:02 6.5 C 6.3 g/m*3 6.5 C 0 km/h
2032 22-12-2008 22:29:02 7 C 6.51 g/m*3 7 C 0 km/h
2033 22-12-2008 22:41:03 7.2 C 6.52 g/m*3 7.2 C 0 km/h
2034 22-12-2008 22:53:03 7.1 C 6.47 g/m*3 7.1 C 0 km/h
2035 22-12-2008 23:05:03 7.1 C 6.47 g/m*3 7.1 C 0 km/h
2036 22-12-2008 23:17:03 7 C 6.43 g/m*3 7 C 0 km/h
2037 22-12-2008 23:29:03 6.8 C 6.42 g/m*3 6.8 C 0 km/h
2038 22-12-2008 23:41:03 6.9 C 6.54 g/m*3 6.9 C 0 km/h
2039 22-12-2008 23:53:03 6.9 C 6.54 g/m*3 6.9 C 0 km/h
2040 23-12-2008 00:05:03 6.8 C 6.5 g/m*3 6.8 C 0 km/h
2041 23-12-2008 00:17:03 6.4 C 6.26 g/m*3 6.4 C 0 km/h
2042 23-12-2008 00:29:03 6.8 C 6.5 g/m*3 6.8 C 0 km/h
2043 23-12-2008 00:41:03 7.1 C 6.4 g/m*3 7.1 C 0 km/h
2044 23-12-2008 00:53:03 7.2 C 6.36 g/m*3 7.2 C 0 km/h
2045 23-12-2008 01:05:03 7.2 C 6.28 g/m*3 7.2 C 0 km/h
2046 23-12-2008 01:17:03 7.2 C 6.2 g/m*3 7.2 C 0 km/h
2047 23-12-2008 01:29:03 7.2 C 6.2 g/m*3 7.2 C 0 km/h
2048 23-12-2008 01:41:03 7.1 C 6.16 g/m*3 7.1 C 0 km/h
2049 23-12-2008 01:53:03 6.9 C 6.24 g/m*3 6.9 C 0 km/h
2050 23-12-2008 02:05:03 6.9 C 6.24 g/m*3 6.9 C 0 km/h
Sensor: Nr:Datum:Temp:Abs-Feuchte:Windchill:Wind:
Aussen-T/F 2051 23-12-2008 02:17:03 6.7 C 6.23 g/m*3 6.7 C 0 km/h
2052 23-12-2008 02:29:03 6.7 C 6.31 g/m*3 6.7 C 0 km/h
2053 23-12-2008 02:41:04 6.7 C 6.31 g/m*3 6.7 C 0 km/h
2054 23-12-2008 02:53:04 6.4 C 6.18 g/m*3 6.4 C 0 km/h
2055 23-12-2008 03:05:04 6.3 C 6.22 g/m*3 6.3 C 0 km/h
2056 23-12-2008 03:17:04 6.3 C 6.29 g/m*3 6.3 C 0 km/h
2057 23-12-2008 03:29:04 6.2 C 6.25 g/m*3 6.2 C 0 km/h
2058 23-12-2008 03:41:04 6.1 C 6.21 g/m*3 6.1 C 0 km/h
2059 23-12-2008 03:53:04 6.1 C 6.21 g/m*3 6.1 C 0 km/h
2060 23-12-2008 04:05:04 6 C 6.17 g/m*3 6 C 0 km/h
2061 23-12-2008 04:17:04 5.7 C 6.12 g/m*3 5.7 C 0 km/h
2062 23-12-2008 04:29:04 5.6 C 6.15 g/m*3 5.6 C 0 km/h
2063 23-12-2008 04:41:04 5.6 C 6.15 g/m*3 5.6 C 0 km/h
2064 23-12-2008 04:53:04 5.4 C 6.14 g/m*3 5.4 C 0 km/h
2065 23-12-2008 05:05:04 5.3 C 6.1 g/m*3 5.3 C 0 km/h
2066 23-12-2008 05:17:04 5.2 C 6.06 g/m*3 5.2 C 0 km/h
2067 23-12-2008 05:29:04 5.1 C 6.02 g/m*3 5.1 C 0 km/h
2068 23-12-2008 05:41:04 4.7 C 5.86 g/m*3 4.7 C 0 km/h
2069 23-12-2008 05:53:04 4.4 C 5.81 g/m*3 4.4 C 0 km/h
2070 23-12-2008 06:05:04 4.2 C 5.73 g/m*3 4.2 C 0 km/h
2071 23-12-2008 06:17:04 4.6 C 5.96 g/m*3 4.6 C 0 km/h
2072 23-12-2008 06:29:04 4.9 C 6.14 g/m*3 4.9 C 0 km/h
2073 23-12-2008 06:41:04 4.8 C 6.04 g/m*3 4.8 C 0 km/h
2074 23-12-2008 06:53:05 4.7 C 6 g/m*3 4.7 C 0 km/h
2075 23-12-2008 07:05:05 5 C 6.12 g/m*3 5 C 0 km/h
Sensor: Nr:Datum:Temp:Abs-Feuchte:Windchill:Wind:
Aussen-T/F 2076 23-12-2008 07:17:02 5 C 6.12 g/m*3 5 C 0 km/h
2077 23-12-2008 07:29:02 4.9 C 6.08 g/m*3 4.9 C 0 km/h
2078 23-12-2008 07:41:01 5.4 C 6.28 g/m*3 5.4 C 0 km/h
2079 23-12-2008 07:53:01 5.3 C 6.17 g/m*3 5.3 C 0 km/h
2080 23-12-2008 08:05:01 5.3 C 6.1 g/m*3 5.3 C 0 km/h
2081 23-12-2008 08:17:01 5.1 C 5.95 g/m*3 5.1 C 0 km/h
2082 23-12-2008 08:29:01 4.9 C 5.94 g/m*3 4.9 C 0 km/h
2083 23-12-2008 08:41:01 5 C 5.91 g/m*3 5 C 0 km/h
2084 23-12-2008 08:53:01 5 C 5.91 g/m*3 5 C 0 km/h
2085 23-12-2008 09:05:01 5 C 5.91 g/m*3 5 C 0 km/h
2086 23-12-2008 09:17:00 4.9 C 5.94 g/m*3 4.9 C 0 km/h
2087 23-12-2008 09:29:00 4.9 C 5.94 g/m*3 4.9 C 0 km/h
2088 23-12-2008 09:41:01 4.9 C 5.94 g/m*3 4.9 C 0 km/h
2089 23-12-2008 09:53:00 4.7 C 5.8 g/m*3 4.7 C 0 km/h
2090 23-12-2008 10:05:00 4.9 C 5.94 g/m*3 4.9 C 0 km/h
2091 23-12-2008 10:16:59 4.9 C 5.94 g/m*3 4.9 C 0 km/h
2092 23-12-2008 10:28:59 5 C 5.84 g/m*3 5 C 0 km/h
2093 23-12-2008 10:41:00 5.2 C 5.92 g/m*3 5.2 C 0 km/h
2094 23-12-2008 10:53:59 5.5 C 5.97 g/m*3 5.5 C 0 km/h
2095 23-12-2008 11:05:59 5.6 C 5.94 g/m*3 5.6 C 0 km/h
2096 23-12-2008 11:17:00 5.7 C 5.91 g/m*3 5.7 C 0 km/h
2097 23-12-2008 11:29:00 5.9 C 5.98 g/m*3 5.9 C 0 km/h
2098 23-12-2008 11:41:59 6.1 C 5.92 g/m*3 6.1 C 0 km/h
2099 23-12-2008 11:53:59 6.2 C 5.88 g/m*3 6.2 C 0 km/h
2100 23-12-2008 12:05:59 6.3 C 5.85 g/m*3 6.3 C 0 km/h
Sensor: Nr:Datum:Temp:Abs-Feuchte:Windchill:Wind:
Aussen-T/F 2101 23-12-2008 12:17:59 6.5 C 5.85 g/m*3 6.5 C 0 km/h
2102 23-12-2008 12:29:59 6.7 C 5.85 g/m*3 6.7 C 0 km/h
2103 23-12-2008 12:41:59 6.9 C 5.85 g/m*3 6.9 C 0 km/h
2104 23-12-2008 12:53:59 7.1 C 5.85 g/m*3 7.1 C 0 km/h
2105 23-12-2008 13:05:59 7.4 C 5.88 g/m*3 7.4 C 0 km/h
2106 23-12-2008 13:17:58 7.4 C 5.88 g/m*3 7.4 C 0 km/h
2107 23-12-2008 13:29:58 7.4 C 5.81 g/m*3 7.4 C 0 km/h
2108 23-12-2008 13:41:58 7.5 C 5.84 g/m*3 7.5 C 0 km/h
2109 23-12-2008 13:53:58 7.6 C 5.88 g/m*3 7.6 C 0 km/h
2110 23-12-2008 14:05:58 7.7 C 5.84 g/m*3 7.7 C 0 km/h
2111 23-12-2008 14:17:57 7.6 C 5.72 g/m*3 7.6 C 0 km/h
2112 23-12-2008 14:29:57 7.6 C 5.64 g/m*3 7.6 C 0 km/h
2113 23-12-2008 14:41:58 7.4 C 5.49 g/m*3 7.4 C 0 km/h
2114 23-12-2008 14:53:57 7.3 C 5.45 g/m*3 7.3 C 0 km/h
2115 23-12-2008 15:05:57 7.4 C 5.49 g/m*3 7.4 C 0 km/h
2116 23-12-2008 15:17:58 7.5 C 5.44 g/m*3 7.5 C 0 km/h
2117 23-12-2008 15:29:58 7.5 C 5.44 g/m*3 7.5 C 0 km/h
2118 23-12-2008 15:41:57 7.5 C 5.28 g/m*3 7.5 C 0 km/h
2119 23-12-2008 15:53:57 7.3 C 5.21 g/m*3 7.3 C 0 km/h
2120 23-12-2008 16:05:57 7.1 C 5.3 g/m*3 7.1 C 0 km/h
2121 23-12-2008 16:17:57 7.1 C 5.38 g/m*3 7.1 C 0 km/h
2122 23-12-2008 16:29:57 7 C 5.42 g/m*3 7 C 0 km/h
2123 23-12-2008 16:41:57 6.9 C 5.47 g/m*3 6.9 C 0 km/h
2124 23-12-2008 16:53:56 6.9 C 5.39 g/m*3 6.9 C 0 km/h
2125 23-12-2008 17:05:56 6.8 C 5.43 g/m*3 6.8 C 0 km/h
Sensor: Nr:Datum:Temp:Abs-Feuchte:Windchill:Wind:
Aussen-T/F 2126 23-12-2008 17:17:56 6.8 C 5.43 g/m*3 6.8 C 0 km/h
2127 23-12-2008 17:29:56 6.7 C 5.47 g/m*3 6.7 C 0 km/h
2128 23-12-2008 17:41:56 6.6 C 5.44 g/m*3 6.6 C 0 km/h
2129 23-12-2008 17:53:55 6.5 C 5.47 g/m*3 6.5 C 0 km/h
2130 23-12-2008 18:05:56 6.5 C 5.47 g/m*3 6.5 C 0 km/h
2131 23-12-2008 18:17:56 6.6 C 5.51 g/m*3 6.6 C 0 km/h
2132 23-12-2008 18:29:56 6.6 C 5.59 g/m*3 6.6 C 0 km/h
2133 23-12-2008 18:41:55 6.5 C 5.55 g/m*3 6.5 C 0 km/h
2134 23-12-2008 18:53:56 6.6 C 5.59 g/m*3 6.6 C 0 km/h
2135 23-12-2008 19:05:55 6.5 C 5.55 g/m*3 6.5 C 0 km/h
2136 23-12-2008 19:17:55 6.5 C 5.55 g/m*3 6.5 C 0 km/h
2137 23-12-2008 19:29:55 6.5 C 5.62 g/m*3 6.5 C 0 km/h
2138 23-12-2008 19:41:54 6.5 C 5.62 g/m*3 6.5 C 0 km/h
2139 23-12-2008 19:53:55 6.5 C 5.62 g/m*3 6.5 C 0 km/h
2140 23-12-2008 20:05:55 6.5 C 5.7 g/m*3 6.5 C 0 km/h
2141 23-12-2008 20:17:54 6.5 C 5.7 g/m*3 6.5 C 0 km/h
2142 23-12-2008 20:29:54 6.5 C 5.7 g/m*3 6.5 C 0 km/h
2143 23-12-2008 20:41:55 6.4 C 5.74 g/m*3 6.4 C 0 km/h
2144 23-12-2008 20:53:54 6.5 C 5.77 g/m*3 6.5 C 0 km/h
2145 23-12-2008 21:05:54 6.4 C 5.74 g/m*3 6.4 C 0 km/h
2146 23-12-2008 21:17:54 6.4 C 5.74 g/m*3 6.4 C 0 km/h
2147 23-12-2008 21:29:54 6.3 C 5.77 g/m*3 6.3 C 0 km/h
2148 23-12-2008 21:41:54 6.3 C 5.77 g/m*3 6.3 C 0 km/h
2149 23-12-2008 21:53:53 6.1 C 5.7 g/m*3 6.1 C 0 km/h
2150 23-12-2008 22:05:54 6.1 C 5.7 g/m*3 6.1 C 0 km/h
Sensor: Nr:Datum:Temp:Abs-Feuchte:Windchill:Wind:
Aussen-T/F 2151 23-12-2008 22:17:54 6.2 C 5.66 g/m*3 6.2 C 0 km/h
2152 23-12-2008 22:29:54 6.2 C 5.59 g/m*3 6.2 C 0 km/h
2153 23-12-2008 22:41:53 6.2 C 5.59 g/m*3 6.2 C 0 km/h
2154 23-12-2008 22:53:53 6.2 C 5.59 g/m*3 6.2 C 0 km/h
2155 23-12-2008 23:05:53 6.1 C 5.55 g/m*3 6.1 C 0 km/h
2156 23-12-2008 23:17:53 6.2 C 5.44 g/m*3 6.2 C 0 km/h
2157 23-12-2008 23:29:53 6.2 C 5.44 g/m*3 6.2 C 0 km/h
2158 23-12-2008 23:41:52 6.2 C 5.44 g/m*3 6.2 C 0 km/h
2159 23-12-2008 23:53:53 6.1 C 5.41 g/m*3 6.1 C 0 km/h
2160 24-12-2008 00:05:53 6.1 C 5.41 g/m*3 6.1 C 0 km/h
2161 24-12-2008 00:17:53 6 C 5.37 g/m*3 6 C 0 km/h
2162 24-12-2008 00:29:53 6.1 C 5.41 g/m*3 6.1 C 0 km/h
2163 24-12-2008 00:41:52 6.1 C 5.33 g/m*3 6.1 C 0 km/h
2164 24-12-2008 00:53:53 6 C 5.37 g/m*3 6 C 0 km/h
2165 24-12-2008 01:05:52 6 C 5.37 g/m*3 6 C 0 km/h
2166 24-12-2008 01:17:52 5.8 C 5.37 g/m*3 5.8 C 0 km/h
2167 24-12-2008 01:29:53 5.5 C 5.34 g/m*3 5.5 C 0 km/h
2168 24-12-2008 01:41:51 5.3 C 5.34 g/m*3 5.3 C 0 km/h
2169 24-12-2008 01:53:52 5.2 C 5.3 g/m*3 5.2 C 0 km/h
2170 24-12-2008 02:05:51 5.3 C 5.41 g/m*3 5.3 C 0 km/h
2171 24-12-2008 02:17:51 5.2 C 5.44 g/m*3 5.2 C 0 km/h
2172 24-12-2008 02:29:51 5.3 C 5.48 g/m*3 5.3 C 0 km/h
2173 24-12-2008 02:41:52 5.1 C 5.4 g/m*3 5.1 C 0 km/h
2174 24-12-2008 02:54:52 4.9 C 5.47 g/m*3 4.9 C 0 km/h
2175 24-12-2008 03:06:52 4.7 C 5.4 g/m*3 4.7 C 0 km/h
Sensor: Nr:Datum:Temp:Abs-Feuchte:Windchill:Wind:
Aussen-T/F 2176 24-12-2008 03:18:53 4.5 C 5.39 g/m*3 4.5 C 0 km/h
2177 24-12-2008 03:30:52 4.1 C 5.18 g/m*3 4.1 C 0 km/h
2178 24-12-2008 03:42:52 3.7 C 5.17 g/m*3 3.7 C 0 km/h
2179 24-12-2008 03:54:52 3.5 C 5.1 g/m*3 3.5 C 0 km/h
2180 24-12-2008 04:06:52 3.3 C 5.1 g/m*3 3.3 C 0 km/h
2181 24-12-2008 04:18:52 3 C 4.99 g/m*3 3 C 0 km/h
2182 24-12-2008 04:30:52 2.9 C 5.08 g/m*3 2.9 C 0 km/h
2183 24-12-2008 04:42:52 2.7 C 5.01 g/m*3 2.7 C 0 km/h
2184 24-12-2008 04:54:52 2.5 C 4.94 g/m*3 2.5 C 0 km/h
2185 24-12-2008 05:06:51 2.3 C 4.93 g/m*3 2.3 C 0 km/h
2186 24-12-2008 05:18:51 2.3 C 4.93 g/m*3 2.3 C 0 km/h
2187 24-12-2008 05:30:51 2.1 C 4.92 g/m*3 2.1 C 0 km/h
2188 24-12-2008 05:42:51 2 C 4.89 g/m*3 2 C 0 km/h
2189 24-12-2008 05:54:50 2.3 C 5.05 g/m*3 2.3 C 0 km/h
2190 24-12-2008 06:06:51 2.8 C 5.34 g/m*3 2.8 C 0 km/h
2191 24-12-2008 06:18:51 2.9 C 5.37 g/m*3 2.9 C 0 km/h
2192 24-12-2008 06:30:50 2.8 C 5.28 g/m*3 2.8 C 0 km/h
2193 24-12-2008 06:42:50 2.7 C 5.24 g/m*3 2.7 C 0 km/h
2194 24-12-2008 06:54:51 2.8 C 5.22 g/m*3 2.8 C 0 km/h
2195 24-12-2008 07:06:50 2.9 C 5.26 g/m*3 2.9 C 0 km/h
2196 24-12-2008 07:18:50 3 C 5.29 g/m*3 3 C 0 km/h
2197 24-12-2008 07:30:50 3.3 C 5.4 g/m*3 3.3 C 0 km/h
2198 24-12-2008 07:42:50 3.3 C 5.4 g/m*3 3.3 C 0 km/h
2199 24-12-2008 07:54:50 3.2 C 5.36 g/m*3 3.2 C 0 km/h
2200 24-12-2008 08:06:50 3.2 C 5.36 g/m*3 3.2 C 0 km/h
Sensor: Nr:Datum:Temp:Abs-Feuchte:Windchill:Wind:
Aussen-T/F 2201 24-12-2008 08:18:49 3.3 C 5.4 g/m*3 3.3 C 0 km/h
2202 24-12-2008 08:30:50 3.5 C 5.47 g/m*3 3.5 C 0 km/h
2203 24-12-2008 08:42:50 3.6 C 5.51 g/m*3 3.6 C 0 km/h
2204 24-12-2008 08:54:49 3.5 C 5.47 g/m*3 3.5 C 0 km/h
2205 24-12-2008 09:06:49 3.5 C 5.47 g/m*3 3.5 C 0 km/h
2206 24-12-2008 09:18:49 3.4 C 5.44 g/m*3 3.4 C 0 km/h
2207 24-12-2008 09:30:49 3.4 C 5.44 g/m*3 3.4 C 0 km/h
2208 24-12-2008 09:42:49 3.5 C 5.53 g/m*3 3.5 C 0 km/h
2209 24-12-2008 09:54:48 3.6 C 5.51 g/m*3 3.6 C 0 km/h
2210 24-12-2008 10:06:49 3.6 C 5.51 g/m*3 3.6 C 0 km/h
2211 24-12-2008 10:18:49 3.7 C 5.55 g/m*3 3.7 C 0 km/h
2212 24-12-2008 10:30:48 3.9 C 5.68 g/m*3 3.9 C 0 km/h
2213 24-12-2008 10:42:48 4 C 5.66 g/m*3 4 C 0 km/h
2214 24-12-2008 10:54:49 4 C 5.66 g/m*3 4 C 0 km/h
2215 24-12-2008 11:06:48 4.1 C 5.76 g/m*3 4.1 C 0 km/h
2216 24-12-2008 11:18:48 4.1 C 5.76 g/m*3 4.1 C 0 km/h
2217 24-12-2008 11:30:47 4.2 C 5.8 g/m*3 4.2 C 0 km/h
2218 24-12-2008 11:42:47 4.3 C 5.77 g/m*3 4.3 C 0 km/h
2219 24-12-2008 11:54:48 4.3 C 5.77 g/m*3 4.3 C 0 km/h
2220 24-12-2008 12:06:47 4.4 C 5.75 g/m*3 4.4 C 0 km/h
2221 24-12-2008 12:18:47 4.5 C 5.72 g/m*3 4.5 C 0 km/h
2222 24-12-2008 12:30:48 4.8 C 5.77 g/m*3 4.8 C 0 km/h
2223 24-12-2008 12:42:48 5 C 5.71 g/m*3 5 C 0 km/h
2224 24-12-2008 12:54:47 5.3 C 5.68 g/m*3 5.3 C 0 km/h
2225 24-12-2008 13:06:47 5.6 C 5.66 g/m*3 5.6 C 0 km/h
Sensor: Nr:Datum:Temp:Abs-Feuchte:Windchill:Wind:
Aussen-T/F 2226 24-12-2008 13:18:47 5.5 C 5.55 g/m*3 5.5 C 0 km/h
2227 24-12-2008 13:30:47 5.3 C 5.48 g/m*3 5.3 C 0 km/h
2228 24-12-2008 13:42:47 5.3 C 5.48 g/m*3 5.3 C 0 km/h
2229 24-12-2008 13:54:46 5.2 C 5.44 g/m*3 5.2 C 0 km/h
2230 24-12-2008 14:06:47 5.2 C 5.44 g/m*3 5.2 C 0 km/h
2231 24-12-2008 14:18:47 5.2 C 5.44 g/m*3 5.2 C 0 km/h
2232 24-12-2008 14:30:46 5.3 C 5.48 g/m*3 5.3 C 0 km/h
2233 24-12-2008 14:42:46 5.3 C 5.48 g/m*3 5.3 C 0 km/h
2234 24-12-2008 14:54:46 5.2 C 5.44 g/m*3 5.2 C 0 km/h
2235 24-12-2008 15:06:46 5.2 C 5.44 g/m*3 5.2 C 0 km/h
2236 24-12-2008 15:18:46 5.1 C 5.47 g/m*3 5.1 C 0 km/h
2237 24-12-2008 15:30:45 4.9 C 5.6 g/m*3 4.9 C 0 km/h
2238 24-12-2008 15:42:45 4.9 C 5.74 g/m*3 4.9 C 0 km/h
2239 24-12-2008 15:54:46 5.1 C 5.88 g/m*3 5.1 C 0 km/h
2240 24-12-2008 16:06:45 5.3 C 6.1 g/m*3 5.3 C 0 km/h
2241 24-12-2008 16:18:45 5.3 C 6.17 g/m*3 5.3 C 0 km/h
2242 24-12-2008 16:30:45 5.4 C 6.21 g/m*3 5.4 C 0 km/h
2243 24-12-2008 16:42:45 5.4 C 6.21 g/m*3 5.4 C 0 km/h
2244 24-12-2008 16:54:45 5.3 C 6.17 g/m*3 5.3 C 0 km/h
2245 24-12-2008 17:06:45 5.2 C 6.13 g/m*3 5.2 C 0 km/h
2246 24-12-2008 17:18:44 5.2 C 6.13 g/m*3 5.2 C 0 km/h
2247 24-12-2008 17:30:45 5.1 C 6.02 g/m*3 5.1 C 0 km/h
2248 24-12-2008 17:42:45 5.2 C 5.99 g/m*3 5.2 C 0 km/h
2249 24-12-2008 17:54:44 5.2 C 5.85 g/m*3 5.2 C 0 km/h
2250 24-12-2008 18:06:44 5.3 C 5.82 g/m*3 5.3 C 0 km/h
Sensor: Nr:Datum:Temp:Abs-Feuchte:Windchill:Wind:
Aussen-T/F 2251 24-12-2008 18:18:45 5.3 C 5.82 g/m*3 5.3 C 0 km/h
2252 24-12-2008 18:30:44 5.3 C 5.82 g/m*3 5.3 C 0 km/h
2253 24-12-2008 18:42:44 5.3 C 5.82 g/m*3 5.3 C 0 km/h
2254 24-12-2008 18:54:44 5.3 C 5.82 g/m*3 5.3 C 0 km/h
2255 24-12-2008 19:06:44 5.2 C 5.85 g/m*3 5.2 C 0 km/h
2256 24-12-2008 19:18:44 5.2 C 5.92 g/m*3 5.2 C 0 km/h
2257 24-12-2008 19:30:43 5.2 C 5.92 g/m*3 5.2 C 0 km/h
2258 24-12-2008 19:42:43 5.2 C 5.92 g/m*3 5.2 C 0 km/h
2259 24-12-2008 19:54:44 5.2 C 5.92 g/m*3 5.2 C 0 km/h
2260 24-12-2008 20:06:43 5.3 C 5.96 g/m*3 5.3 C 0 km/h
2261 24-12-2008 20:18:43 5.2 C 5.92 g/m*3 5.2 C 0 km/h
2262 24-12-2008 20:30:43 5.2 C 5.99 g/m*3 5.2 C 0 km/h
2263 24-12-2008 20:42:43 5.2 C 6.06 g/m*3 5.2 C 0 km/h
2264 24-12-2008 20:54:43 5.2 C 6.06 g/m*3 5.2 C 0 km/h
2265 24-12-2008 21:06:43 5.2 C 6.13 g/m*3 5.2 C 0 km/h
2266 24-12-2008 21:18:42 5.2 C 6.13 g/m*3 5.2 C 0 km/h
2267 24-12-2008 21:30:42 5.2 C 6.13 g/m*3 5.2 C 0 km/h
2268 24-12-2008 21:42:42 5.2 C 6.13 g/m*3 5.2 C 0 km/h
2269 24-12-2008 21:54:43 5.3 C 6.17 g/m*3 5.3 C 0 km/h
2270 24-12-2008 22:06:42 5.3 C 6.17 g/m*3 5.3 C 0 km/h
2271 24-12-2008 22:18:42 5.3 C 6.17 g/m*3 5.3 C 0 km/h
2272 24-12-2008 22:30:42 5.3 C 6.17 g/m*3 5.3 C 0 km/h
2273 24-12-2008 22:42:42 5.3 C 6.17 g/m*3 5.3 C 0 km/h
2274 24-12-2008 22:54:42 5.3 C 6.17 g/m*3 5.3 C 0 km/h
2275 24-12-2008 23:06:41 5.3 C 6.1 g/m*3 5.3 C 0 km/h
Sensor: Nr:Datum:Temp:Abs-Feuchte:Windchill:Wind:
Aussen-T/F 2276 24-12-2008 23:18:42 5.3 C 6.1 g/m*3 5.3 C 0 km/h
2277 24-12-2008 23:30:42 5.3 C 6.1 g/m*3 5.3 C 0 km/h
2278 24-12-2008 23:42:42 5.4 C 6.07 g/m*3 5.4 C 0 km/h
2279 24-12-2008 23:54:41 5.4 C 6 g/m*3 5.4 C 0 km/h
2280 25-12-2008 00:06:42 5.4 C 5.86 g/m*3 5.4 C 0 km/h
2281 25-12-2008 00:18:41 5.3 C 5.82 g/m*3 5.3 C 0 km/h
2282 25-12-2008 00:30:41 5.2 C 5.78 g/m*3 5.2 C 0 km/h
2283 25-12-2008 00:42:41 5.2 C 5.78 g/m*3 5.2 C 0 km/h
2284 25-12-2008 00:54:41 5.2 C 5.78 g/m*3 5.2 C 0 km/h
2285 25-12-2008 01:06:40 5.1 C 5.75 g/m*3 5.1 C 0 km/h
2286 25-12-2008 01:18:41 5 C 5.71 g/m*3 5 C 0 km/h
2287 25-12-2008 01:30:40 5 C 5.64 g/m*3 5 C 0 km/h
2288 25-12-2008 01:42:40 5.1 C 5.47 g/m*3 5.1 C 0 km/h
2289 25-12-2008 01:54:40 5.2 C 5.37 g/m*3 5.2 C 0 km/h
2290 25-12-2008 02:06:40 5.3 C 5.41 g/m*3 5.3 C 0 km/h
2291 25-12-2008 02:18:40 4.7 C 5.26 g/m*3 4.7 C 0 km/h
2292 25-12-2008 02:30:40 4.8 C 5.43 g/m*3 4.8 C 0 km/h
2293 25-12-2008 02:42:40 4.9 C 5.54 g/m*3 4.9 C 0 km/h
2294 25-12-2008 02:55:41 5 C 5.5 g/m*3 5 C 0 km/h
2295 25-12-2008 03:07:41 5 C 5.57 g/m*3 5 C 0 km/h
2296 25-12-2008 03:19:41 4.8 C 5.5 g/m*3 4.8 C 0 km/h
2297 25-12-2008 03:31:41 4.5 C 5.46 g/m*3 4.5 C 0 km/h
2298 25-12-2008 03:43:41 4.3 C 5.38 g/m*3 4.3 C 0 km/h
2299 25-12-2008 03:55:41 4.2 C 5.41 g/m*3 4.2 C 0 km/h
2300 25-12-2008 04:07:40 4.4 C 5.55 g/m*3 4.4 C 0 km/h
Sensor: Nr:Datum:Temp:Abs-Feuchte:Windchill:Wind:
Aussen-T/F 2301 25-12-2008 04:19:40 4.5 C 5.59 g/m*3 4.5 C 0 km/h
2302 25-12-2008 04:31:41 4.6 C 5.62 g/m*3 4.6 C 0 km/h
2303 25-12-2008 04:43:41 4.6 C 5.62 g/m*3 4.6 C 0 km/h
2304 25-12-2008 04:55:40 4.6 C 5.56 g/m*3 4.6 C 0 km/h
2305 25-12-2008 05:07:40 4.6 C 5.56 g/m*3 4.6 C 0 km/h
2306 25-12-2008 05:19:40 4.6 C 5.56 g/m*3 4.6 C 0 km/h
2307 25-12-2008 05:31:40 4.6 C 5.56 g/m*3 4.6 C 0 km/h
2308 25-12-2008 05:43:40 4.7 C 5.6 g/m*3 4.7 C 0 km/h
2309 25-12-2008 05:55:40 4.7 C 5.53 g/m*3 4.7 C 0 km/h
2310 25-12-2008 06:07:40 4.7 C 5.53 g/m*3 4.7 C 0 km/h
2311 25-12-2008 06:19:39 4.7 C 5.53 g/m*3 4.7 C 0 km/h
2312 25-12-2008 06:31:39 4.7 C 5.53 g/m*3 4.7 C 0 km/h
2313 25-12-2008 06:43:39 4.7 C 5.46 g/m*3 4.7 C 0 km/h
2314 25-12-2008 06:55:39 4.7 C 5.46 g/m*3 4.7 C 0 km/h
2315 25-12-2008 07:07:39 4.8 C 5.5 g/m*3 4.8 C 0 km/h
2316 25-12-2008 07:19:38 4.8 C 5.43 g/m*3 4.8 C 0 km/h
2317 25-12-2008 07:31:39 4.8 C 5.43 g/m*3 4.8 C 0 km/h
2318 25-12-2008 07:43:39 4.8 C 5.43 g/m*3 4.8 C 0 km/h
2319 25-12-2008 07:55:38 4.8 C 5.43 g/m*3 4.8 C 0 km/h
2320 25-12-2008 08:07:38 4.7 C 5.4 g/m*3 4.7 C 0 km/h
2321 25-12-2008 08:19:39 4.7 C 5.4 g/m*3 4.7 C 0 km/h
2322 25-12-2008 08:31:38 4.7 C 5.4 g/m*3 4.7 C 0 km/h
2323 25-12-2008 08:43:38 4.8 C 5.43 g/m*3 4.8 C 0 km/h
2324 25-12-2008 08:55:38 4.8 C 5.43 g/m*3 4.8 C 0 km/h
2325 25-12-2008 09:07:38 4.8 C 5.43 g/m*3 4.8 C 0 km/h
Sensor: Nr:Datum:Temp:Abs-Feuchte:Windchill:Wind:
Aussen-T/F 2326 25-12-2008 09:24:38 5 C 5.44 g/m*3 5 C 0 km/h
2327 25-12-2008 09:36:37 5.1 C 5.47 g/m*3 5.1 C 0 km/h
2328 25-12-2008 09:48:38 5.3 C 5.48 g/m*3 5.3 C 0 km/h
2329 25-12-2008 10:00:37 5.4 C 5.58 g/m*3 5.4 C 0 km/h
2330 25-12-2008 10:12:37 5.7 C 5.62 g/m*3 5.7 C 0 km/h
2331 25-12-2008 10:24:37 5.8 C 5.59 g/m*3 5.8 C 0 km/h
2332 25-12-2008 10:36:37 6 C 5.52 g/m*3 6 C 0 km/h
2333 25-12-2008 10:48:37 6.2 C 5.44 g/m*3 6.2 C 0 km/h
2334 25-12-2008 11:00:36 6.3 C 5.4 g/m*3 6.3 C 0 km/h
2335 25-12-2008 11:12:36 6.3 C 5.33 g/m*3 6.3 C 0 km/h
2336 25-12-2008 11:25:37 6.3 C 5.26 g/m*3 6.3 C 0 km/h
2337 25-12-2008 11:37:36 6.4 C 5.07 g/m*3 6.4 C 0 km/h
2338 25-12-2008 11:49:37 6.9 C 4.93 g/m*3 6.9 C 0 km/h
2339 25-12-2008 12:01:36 7 C 4.8 g/m*3 7 C 0 km/h
2340 25-12-2008 12:13:36 7 C 4.8 g/m*3 7 C 0 km/h
2341 25-12-2008 12:25:36 6.9 C 4.85 g/m*3 6.9 C 0 km/h
2342 25-12-2008 12:37:36 7.1 C 4.76 g/m*3 7.1 C 0 km/h
2343 25-12-2008 12:49:36 7.1 C 4.6 g/m*3 7.1 C 0 km/h
2344 25-12-2008 13:01:35 7 C 4.65 g/m*3 7 C 0 km/h
2345 25-12-2008 13:13:35 7 C 4.65 g/m*3 7 C 0 km/h
2346 25-12-2008 13:25:36 6.9 C 4.7 g/m*3 6.9 C 0 km/h
2347 25-12-2008 13:37:35 7 C 4.57 g/m*3 7 C 0 km/h
2348 25-12-2008 13:49:35 7 C 4.49 g/m*3 7 C 0 km/h
2349 25-12-2008 14:01:35 7.1 C 4.37 g/m*3 7.1 C 0 km/h
2350 25-12-2008 14:13:35 7.1 C 4.52 g/m*3 7.1 C 0 km/h
Sensor: Nr:Datum:Temp:Abs-Feuchte:Windchill:Wind:
Aussen-T/F 2351 25-12-2008 14:25:35 7.1 C 4.37 g/m*3 7.1 C 0 km/h
2352 25-12-2008 14:37:35 7 C 4.26 g/m*3 7 C 0 km/h
2353 25-12-2008 14:49:35 7.1 C 4.21 g/m*3 7.1 C 0 km/h
2354 25-12-2008 15:01:35 7.2 C 4.24 g/m*3 7.2 C 0 km/h
2355 25-12-2008 15:13:35 7.1 C 4.29 g/m*3 7.1 C 0 km/h
2356 25-12-2008 15:25:35 7 C 4.26 g/m*3 7 C 0 km/h
2357 25-12-2008 15:37:34 6.9 C 4.39 g/m*3 6.9 C 0 km/h
2358 25-12-2008 15:49:34 6.6 C 4.45 g/m*3 6.6 C 0 km/h
2359 25-12-2008 16:01:34 6.1 C 4.24 g/m*3 6.1 C 0 km/h
2360 25-12-2008 16:13:34 5.9 C 4.33 g/m*3 5.9 C 0 km/h
2361 25-12-2008 16:25:34 5.6 C 4.31 g/m*3 5.6 C 0 km/h
2362 25-12-2008 16:37:34 5.1 C 4.24 g/m*3 5.1 C 0 km/h
2363 25-12-2008 16:49:33 4.8 C 4.29 g/m*3 4.8 C 0 km/h
2364 25-12-2008 17:01:34 4.7 C 4.26 g/m*3 4.7 C 0 km/h
2365 25-12-2008 17:13:34 4.5 C 4.14 g/m*3 4.5 C 0 km/h
2366 25-12-2008 17:25:33 4.2 C 4.12 g/m*3 4.2 C 0 km/h
2367 25-12-2008 17:37:34 4 C 4.07 g/m*3 4 C 0 km/h
2368 25-12-2008 17:49:34 3.7 C 3.99 g/m*3 3.7 C 0 km/h
2369 25-12-2008 18:01:33 3.5 C 3.87 g/m*3 3.5 C 0 km/h
2370 25-12-2008 18:13:34 3.3 C 3.76 g/m*3 3.3 C 0 km/h
2371 25-12-2008 18:25:33 3.1 C 3.47 g/m*3 3.1 C 0 km/h
2372 25-12-2008 18:37:33 3 C 3.33 g/m*3 3 C 0 km/h
2373 25-12-2008 18:49:33 2.7 C 3.38 g/m*3 2.7 C 0 km/h
2374 25-12-2008 19:01:32 2.4 C 3.31 g/m*3 2.4 C 0 km/h
2375 25-12-2008 19:13:32 2.2 C 3.27 g/m*3 2.2 C 0 km/h
Sensor: Nr:Datum:Temp:Abs-Feuchte:Windchill:Wind:
Aussen-T/F 2376 25-12-2008 19:25:33 1.8 C 3.18 g/m*3 1.8 C 0 km/h
2377 25-12-2008 19:37:32 1.5 C 3.12 g/m*3 1.5 C 0 km/h
2378 25-12-2008 19:49:32 1.3 C 3.07 g/m*3 1.3 C 0 km/h
2379 25-12-2008 20:01:32 1.1 C 3.08 g/m*3 1.1 C 0 km/h
2380 25-12-2008 20:13:32 1 C 3.11 g/m*3 1 C 0 km/h
2381 25-12-2008 20:25:31 1 C 3.06 g/m*3 1 C 0 km/h
2382 25-12-2008 20:37:32 1 C 3.06 g/m*3 1 C 0 km/h
2383 25-12-2008 20:49:32 1.1 C 3.08 g/m*3 1.1 C 0 km/h
2384 25-12-2008 21:01:32 1 C 3.01 g/m*3 1 C 0 km/h
2385 25-12-2008 21:13:32 1 C 3.01 g/m*3 1 C 0 km/h
2386 25-12-2008 21:25:31 0.9 C 2.99 g/m*3 0.9 C 0 km/h
2387 25-12-2008 21:37:31 0.8 C 2.97 g/m*3 0.8 C 0 km/h
2388 25-12-2008 21:49:31 0.7 C 2.9 g/m*3 0.7 C 0 km/h
2389 25-12-2008 22:01:31 0.6 C 2.88 g/m*3 0.6 C 0 km/h
2390 25-12-2008 22:13:31 0.6 C 2.88 g/m*3 0.6 C 0 km/h
2391 25-12-2008 22:25:31 0.5 C 2.86 g/m*3 0.5 C 0 km/h
2392 25-12-2008 22:37:31 0.6 C 2.93 g/m*3 0.6 C 0 km/h
2393 25-12-2008 22:49:30 0.7 C 2.9 g/m*3 0.7 C 0 km/h
2394 25-12-2008 23:01:30 0.5 C 2.86 g/m*3 0.5 C 0 km/h
2395 25-12-2008 23:13:30 0.3 C 2.82 g/m*3 0.3 C 0 km/h
2396 25-12-2008 23:25:30 0 C 2.81 g/m*3 0 C 0 km/h
2397 25-12-2008 23:37:30 -0.4 C 2.83 g/m*3 -0.4 C 0 km/h
2398 25-12-2008 23:49:29 -0.5 C 2.81 g/m*3 -0.5 C 0 km/h
2399 26-12-2008 00:01:30 -0.6 C 2.79 g/m*3 -0.6 C 0 km/h
2400 26-12-2008 00:13:30 -0.6 C 2.79 g/m*3 -0.6 C 0 km/h
Sensor: Nr:Datum:Temp:Abs-Feuchte:Windchill:Wind:
Aussen-T/F 2401 26-12-2008 00:25:30 -0.7 C 2.82 g/m*3 -0.7 C 0 km/h
2402 26-12-2008 00:37:29 -0.7 C 2.82 g/m*3 -0.7 C 0 km/h
2403 26-12-2008 00:49:30 -0.5 C 2.86 g/m*3 -0.5 C 0 km/h
2404 26-12-2008 01:01:29 -0.2 C 2.91 g/m*3 -0.2 C 0 km/h
2405 26-12-2008 01:13:29 0.2 C 2.95 g/m*3 0.2 C 0 km/h
2406 26-12-2008 01:25:29 0.4 C 2.94 g/m*3 0.4 C 0 km/h
2407 26-12-2008 01:37:29 0.5 C 2.91 g/m*3 0.5 C 0 km/h
2408 26-12-2008 01:49:29 0.5 C 2.86 g/m*3 0.5 C 0 km/h
2409 26-12-2008 02:01:28 0.5 C 2.81 g/m*3 0.5 C 0 km/h
2410 26-12-2008 02:13:28 0.4 C 2.84 g/m*3 0.4 C 0 km/h
2411 26-12-2008 02:25:29 0.2 C 2.8 g/m*3 0.2 C 0 km/h
2412 26-12-2008 02:37:29 0.2 C 2.75 g/m*3 0.2 C 0 km/h
2413 26-12-2008 02:50:01 0.2 C 2.7 g/m*3 0.2 C 0 km/h
2414 26-12-2008 03:02:01 0.1 C 2.68 g/m*3 0.1 C 0 km/h
2415 26-12-2008 03:14:01 -0.2 C 2.58 g/m*3 -0.2 C 0 km/h
2416 26-12-2008 03:26:01 -0.5 C 2.48 g/m*3 -0.5 C 0 km/h
2417 26-12-2008 03:38:02 -0.6 C 2.46 g/m*3 -0.6 C 0 km/h
2418 26-12-2008 03:50:02 -0.8 C 2.48 g/m*3 -0.8 C 0 km/h
2419 26-12-2008 04:02:01 -0.8 C 2.52 g/m*3 -0.8 C 0 km/h
2420 26-12-2008 04:14:01 -0.9 C 2.5 g/m*3 -0.9 C 0 km/h
2421 26-12-2008 04:26:01 -1 C 2.49 g/m*3 -1 C 0 km/h
2422 26-12-2008 04:38:02 -1 C 2.49 g/m*3 -1 C 0 km/h
2423 26-12-2008 04:50:01 -1.1 C 2.47 g/m*3 -1.1 C 0 km/h
2424 26-12-2008 05:02:01 -1.1 C 2.47 g/m*3 -1.1 C 0 km/h
2425 26-12-2008 05:14:01 -1.2 C 2.5 g/m*3 -1.2 C 0 km/h
Sensor: Nr:Datum:Temp:Abs-Feuchte:Windchill:Wind:
Aussen-T/F 2426 26-12-2008 05:26:01 -1.3 C 2.48 g/m*3 -1.3 C 0 km/h
2427 26-12-2008 05:38:01 -1.3 C 2.48 g/m*3 -1.3 C 0 km/h
2428 26-12-2008 05:50:01 -1.4 C 2.51 g/m*3 -1.4 C 0 km/h
2429 26-12-2008 06:02:01 -1.4 C 2.51 g/m*3 -1.4 C 0 km/h
2430 26-12-2008 06:14:01 -1.6 C 2.47 g/m*3 -1.6 C 0 km/h
2431 26-12-2008 06:26:01 -1.6 C 2.47 g/m*3 -1.6 C 0 km/h
2432 26-12-2008 06:38:01 -1.6 C 2.47 g/m*3 -1.6 C 0 km/h
2433 26-12-2008 06:50:01 -1.7 C 2.45 g/m*3 -1.7 C 0 km/h
2434 26-12-2008 07:02:01 -1.7 C 2.45 g/m*3 -1.7 C 0 km/h
2435 26-12-2008 07:14:01 -1.7 C 2.5 g/m*3 -1.7 C 0 km/h
2436 26-12-2008 07:26:02 -1.8 C 2.48 g/m*3 -1.8 C 0 km/h
2437 26-12-2008 07:38:01 -1.7 C 2.5 g/m*3 -1.7 C 0 km/h
2438 26-12-2008 07:50:02 -1.8 C 2.44 g/m*3 -1.8 C 0 km/h
2439 26-12-2008 08:02:01 -1.9 C 2.46 g/m*3 -1.9 C 0 km/h
2440 26-12-2008 08:14:01 -1.9 C 2.46 g/m*3 -1.9 C 0 km/h
2441 26-12-2008 08:26:01 -2 C 2.49 g/m*3 -2 C 0 km/h
2442 26-12-2008 08:38:01 -2 C 2.49 g/m*3 -2 C 0 km/h
2443 26-12-2008 08:50:01 -2 C 2.53 g/m*3 -2 C 0 km/h
2444 26-12-2008 09:02:02 -2 C 2.53 g/m*3 -2 C 0 km/h
2445 26-12-2008 09:14:02 -1.9 C 2.55 g/m*3 -1.9 C 0 km/h
2446 26-12-2008 09:26:01 -1.9 C 2.55 g/m*3 -1.9 C 0 km/h
2447 26-12-2008 09:38:02 -1.8 C 2.56 g/m*3 -1.8 C 0 km/h
2448 26-12-2008 09:50:01 -1.7 C 2.58 g/m*3 -1.7 C 0 km/h
2449 26-12-2008 10:02:02 -1.6 C 2.6 g/m*3 -1.6 C 0 km/h
2450 26-12-2008 10:14:02 -1.5 C 2.58 g/m*3 -1.5 C 0 km/h
Sensor: Nr:Datum:Temp:Abs-Feuchte:Windchill:Wind:
Aussen-T/F 2451 26-12-2008 10:26:01 -1.5 C 2.58 g/m*3 -1.5 C 0 km/h
2452 26-12-2008 10:38:02 -1.4 C 2.55 g/m*3 -1.4 C 0 km/h
2453 26-12-2008 10:50:01 -1.3 C 2.57 g/m*3 -1.3 C 0 km/h
2454 26-12-2008 11:02:02 -1.2 C 2.54 g/m*3 -1.2 C 0 km/h
2455 26-12-2008 11:14:02 -1 C 2.58 g/m*3 -1 C 0 km/h
2456 26-12-2008 11:26:01 -0.8 C 2.52 g/m*3 -0.8 C 0 km/h
2457 26-12-2008 11:38:01 -0.9 C 2.5 g/m*3 -0.9 C 0 km/h
2458 26-12-2008 11:50:01 -0.8 C 2.52 g/m*3 -0.8 C 0 km/h
2459 26-12-2008 12:02:01 -0.6 C 2.51 g/m*3 -0.6 C 0 km/h
2460 26-12-2008 12:14:01 -0.6 C 2.51 g/m*3 -0.6 C 0 km/h
2461 26-12-2008 12:26:01 -0.5 C 2.53 g/m*3 -0.5 C 0 km/h
2462 26-12-2008 12:38:01 -0.3 C 2.56 g/m*3 -0.3 C 0 km/h
2463 26-12-2008 12:50:01 -0.2 C 2.48 g/m*3 -0.2 C 0 km/h
2464 26-12-2008 13:02:01 0 C 2.52 g/m*3 0 C 0 km/h
2465 26-12-2008 13:14:01 0.1 C 2.54 g/m*3 0.1 C 0 km/h
2466 26-12-2008 13:26:02 0.2 C 2.55 g/m*3 0.2 C 0 km/h
2467 26-12-2008 13:38:01 0.4 C 2.54 g/m*3 0.4 C 0 km/h
2468 26-12-2008 13:50:02 0.3 C 2.57 g/m*3 0.3 C 0 km/h
2469 26-12-2008 14:02:01 0.4 C 2.54 g/m*3 0.4 C 0 km/h
2470 26-12-2008 14:14:01 0.4 C 2.54 g/m*3 0.4 C 0 km/h
2471 26-12-2008 14:26:02 0.5 C 2.56 g/m*3 0.5 C 0 km/h
2472 26-12-2008 14:38:01 0.5 C 2.56 g/m*3 0.5 C 0 km/h
2473 26-12-2008 14:50:01 0.5 C 2.56 g/m*3 0.5 C 0 km/h
2474 26-12-2008 15:02:01 0.6 C 2.52 g/m*3 0.6 C 0 km/h
2475 26-12-2008 15:14:01 0.6 C 2.52 g/m*3 0.6 C 0 km/h
Sensor: Nr:Datum:Temp:Abs-Feuchte:Windchill:Wind:
Aussen-T/F 2476 26-12-2008 15:26:01 0.5 C 2.56 g/m*3 0.5 C 0 km/h
2477 26-12-2008 15:38:02 0.6 C 2.58 g/m*3 0.6 C 0 km/h
2478 26-12-2008 15:50:01 0.3 C 2.57 g/m*3 0.3 C 0 km/h
2479 26-12-2008 16:02:02 0.2 C 2.6 g/m*3 0.2 C 0 km/h
2480 26-12-2008 16:14:02 -0.3 C 2.66 g/m*3 -0.3 C 0 km/h
2481 26-12-2008 16:26:01 -0.5 C 2.67 g/m*3 -0.5 C 0 km/h
2482 26-12-2008 16:38:01 -0.5 C 2.67 g/m*3 -0.5 C 0 km/h
2483 26-12-2008 16:50:01 -0.5 C 2.62 g/m*3 -0.5 C 0 km/h
2484 26-12-2008 17:02:01 -0.7 C 2.58 g/m*3 -0.7 C 0 km/h
2485 26-12-2008 17:14:01 -1 C 2.62 g/m*3 -1 C 0 km/h
2486 26-12-2008 17:26:01 -1.3 C 2.61 g/m*3 -1.3 C 0 km/h
2487 26-12-2008 17:38:01 -1.3 C 2.66 g/m*3 -1.3 C 0 km/h
2488 26-12-2008 17:50:01 -1.3 C 2.61 g/m*3 -1.3 C 0 km/h
2489 26-12-2008 18:02:01 -1.4 C 2.59 g/m*3 -1.4 C 0 km/h
2490 26-12-2008 18:14:01 -1.6 C 2.64 g/m*3 -1.6 C 0 km/h
2491 26-12-2008 18:26:02 -1.9 C 2.63 g/m*3 -1.9 C 0 km/h
2492 26-12-2008 18:38:01 -2 C 2.66 g/m*3 -2 C 0 km/h
2493 26-12-2008 18:50:02 -2.1 C 2.64 g/m*3 -2.1 C 0 km/h
2494 26-12-2008 19:02:01 -2.1 C 2.68 g/m*3 -2.1 C 0 km/h
2495 26-12-2008 19:14:01 -2 C 2.7 g/m*3 -2 C 0 km/h
2496 26-12-2008 19:26:01 -1.9 C 2.63 g/m*3 -1.9 C 0 km/h
2497 26-12-2008 19:38:01 -2.3 C 2.64 g/m*3 -2.3 C 0 km/h
2498 26-12-2008 19:50:01 -2.4 C 2.66 g/m*3 -2.4 C 0 km/h
2499 26-12-2008 20:02:02 -2.5 C 2.69 g/m*3 -2.5 C 0 km/h
2500 26-12-2008 20:14:02 -2.4 C 2.66 g/m*3 -2.4 C 0 km/h
Sensor: Nr:Datum:Temp:Abs-Feuchte:Windchill:Wind:
Aussen-T/F 2501 26-12-2008 20:26:01 -2.3 C 2.64 g/m*3 -2.3 C 0 km/h
2502 26-12-2008 20:38:02 -2.5 C 2.6 g/m*3 -2.5 C 0 km/h
2503 26-12-2008 20:50:01 -2.5 C 2.6 g/m*3 -2.5 C 0 km/h
2504 26-12-2008 21:02:02 -2.6 C 2.59 g/m*3 -2.6 C 0 km/h
2505 26-12-2008 21:14:02 -2.6 C 2.59 g/m*3 -2.6 C 0 km/h
2506 26-12-2008 21:26:01 -2.7 C 2.57 g/m*3 -2.7 C 0 km/h
2507 26-12-2008 21:38:02 -2.8 C 2.59 g/m*3 -2.8 C 0 km/h
2508 26-12-2008 21:50:01 -3 C 2.55 g/m*3 -3 C 0 km/h
2509 26-12-2008 22:02:02 -3 C 2.59 g/m*3 -3 C 0 km/h
2510 26-12-2008 22:14:02 -3.1 C 2.57 g/m*3 -3.1 C 0 km/h
2511 26-12-2008 22:26:01 -3.1 C 2.61 g/m*3 -3.1 C 0 km/h
2512 26-12-2008 22:38:01 -3.1 C 2.57 g/m*3 -3.1 C 0 km/h
2513 26-12-2008 22:50:01 -3.1 C 2.57 g/m*3 -3.1 C 0 km/h
2514 26-12-2008 23:02:01 -3.2 C 2.59 g/m*3 -3.2 C 0 km/h
2515 26-12-2008 23:14:01 -3.3 C 2.58 g/m*3 -3.3 C 0 km/h
2516 26-12-2008 23:26:02 -3.6 C 2.56 g/m*3 -3.6 C 0 km/h
2517 26-12-2008 23:38:01 -3.5 C 2.65 g/m*3 -3.5 C 0 km/h
2518 26-12-2008 23:50:02 -3.4 C 2.67 g/m*3 -3.4 C 0 km/h
2519 27-12-2008 00:02:01 -3.4 C 2.63 g/m*3 -3.4 C 0 km/h
2520 27-12-2008 00:14:01 -3.3 C 2.65 g/m*3 -3.3 C 0 km/h
2521 27-12-2008 00:26:02 -3.2 C 2.71 g/m*3 -3.2 C 0 km/h
2522 27-12-2008 00:38:01 -3.1 C 2.69 g/m*3 -3.1 C 0 km/h
2523 27-12-2008 00:50:02 -3.1 C 2.69 g/m*3 -3.1 C 0 km/h
2524 27-12-2008 01:02:01 -3.1 C 2.69 g/m*3 -3.1 C 0 km/h
2525 27-12-2008 01:14:01 -3 C 2.67 g/m*3 -3 C 0 km/h
Sensor: Nr:Datum:Temp:Abs-Feuchte:Windchill:Wind:
Aussen-T/F 2526 27-12-2008 01:26:02 -3.1 C 2.65 g/m*3 -3.1 C 0 km/h
2527 27-12-2008 01:38:01 -3 C 2.71 g/m*3 -3 C 0 km/h
2528 27-12-2008 01:50:02 -2.9 C 2.73 g/m*3 -2.9 C 0 km/h
2529 27-12-2008 02:02:01 -2.8 C 2.71 g/m*3 -2.8 C 0 km/h
2530 27-12-2008 02:14:01 -2.8 C 2.67 g/m*3 -2.8 C 0 km/h
2531 27-12-2008 02:26:01 -2.8 C 2.67 g/m*3 -2.8 C 0 km/h
2532 27-12-2008 02:38:02 -2.9 C 2.65 g/m*3 -2.9 C 0 km/h
2533 27-12-2008 02:50:19 -2.7 C 2.69 g/m*3 -2.7 C 0 km/h
2534 27-12-2008 03:02:19 -2.7 C 2.69 g/m*3 -2.7 C 0 km/h
2535 27-12-2008 03:14:18 -2.7 C 2.69 g/m*3 -2.7 C 0 km/h
2536 27-12-2008 03:26:18 -2.7 C 2.65 g/m*3 -2.7 C 0 km/h
2537 27-12-2008 03:38:18 -2.7 C 2.65 g/m*3 -2.7 C 0 km/h
2538 27-12-2008 03:50:19 -2.8 C 2.67 g/m*3 -2.8 C 0 km/h
2539 27-12-2008 04:02:18 -2.7 C 2.65 g/m*3 -2.7 C 0 km/h
2540 27-12-2008 04:14:18 -2.5 C 2.69 g/m*3 -2.5 C 0 km/h
2541 27-12-2008 04:26:18 -2.5 C 2.65 g/m*3 -2.5 C 0 km/h
2542 27-12-2008 04:38:18 -2.5 C 2.65 g/m*3 -2.5 C 0 km/h
2543 27-12-2008 04:50:18 -2.5 C 2.65 g/m*3 -2.5 C 0 km/h
2544 27-12-2008 05:02:18 -2.5 C 2.65 g/m*3 -2.5 C 0 km/h
2545 27-12-2008 05:14:17 -2.4 C 2.62 g/m*3 -2.4 C 0 km/h
2546 27-12-2008 05:26:17 -2.3 C 2.64 g/m*3 -2.3 C 0 km/h
2547 27-12-2008 05:38:18 -2.3 C 2.6 g/m*3 -2.3 C 0 km/h
2548 27-12-2008 05:50:17 -2.3 C 2.56 g/m*3 -2.3 C 0 km/h
2549 27-12-2008 06:02:18 -2.3 C 2.6 g/m*3 -2.3 C 0 km/h
2550 27-12-2008 06:14:17 -2.3 C 2.6 g/m*3 -2.3 C 0 km/h
Sensor: Nr:Datum:Temp:Abs-Feuchte:Windchill:Wind:
Aussen-T/F 2551 27-12-2008 06:26:17 -2.3 C 2.6 g/m*3 -2.3 C 0 km/h
2552 27-12-2008 06:38:17 -2.3 C 2.56 g/m*3 -2.3 C 0 km/h
2553 27-12-2008 06:50:16 -2.3 C 2.56 g/m*3 -2.3 C 0 km/h
2554 27-12-2008 07:02:17 -2.4 C 2.54 g/m*3 -2.4 C 0 km/h
2555 27-12-2008 07:14:16 -2.3 C 2.52 g/m*3 -2.3 C 0 km/h
2556 27-12-2008 07:26:16 -2.3 C 2.52 g/m*3 -2.3 C 0 km/h
2557 27-12-2008 07:38:16 -2.1 C 2.6 g/m*3 -2.1 C 0 km/h
2558 27-12-2008 07:50:16 -2.3 C 2.56 g/m*3 -2.3 C 0 km/h
2559 27-12-2008 08:02:16 -2.4 C 2.54 g/m*3 -2.4 C 0 km/h
2560 27-12-2008 08:14:16 -2.4 C 2.54 g/m*3 -2.4 C 0 km/h
2561 27-12-2008 08:26:16 -2.4 C 2.54 g/m*3 -2.4 C 0 km/h
2562 27-12-2008 08:38:16 -2.3 C 2.56 g/m*3 -2.3 C 0 km/h
2563 27-12-2008 08:50:16 -2.1 C 2.55 g/m*3 -2.1 C 0 km/h
2564 27-12-2008 09:02:15 -2.1 C 2.55 g/m*3 -2.1 C 0 km/h
2565 27-12-2008 09:14:15 -2 C 2.53 g/m*3 -2 C 0 km/h
2566 27-12-2008 09:26:16 -2 C 2.49 g/m*3 -2 C 0 km/h
2567 27-12-2008 09:38:15 -1.9 C 2.46 g/m*3 -1.9 C 0 km/h
2568 27-12-2008 09:50:16 -1.7 C 2.5 g/m*3 -1.7 C 0 km/h
2569 27-12-2008 10:02:16 -1.7 C 2.45 g/m*3 -1.7 C 0 km/h
2570 27-12-2008 10:14:14 -1.6 C 2.47 g/m*3 -1.6 C 0 km/h
2571 27-12-2008 10:26:14 -1.4 C 2.46 g/m*3 -1.4 C 0 km/h
2572 27-12-2008 10:38:15 -1.3 C 2.43 g/m*3 -1.3 C 0 km/h
2573 27-12-2008 10:50:14 -1.2 C 2.45 g/m*3 -1.2 C 0 km/h
2574 27-12-2008 11:02:15 -1 C 2.49 g/m*3 -1 C 0 km/h
2575 27-12-2008 11:14:14 -1 C 2.49 g/m*3 -1 C 0 km/h
Sensor: Nr:Datum:Temp:Abs-Feuchte:Windchill:Wind:
Aussen-T/F 2576 27-12-2008 11:26:14 -0.8 C 2.48 g/m*3 -0.8 C 0 km/h
2577 27-12-2008 11:38:15 -0.6 C 2.51 g/m*3 -0.6 C 0 km/h
2578 27-12-2008 11:50:14 -0.6 C 2.46 g/m*3 -0.6 C 0 km/h
2579 27-12-2008 12:02:14 -0.6 C 2.42 g/m*3 -0.6 C 0 km/h
2580 27-12-2008 12:14:14 -0.4 C 2.45 g/m*3 -0.4 C 0 km/h
2581 27-12-2008 12:26:14 -0.2 C 2.48 g/m*3 -0.2 C 0 km/h
2582 27-12-2008 12:38:13 0 C 2.47 g/m*3 0 C 0 km/h
2583 27-12-2008 12:50:14 0 C 2.47 g/m*3 0 C 0 km/h
2584 27-12-2008 13:02:13 -0.1 C 2.41 g/m*3 -0.1 C 0 km/h
2585 27-12-2008 13:14:13 -0.2 C 2.44 g/m*3 -0.2 C 0 km/h
2586 27-12-2008 13:26:13 -0.3 C 2.42 g/m*3 -0.3 C 0 km/h
2587 27-12-2008 13:38:13 -0.4 C 2.4 g/m*3 -0.4 C 0 km/h
2588 27-12-2008 13:50:13 -0.5 C 2.39 g/m*3 -0.5 C 0 km/h
2589 27-12-2008 14:02:13 -0.6 C 2.37 g/m*3 -0.6 C 0 km/h
2590 27-12-2008 14:14:12 -0.7 C 2.35 g/m*3 -0.7 C 0 km/h
2591 27-12-2008 14:26:12 -0.7 C 2.4 g/m*3 -0.7 C 0 km/h
2592 27-12-2008 14:38:13 -0.7 C 2.4 g/m*3 -0.7 C 0 km/h
2593 27-12-2008 14:50:12 -0.8 C 2.38 g/m*3 -0.8 C 0 km/h
2594 27-12-2008 15:02:12 -0.7 C 2.45 g/m*3 -0.7 C 0 km/h
2595 27-12-2008 15:14:12 -0.6 C 2.46 g/m*3 -0.6 C 0 km/h
2596 27-12-2008 15:26:12 -0.6 C 2.46 g/m*3 -0.6 C 0 km/h
2597 27-12-2008 15:38:12 -0.8 C 2.43 g/m*3 -0.8 C 0 km/h
2598 27-12-2008 15:50:11 -0.9 C 2.46 g/m*3 -0.9 C 0 km/h
2599 27-12-2008 16:02:12 -1 C 2.49 g/m*3 -1 C 0 km/h
2600 27-12-2008 16:14:12 -1.1 C 2.47 g/m*3 -1.1 C 0 km/h
Sensor: Nr:Datum:Temp:Abs-Feuchte:Windchill:Wind:
Aussen-T/F 2601 27-12-2008 16:26:12 -1.1 C 2.47 g/m*3 -1.1 C 0 km/h
2602 27-12-2008 16:38:11 -1.2 C 2.45 g/m*3 -1.2 C 0 km/h
2603 27-12-2008 16:50:12 -1.3 C 2.43 g/m*3 -1.3 C 0 km/h
2604 27-12-2008 17:02:11 -1.3 C 2.48 g/m*3 -1.3 C 0 km/h
2605 27-12-2008 17:14:11 -1.2 C 2.5 g/m*3 -1.2 C 0 km/h
2606 27-12-2008 17:26:11 -1.2 C 2.5 g/m*3 -1.2 C 0 km/h
2607 27-12-2008 17:38:11 -1.3 C 2.48 g/m*3 -1.3 C 0 km/h
2608 27-12-2008 17:50:37 -1.4 C 2.51 g/m*3 -1.4 C 0 km/h
2609 27-12-2008 18:02:37 -1.4 C 2.51 g/m*3 -1.4 C 0 km/h
2610 27-12-2008 18:14:38 -1.4 C 2.51 g/m*3 -1.4 C 0 km/h
2611 27-12-2008 18:26:38 -1.4 C 2.51 g/m*3 -1.4 C 0 km/h
2612 27-12-2008 18:38:38 -1.4 C 2.51 g/m*3 -1.4 C 0 km/h
2613 27-12-2008 18:50:38 -1.4 C 2.51 g/m*3 -1.4 C 0 km/h
2614 27-12-2008 19:02:38 -1.4 C 2.55 g/m*3 -1.4 C 0 km/h
2615 27-12-2008 19:14:38 -1.5 C 2.53 g/m*3 -1.5 C 0 km/h
2616 27-12-2008 19:26:02 -1.6 C 2.51 g/m*3 -1.6 C 0 km/h
2617 27-12-2008 19:38:01 -1.6 C 2.56 g/m*3 -1.6 C 0 km/h
2618 27-12-2008 19:50:01 -1.6 C 2.56 g/m*3 -1.6 C 0 km/h
2619 27-12-2008 20:02:01 -1.6 C 2.6 g/m*3 -1.6 C 0 km/h
2620 27-12-2008 20:14:01 -1.6 C 2.6 g/m*3 -1.6 C 0 km/h
2621 27-12-2008 20:26:00 -1.8 C 2.56 g/m*3 -1.8 C 0 km/h
2622 27-12-2008 20:38:00 -1.9 C 2.59 g/m*3 -1.9 C 0 km/h
2623 27-12-2008 20:50:00 -2 C 2.57 g/m*3 -2 C 0 km/h
2624 27-12-2008 21:02:00 -1.9 C 2.59 g/m*3 -1.9 C 0 km/h
2625 27-12-2008 21:14:00 -2 C 2.57 g/m*3 -2 C 0 km/h
Sensor: Nr:Datum:Temp:Abs-Feuchte:Windchill:Wind:
Aussen-T/F 2626 27-12-2008 21:26:00 -2.1 C 2.6 g/m*3 -2.1 C 0 km/h
2627 27-12-2008 21:38:00 -2.2 C 2.62 g/m*3 -2.2 C 0 km/h
2628 27-12-2008 21:50:00 -2.2 C 2.58 g/m*3 -2.2 C 0 km/h
2629 27-12-2008 22:02:59 -2.3 C 2.6 g/m*3 -2.3 C 0 km/h
2630 27-12-2008 22:14:00 -2.4 C 2.58 g/m*3 -2.4 C 0 km/h
2631 27-12-2008 22:26:00 -2.5 C 2.56 g/m*3 -2.5 C 0 km/h
2632 27-12-2008 22:38:59 -2.7 C 2.57 g/m*3 -2.7 C 0 km/h
2633 27-12-2008 22:50:59 -2.8 C 2.59 g/m*3 -2.8 C 0 km/h
2634 27-12-2008 23:02:00 -2.9 C 2.57 g/m*3 -2.9 C 0 km/h
2635 27-12-2008 23:14:00 -3 C 2.55 g/m*3 -3 C 0 km/h
2636 27-12-2008 23:26:59 -3.1 C 2.57 g/m*3 -3.1 C 0 km/h
2637 27-12-2008 23:38:59 -3.2 C 2.56 g/m*3 -3.2 C 0 km/h
2638 27-12-2008 23:50:59 -3.3 C 2.58 g/m*3 -3.3 C 0 km/h
2639 28-12-2008 00:02:59 -3.2 C 2.59 g/m*3 -3.2 C 0 km/h
2640 28-12-2008 00:14:59 -3.2 C 2.59 g/m*3 -3.2 C 0 km/h
2641 28-12-2008 00:26:59 -3.1 C 2.57 g/m*3 -3.1 C 0 km/h
2642 28-12-2008 00:38:58 -3.1 C 2.57 g/m*3 -3.1 C 0 km/h
2643 28-12-2008 00:50:59 -3 C 2.55 g/m*3 -3 C 0 km/h
2644 28-12-2008 01:02:58 -3 C 2.55 g/m*3 -3 C 0 km/h
2645 28-12-2008 01:14:58 -3.1 C 2.54 g/m*3 -3.1 C 0 km/h
2646 28-12-2008 01:26:58 -3.1 C 2.54 g/m*3 -3.1 C 0 km/h
2647 28-12-2008 01:38:57 -3.1 C 2.54 g/m*3 -3.1 C 0 km/h
2648 28-12-2008 01:50:58 -3.4 C 2.48 g/m*3 -3.4 C 0 km/h
2649 28-12-2008 02:02:57 -3.5 C 2.5 g/m*3 -3.5 C 0 km/h
2650 28-12-2008 02:14:57 -3.7 C 2.47 g/m*3 -3.7 C 0 km/h
Sensor: Nr:Datum:Temp:Abs-Feuchte:Windchill:Wind:
Aussen-T/F 2651 28-12-2008 02:26:57 -3.7 C 2.5 g/m*3 -3.7 C 0 km/h
2652 28-12-2008 02:38:57 -3.5 C 2.54 g/m*3 -3.5 C 0 km/h
2653 28-12-2008 02:51:58 -3.4 C 2.56 g/m*3 -3.4 C 0 km/h
2654 28-12-2008 03:03:58 -3.7 C 2.5 g/m*3 -3.7 C 0 km/h
2655 28-12-2008 03:15:58 -3.6 C 2.56 g/m*3 -3.6 C 0 km/h
2656 28-12-2008 03:27:58 -3.5 C 2.58 g/m*3 -3.5 C 0 km/h
2657 28-12-2008 03:39:58 -3.3 C 2.61 g/m*3 -3.3 C 0 km/h
2658 28-12-2008 03:51:58 -3.3 C 2.58 g/m*3 -3.3 C 0 km/h
2659 28-12-2008 04:03:58 -3.1 C 2.57 g/m*3 -3.1 C 0 km/h
2660 28-12-2008 04:15:58 -3.1 C 2.54 g/m*3 -3.1 C 0 km/h
2661 28-12-2008 04:27:58 -3 C 2.55 g/m*3 -3 C 0 km/h
2662 28-12-2008 04:39:58 -2.8 C 2.55 g/m*3 -2.8 C 0 km/h
2663 28-12-2008 04:51:58 -2.6 C 2.55 g/m*3 -2.6 C 0 km/h
2664 28-12-2008 05:03:57 -2.6 C 2.51 g/m*3 -2.6 C 0 km/h
2665 28-12-2008 05:15:57 -2.5 C 2.52 g/m*3 -2.5 C 0 km/h
2666 28-12-2008 05:27:57 -2.4 C 2.5 g/m*3 -2.4 C 0 km/h
2667 28-12-2008 05:39:57 -2.4 C 2.5 g/m*3 -2.4 C 0 km/h
2668 28-12-2008 05:51:56 -2.5 C 2.48 g/m*3 -2.5 C 0 km/h
2669 28-12-2008 06:03:57 -2.5 C 2.48 g/m*3 -2.5 C 0 km/h
2670 28-12-2008 06:15:57 -2.7 C 2.45 g/m*3 -2.7 C 0 km/h
2671 28-12-2008 06:27:57 -2.7 C 2.45 g/m*3 -2.7 C 0 km/h
2672 28-12-2008 06:39:56 -2.8 C 2.47 g/m*3 -2.8 C 0 km/h
2673 28-12-2008 06:51:57 -2.7 C 2.45 g/m*3 -2.7 C 0 km/h
2674 28-12-2008 07:03:56 -2.5 C 2.48 g/m*3 -2.5 C 0 km/h
2675 28-12-2008 07:15:56 -2.7 C 2.45 g/m*3 -2.7 C 0 km/h
Sensor: Nr:Datum:Temp:Abs-Feuchte:Windchill:Wind:
Aussen-T/F 2676 28-12-2008 07:27:56 -2.8 C 2.43 g/m*3 -2.8 C 0 km/h
2677 28-12-2008 07:39:56 -3.1 C 2.38 g/m*3 -3.1 C 0 km/h
2678 28-12-2008 07:51:56 -3.5 C 2.35 g/m*3 -3.5 C 0 km/h
2679 28-12-2008 08:03:55 -3.7 C 2.43 g/m*3 -3.7 C 0 km/h
2680 28-12-2008 08:15:55 -4 C 2.38 g/m*3 -4 C 0 km/h
2681 28-12-2008 08:27:55 -4.1 C 2.43 g/m*3 -4.1 C 0 km/h
2682 28-12-2008 08:39:55 -4.2 C 2.45 g/m*3 -4.2 C 0 km/h
2683 28-12-2008 08:51:55 -4.3 C 2.43 g/m*3 -4.3 C 0 km/h
2684 28-12-2008 09:03:55 -4.2 C 2.49 g/m*3 -4.2 C 0 km/h
2685 28-12-2008 09:15:55 -4.2 C 2.49 g/m*3 -4.2 C 0 km/h
2686 28-12-2008 09:27:55 -4.1 C 2.51 g/m*3 -4.1 C 0 km/h
2687 28-12-2008 09:39:55 -4.1 C 2.51 g/m*3 -4.1 C 0 km/h
2688 28-12-2008 09:51:54 -3.9 C 2.54 g/m*3 -3.9 C 0 km/h
2689 28-12-2008 10:03:55 -3.5 C 2.58 g/m*3 -3.5 C 0 km/h
2690 28-12-2008 10:15:54 -3.2 C 2.56 g/m*3 -3.2 C 0 km/h
2691 28-12-2008 10:27:54 -2.9 C 2.53 g/m*3 -2.9 C 0 km/h
2692 28-12-2008 10:39:54 -2.8 C 2.51 g/m*3 -2.8 C 0 km/h
2693 28-12-2008 10:51:54 -2.7 C 2.49 g/m*3 -2.7 C 0 km/h
2694 28-12-2008 11:03:54 -2.7 C 2.49 g/m*3 -2.7 C 0 km/h
2695 28-12-2008 11:15:54 -2.5 C 2.48 g/m*3 -2.5 C 0 km/h
2696 28-12-2008 11:27:54 -2.4 C 2.5 g/m*3 -2.4 C 0 km/h
2697 28-12-2008 11:39:53 -2.4 C 2.5 g/m*3 -2.4 C 0 km/h
2698 28-12-2008 11:51:54 -2 C 2.53 g/m*3 -2 C 0 km/h
2699 28-12-2008 12:03:53 -2 C 2.53 g/m*3 -2 C 0 km/h
2700 28-12-2008 12:15:53 -1.9 C 2.5 g/m*3 -1.9 C 0 km/h
Sensor: Nr:Datum:Temp:Abs-Feuchte:Windchill:Wind:
Aussen-T/F 2701 28-12-2008 12:27:53 -1.8 C 2.48 g/m*3 -1.8 C 0 km/h
2702 28-12-2008 12:39:53 -1.7 C 2.5 g/m*3 -1.7 C 0 km/h
2703 28-12-2008 12:51:53 -1.4 C 2.51 g/m*3 -1.4 C 0 km/h
2704 28-12-2008 13:03:52 -1.4 C 2.51 g/m*3 -1.4 C 0 km/h
2705 28-12-2008 13:15:53 -1.3 C 2.48 g/m*3 -1.3 C 0 km/h
2706 28-12-2008 13:27:53 -1.3 C 2.48 g/m*3 -1.3 C 0 km/h
2707 28-12-2008 13:39:53 -1.2 C 2.5 g/m*3 -1.2 C 0 km/h
2708 28-12-2008 13:51:52 -1.1 C 2.51 g/m*3 -1.1 C 0 km/h
2709 28-12-2008 14:03:53 -1.1 C 2.47 g/m*3 -1.1 C 0 km/h
2710 28-12-2008 14:15:52 -1.1 C 2.47 g/m*3 -1.1 C 0 km/h
2711 28-12-2008 14:27:52 -1.1 C 2.51 g/m*3 -1.1 C 0 km/h
2712 28-12-2008 14:39:52 -1.2 C 2.5 g/m*3 -1.2 C 0 km/h
2713 28-12-2008 14:51:52 -1.5 C 2.53 g/m*3 -1.5 C 0 km/h
2714 28-12-2008 15:03:52 -1.4 C 2.55 g/m*3 -1.4 C 0 km/h
2715 28-12-2008 15:15:51 -1.4 C 2.51 g/m*3 -1.4 C 0 km/h
2716 28-12-2008 15:27:51 -1.3 C 2.52 g/m*3 -1.3 C 0 km/h
2717 28-12-2008 15:39:51 -1.2 C 2.54 g/m*3 -1.2 C 0 km/h
2718 28-12-2008 15:51:51 -1.3 C 2.52 g/m*3 -1.3 C 0 km/h
2719 28-12-2008 16:03:51 -1.6 C 2.51 g/m*3 -1.6 C 0 km/h
2720 28-12-2008 16:15:51 -1.6 C 2.47 g/m*3 -1.6 C 0 km/h
2721 28-12-2008 16:27:51 -1.9 C 2.46 g/m*3 -1.9 C 0 km/h
2722 28-12-2008 16:39:51 -2.4 C 2.42 g/m*3 -2.4 C 0 km/h
2723 28-12-2008 16:51:51 -2.2 C 2.49 g/m*3 -2.2 C 0 km/h
2724 28-12-2008 17:03:50 -2.5 C 2.48 g/m*3 -2.5 C 0 km/h
2725 28-12-2008 17:15:51 -2.7 C 2.49 g/m*3 -2.7 C 0 km/h
Sensor: Nr:Datum:Temp:Abs-Feuchte:Windchill:Wind:
Aussen-T/F 2726 28-12-2008 17:27:51 -2.8 C 2.51 g/m*3 -2.8 C 0 km/h
2727 28-12-2008 17:39:50 -2.9 C 2.53 g/m*3 -2.9 C 0 km/h
2728 28-12-2008 17:51:50 -3.1 C 2.54 g/m*3 -3.1 C 0 km/h
2729 28-12-2008 18:03:50 -3.2 C 2.52 g/m*3 -3.2 C 0 km/h
2730 28-12-2008 18:15:50 -3.3 C 2.54 g/m*3 -3.3 C 0 km/h
2731 28-12-2008 18:27:50 -3.3 C 2.58 g/m*3 -3.3 C 0 km/h
2732 28-12-2008 18:39:50 -3.3 C 2.58 g/m*3 -3.3 C 0 km/h
2733 28-12-2008 18:51:49 -3.3 C 2.58 g/m*3 -3.3 C 0 km/h
2734 28-12-2008 19:03:50 -3.5 C 2.54 g/m*3 -3.5 C 0 km/h
2735 28-12-2008 19:15:50 -3.5 C 2.58 g/m*3 -3.5 C 0 km/h
2736 28-12-2008 19:27:50 -3.4 C 2.6 g/m*3 -3.4 C 0 km/h
2737 28-12-2008 19:39:49 -3.6 C 2.56 g/m*3 -3.6 C 0 km/h
2738 28-12-2008 19:51:49 -3.4 C 2.6 g/m*3 -3.4 C 0 km/h
2739 28-12-2008 20:03:49 -3.5 C 2.58 g/m*3 -3.5 C 0 km/h
2740 28-12-2008 20:15:49 -3.7 C 2.58 g/m*3 -3.7 C 0 km/h
2741 28-12-2008 20:27:49 -3.9 C 2.54 g/m*3 -3.9 C 0 km/h
2742 28-12-2008 20:39:48 -4 C 2.56 g/m*3 -4 C 0 km/h
2743 28-12-2008 20:51:49 -3.9 C 2.62 g/m*3 -3.9 C 0 km/h
2744 28-12-2008 21:03:48 -4 C 2.6 g/m*3 -4 C 0 km/h
2745 28-12-2008 21:15:48 -4.1 C 2.58 g/m*3 -4.1 C 0 km/h
2746 28-12-2008 21:27:48 -4.3 C 2.54 g/m*3 -4.3 C 0 km/h
2747 28-12-2008 21:39:48 -4.4 C 2.56 g/m*3 -4.4 C 0 km/h
2748 28-12-2008 21:51:48 -4.5 C 2.58 g/m*3 -4.5 C 0 km/h
2749 28-12-2008 22:03:47 -4.5 C 2.61 g/m*3 -4.5 C 0 km/h
2750 28-12-2008 22:15:47 -4.6 C 2.59 g/m*3 -4.6 C 0 km/h
Sensor: Nr:Datum:Temp:Abs-Feuchte:Windchill:Wind:
Aussen-T/F 2751 28-12-2008 22:27:47 -4.6 C 2.59 g/m*3 -4.6 C 0 km/h
2752 28-12-2008 22:39:48 -4.8 C 2.59 g/m*3 -4.8 C 0 km/h
2753 28-12-2008 22:51:47 -4.8 C 2.59 g/m*3 -4.8 C 0 km/h
2754 28-12-2008 23:03:47 -4.8 C 2.59 g/m*3 -4.8 C 0 km/h
2755 28-12-2008 23:15:47 -5.1 C 2.54 g/m*3 -5.1 C 0 km/h
2756 28-12-2008 23:27:47 -5.2 C 2.55 g/m*3 -5.2 C 0 km/h
2757 28-12-2008 23:39:47 -5 C 2.59 g/m*3 -5 C 0 km/h
2758 28-12-2008 23:51:46 -5.2 C 2.58 g/m*3 -5.2 C 0 km/h
2759 29-12-2008 00:03:47 -5.2 C 2.58 g/m*3 -5.2 C 0 km/h
2760 29-12-2008 00:15:46 -5.3 C 2.57 g/m*3 -5.3 C 0 km/h
2761 29-12-2008 00:27:46 -5.2 C 2.58 g/m*3 -5.2 C 0 km/h
2762 29-12-2008 00:39:46 -5.3 C 2.57 g/m*3 -5.3 C 0 km/h
2763 29-12-2008 00:51:46 -5.3 C 2.57 g/m*3 -5.3 C 0 km/h
2764 29-12-2008 01:03:46 -5.5 C 2.53 g/m*3 -5.5 C 0 km/h
2765 29-12-2008 01:15:45 -5.5 C 2.53 g/m*3 -5.5 C 0 km/h
2766 29-12-2008 01:27:45 -5.6 C 2.54 g/m*3 -5.6 C 0 km/h
2767 29-12-2008 01:39:46 -5.7 C 2.52 g/m*3 -5.7 C 0 km/h
2768 29-12-2008 01:51:45 -5.8 C 2.51 g/m*3 -5.8 C 0 km/h
2769 29-12-2008 02:03:45 -5.7 C 2.56 g/m*3 -5.7 C 0 km/h
2770 29-12-2008 02:15:46 -5.7 C 2.56 g/m*3 -5.7 C 0 km/h
2771 29-12-2008 02:27:46 -6 C 2.5 g/m*3 -6 C 0 km/h
2772 29-12-2008 02:39:45 -6.1 C 2.48 g/m*3 -6.1 C 0 km/h
2773 29-12-2008 02:52:47 -6.2 C 2.47 g/m*3 -6.2 C 0 km/h
2774 29-12-2008 03:04:47 -6.2 C 2.5 g/m*3 -6.2 C 0 km/h
2775 29-12-2008 03:16:47 -6.2 C 2.5 g/m*3 -6.2 C 0 km/h
Sensor: Nr:Datum:Temp:Abs-Feuchte:Windchill:Wind:
Aussen-T/F 2776 29-12-2008 03:28:47 -6.1 C 2.55 g/m*3 -6.1 C 0 km/h
2777 29-12-2008 03:40:46 -6.2 C 2.53 g/m*3 -6.2 C 0 km/h
2778 29-12-2008 03:52:46 -6.2 C 2.53 g/m*3 -6.2 C 0 km/h
2779 29-12-2008 04:04:46 -6.2 C 2.53 g/m*3 -6.2 C 0 km/h
2780 29-12-2008 04:16:47 -6.4 C 2.49 g/m*3 -6.4 C 0 km/h
2781 29-12-2008 04:28:47 -6.4 C 2.49 g/m*3 -6.4 C 0 km/h
2782 29-12-2008 04:40:46 -6.4 C 2.52 g/m*3 -6.4 C 0 km/h
2783 29-12-2008 04:52:46 -6.5 C 2.5 g/m*3 -6.5 C 0 km/h
2784 29-12-2008 05:04:46 -6.5 C 2.5 g/m*3 -6.5 C 0 km/h
2785 29-12-2008 05:16:45 -6.7 C 2.47 g/m*3 -6.7 C 0 km/h
2786 29-12-2008 05:28:45 -6.8 C 2.45 g/m*3 -6.8 C 0 km/h
2787 29-12-2008 05:40:46 -6.9 C 2.43 g/m*3 -6.9 C 0 km/h
2788 29-12-2008 05:52:46 -6.9 C 2.43 g/m*3 -6.9 C 0 km/h
2789 29-12-2008 06:04:45 -7.1 C 2.4 g/m*3 -7.1 C 0 km/h
2790 29-12-2008 06:16:45 -7.1 C 2.4 g/m*3 -7.1 C 0 km/h
2791 29-12-2008 06:28:46 -6.9 C 2.46 g/m*3 -6.9 C 0 km/h
2792 29-12-2008 06:40:44 -7 C 2.44 g/m*3 -7 C 0 km/h
2793 29-12-2008 06:52:45 -7.1 C 2.43 g/m*3 -7.1 C 0 km/h
2794 29-12-2008 07:04:44 -7.2 C 2.41 g/m*3 -7.2 C 0 km/h
2795 29-12-2008 07:16:44 -7.3 C 2.39 g/m*3 -7.3 C 0 km/h
2796 29-12-2008 07:28:44 -7.4 C 2.37 g/m*3 -7.4 C 0 km/h
2797 29-12-2008 07:40:45 -7.7 C 2.32 g/m*3 -7.7 C 0 km/h
2798 29-12-2008 07:52:44 -7.8 C 2.3 g/m*3 -7.8 C 0 km/h
2799 29-12-2008 08:04:44 -7.7 C 2.32 g/m*3 -7.7 C 0 km/h
2800 29-12-2008 08:16:44 -7.6 C 2.37 g/m*3 -7.6 C 0 km/h
Sensor: Nr:Datum:Temp:Abs-Feuchte:Windchill:Wind:
Aussen-T/F 2801 29-12-2008 08:28:44 -7.7 C 2.35 g/m*3 -7.7 C 0 km/h
2802 29-12-2008 08:40:44 -7.7 C 2.35 g/m*3 -7.7 C 0 km/h
2803 29-12-2008 08:52:44 -7.8 C 2.33 g/m*3 -7.8 C 0 km/h
2804 29-12-2008 09:04:43 -7.9 C 2.31 g/m*3 -7.9 C 0 km/h
2805 29-12-2008 09:16:44 -7.7 C 2.35 g/m*3 -7.7 C 0 km/h
2806 29-12-2008 09:28:44 -7.6 C 2.39 g/m*3 -7.6 C 0 km/h
2807 29-12-2008 09:40:43 -7.5 C 2.41 g/m*3 -7.5 C 0 km/h
2808 29-12-2008 09:52:43 -7.4 C 2.43 g/m*3 -7.4 C 0 km/h
2809 29-12-2008 10:04:43 -7.2 C 2.47 g/m*3 -7.2 C 0 km/h
2810 29-12-2008 10:16:43 -7 C 2.5 g/m*3 -7 C 0 km/h
2811 29-12-2008 10:28:43 -6.9 C 2.52 g/m*3 -6.9 C 0 km/h
2812 29-12-2008 10:40:42 -6.6 C 2.61 g/m*3 -6.6 C 0 km/h
2813 29-12-2008 10:52:42 -6.3 C 2.66 g/m*3 -6.3 C 0 km/h
2814 29-12-2008 11:04:43 -6.2 C 2.68 g/m*3 -6.2 C 0 km/h
2815 29-12-2008 11:16:42 -6.1 C 2.7 g/m*3 -6.1 C 0 km/h
2816 29-12-2008 11:28:42 -5.7 C 2.78 g/m*3 -5.7 C 0 km/h
2817 29-12-2008 11:40:42 -5.5 C 2.82 g/m*3 -5.5 C 0 km/h
2818 29-12-2008 11:52:42 -5.3 C 2.87 g/m*3 -5.3 C 0 km/h
2819 29-12-2008 12:04:41 -5.1 C 2.87 g/m*3 -5.1 C 0 km/h
2820 29-12-2008 12:16:42 -4.9 C 2.92 g/m*3 -4.9 C 0 km/h
2821 29-12-2008 12:28:42 -4.7 C 2.92 g/m*3 -4.7 C 0 km/h
2822 29-12-2008 12:40:42 -4.5 C 2.93 g/m*3 -4.5 C 0 km/h
2823 29-12-2008 12:52:41 -4.3 C 2.9 g/m*3 -4.3 C 0 km/h
2824 29-12-2008 13:04:42 -4 C 2.89 g/m*3 -4 C 0 km/h
2825 29-12-2008 13:16:41 -3.8 C 2.89 g/m*3 -3.8 C 0 km/h
Sensor: Nr:Datum:Temp:Abs-Feuchte:Windchill:Wind:
Aussen-T/F 2826 29-12-2008 13:28:41 -3.6 C 2.86 g/m*3 -3.6 C 0 km/h
2827 29-12-2008 13:40:41 -3.4 C 2.83 g/m*3 -3.4 C 0 km/h
2828 29-12-2008 13:52:41 -3.1 C 2.85 g/m*3 -3.1 C 0 km/h
2829 29-12-2008 14:04:41 -3 C 2.79 g/m*3 -3 C 0 km/h
2830 29-12-2008 14:16:40 -2.9 C 2.81 g/m*3 -2.9 C 0 km/h
2831 29-12-2008 14:28:40 -2.7 C 2.81 g/m*3 -2.7 C 0 km/h
2832 29-12-2008 14:40:41 -2.7 C 2.77 g/m*3 -2.7 C 0 km/h
2833 29-12-2008 14:52:41 -2.8 C 2.75 g/m*3 -2.8 C 0 km/h
2834 29-12-2008 15:04:40 -2.7 C 2.77 g/m*3 -2.7 C 0 km/h
2835 29-12-2008 15:16:40 -2.6 C 2.79 g/m*3 -2.6 C 0 km/h
2836 29-12-2008 15:28:40 -2.8 C 2.75 g/m*3 -2.8 C 0 km/h
2837 29-12-2008 15:40:40 -2.8 C 2.79 g/m*3 -2.8 C 0 km/h
2838 29-12-2008 15:52:40 -3 C 2.75 g/m*3 -3 C 0 km/h
2839 29-12-2008 16:04:40 -3 C 2.79 g/m*3 -3 C 0 km/h
2840 29-12-2008 16:16:39 -3.1 C 2.81 g/m*3 -3.1 C 0 km/h
2841 29-12-2008 16:28:39 -3.3 C 2.77 g/m*3 -3.3 C 0 km/h
2842 29-12-2008 16:40:38 -3.4 C 2.79 g/m*3 -3.4 C 0 km/h
2843 29-12-2008 16:52:38 -3.5 C 2.77 g/m*3 -3.5 C 0 km/h
2844 29-12-2008 17:04:38 -3.5 C 2.77 g/m*3 -3.5 C 0 km/h
2845 29-12-2008 17:16:38 -3.7 C 2.73 g/m*3 -3.7 C 0 km/h
2846 29-12-2008 17:28:38 -3.9 C 2.69 g/m*3 -3.9 C 0 km/h
2847 29-12-2008 17:40:38 -4 C 2.71 g/m*3 -4 C 0 km/h
2848 29-12-2008 17:52:38 -4 C 2.74 g/m*3 -4 C 0 km/h
2849 29-12-2008 18:04:38 -4.1 C 2.76 g/m*3 -4.1 C 0 km/h
2850 29-12-2008 18:16:38 -4.3 C 2.72 g/m*3 -4.3 C 0 km/h
Sensor: Nr:Datum:Temp:Abs-Feuchte:Windchill:Wind:
Aussen-T/F 2851 29-12-2008 18:28:38 -4.2 C 2.74 g/m*3 -4.2 C 0 km/h
2852 29-12-2008 18:40:37 -4.2 C 2.74 g/m*3 -4.2 C 0 km/h
2853 29-12-2008 18:52:37 -4.4 C 2.7 g/m*3 -4.4 C 0 km/h
2854 29-12-2008 19:04:37 -4.5 C 2.68 g/m*3 -4.5 C 0 km/h
2855 29-12-2008 19:16:37 -4.6 C 2.7 g/m*3 -4.6 C 0 km/h
2856 29-12-2008 19:28:37 -4.7 C 2.68 g/m*3 -4.7 C 0 km/h
2857 29-12-2008 19:40:37 -4.9 C 2.64 g/m*3 -4.9 C 0 km/h
2858 29-12-2008 19:52:37 -4.9 C 2.68 g/m*3 -4.9 C 0 km/h
2859 29-12-2008 20:04:37 -4.9 C 2.68 g/m*3 -4.9 C 0 km/h
2860 29-12-2008 20:16:36 -5.2 C 2.62 g/m*3 -5.2 C 0 km/h
2861 29-12-2008 20:28:36 -5.2 C 2.65 g/m*3 -5.2 C 0 km/h
2862 29-12-2008 20:40:37 -5.3 C 2.63 g/m*3 -5.3 C 0 km/h
2863 29-12-2008 20:52:36 -5.4 C 2.61 g/m*3 -5.4 C 0 km/h
2864 29-12-2008 21:04:36 -5.5 C 2.59 g/m*3 -5.5 C 0 km/h
2865 29-12-2008 21:16:36 -5.6 C 2.61 g/m*3 -5.6 C 0 km/h
2866 29-12-2008 21:28:36 -5.8 C 2.57 g/m*3 -5.8 C 0 km/h
2867 29-12-2008 21:40:36 -5.9 C 2.55 g/m*3 -5.9 C 0 km/h
2868 29-12-2008 21:53:37 -6 C 2.53 g/m*3 -6 C 0 km/h
2869 29-12-2008 22:05:37 -6 C 2.53 g/m*3 -6 C 0 km/h
2870 29-12-2008 22:17:37 -6 C 2.57 g/m*3 -6 C 0 km/h
2871 29-12-2008 22:29:37 -6.1 C 2.55 g/m*3 -6.1 C 0 km/h
2872 29-12-2008 22:41:37 -6 C 2.6 g/m*3 -6 C 0 km/h
2873 29-12-2008 22:53:37 -6.1 C 2.58 g/m*3 -6.1 C 0 km/h
2874 29-12-2008 23:05:38 -6.3 C 2.54 g/m*3 -6.3 C 0 km/h
2875 29-12-2008 23:17:38 -6.4 C 2.52 g/m*3 -6.4 C 0 km/h
Sensor: Nr:Datum:Temp:Abs-Feuchte:Windchill:Wind:
Aussen-T/F 2876 29-12-2008 23:29:38 -6.4 C 2.52 g/m*3 -6.4 C 0 km/h
2877 29-12-2008 23:41:38 -6.6 C 2.49 g/m*3 -6.6 C 0 km/h
2878 29-12-2008 23:53:38 -6.8 C 2.45 g/m*3 -6.8 C 0 km/h
2879 30-12-2008 00:05:38 -6.9 C 2.43 g/m*3 -6.9 C 0 km/h
2880 30-12-2008 00:17:38 -6.9 C 2.46 g/m*3 -6.9 C 0 km/h
2881 30-12-2008 00:29:38 -7 C 2.44 g/m*3 -7 C 0 km/h
2882 30-12-2008 00:41:38 -6.8 C 2.51 g/m*3 -6.8 C 0 km/h
2883 30-12-2008 00:53:38 -6.9 C 2.49 g/m*3 -6.9 C 0 km/h
2884 30-12-2008 01:05:38 -7 C 2.47 g/m*3 -7 C 0 km/h
2885 30-12-2008 01:17:38 -7.2 C 2.44 g/m*3 -7.2 C 0 km/h
2886 30-12-2008 01:29:38 -7.1 C 2.45 g/m*3 -7.1 C 0 km/h
2887 30-12-2008 01:41:38 -7.2 C 2.44 g/m*3 -7.2 C 0 km/h
2888 30-12-2008 01:53:38 -7.2 C 2.44 g/m*3 -7.2 C 0 km/h
2889 30-12-2008 02:05:38 -7.3 C 2.42 g/m*3 -7.3 C 0 km/h
2890 30-12-2008 02:17:38 -7.2 C 2.47 g/m*3 -7.2 C 0 km/h
2891 30-12-2008 02:29:38 -7.3 C 2.45 g/m*3 -7.3 C 0 km/h
2892 30-12-2008 02:41:38 -7.5 C 2.41 g/m*3 -7.5 C 0 km/h
2893 30-12-2008 02:53:39 -7.7 C 2.38 g/m*3 -7.7 C 0 km/h
2894 30-12-2008 03:05:39 -7.7 C 2.38 g/m*3 -7.7 C 0 km/h
2895 30-12-2008 03:17:39 -7.5 C 2.41 g/m*3 -7.5 C 0 km/h
2896 30-12-2008 03:29:39 -7.7 C 2.38 g/m*3 -7.7 C 0 km/h
2897 30-12-2008 03:41:39 -7.8 C 2.36 g/m*3 -7.8 C 0 km/h
2898 30-12-2008 03:53:39 -7.9 C 2.34 g/m*3 -7.9 C 0 km/h
2899 30-12-2008 04:05:39 -8 C 2.32 g/m*3 -8 C 0 km/h
2900 30-12-2008 04:17:39 -8 C 2.32 g/m*3 -8 C 0 km/h
Sensor: Nr:Datum:Temp:Abs-Feuchte:Windchill:Wind:
Aussen-T/F 2901 30-12-2008 04:29:39 -8.1 C 2.31 g/m*3 -8.1 C 0 km/h
2902 30-12-2008 04:41:39 -8.2 C 2.29 g/m*3 -8.2 C 0 km/h
2903 30-12-2008 04:53:39 -8.1 C 2.31 g/m*3 -8.1 C 0 km/h
2904 30-12-2008 05:05:39 -8.2 C 2.29 g/m*3 -8.2 C 0 km/h
2905 30-12-2008 05:17:39 -8.2 C 2.26 g/m*3 -8.2 C 0 km/h
2906 30-12-2008 05:29:39 -8.3 C 2.25 g/m*3 -8.3 C 0 km/h
2907 30-12-2008 05:41:39 -8.3 C 2.22 g/m*3 -8.3 C 0 km/h
2908 30-12-2008 05:53:39 -8.3 C 2.22 g/m*3 -8.3 C 0 km/h
2909 30-12-2008 06:05:39 -8.3 C 2.22 g/m*3 -8.3 C 0 km/h
2910 30-12-2008 06:17:39 -8.4 C 2.2 g/m*3 -8.4 C 0 km/h
2911 30-12-2008 06:29:39 -8.4 C 2.18 g/m*3 -8.4 C 0 km/h
2912 30-12-2008 06:41:39 -8.4 C 2.18 g/m*3 -8.4 C 0 km/h
2913 30-12-2008 06:53:40 -8.3 C 2.19 g/m*3 -8.3 C 0 km/h
2914 30-12-2008 07:05:40 -8.4 C 2.15 g/m*3 -8.4 C 0 km/h
2915 30-12-2008 07:17:40 -8.2 C 2.21 g/m*3 -8.2 C 0 km/h
2916 30-12-2008 07:29:40 -8.3 C 2.17 g/m*3 -8.3 C 0 km/h
2917 30-12-2008 07:41:40 -8.2 C 2.18 g/m*3 -8.2 C 0 km/h
2918 30-12-2008 07:53:40 -8.3 C 2.17 g/m*3 -8.3 C 0 km/h
2919 30-12-2008 08:05:40 -8.5 C 2.13 g/m*3 -8.5 C 0 km/h
2920 30-12-2008 08:17:37 -8.4 C 2.15 g/m*3 -8.4 C 0 km/h
2921 30-12-2008 08:29:37 -8.3 C 2.17 g/m*3 -8.3 C 0 km/h
2922 30-12-2008 08:41:37 -8.3 C 2.17 g/m*3 -8.3 C 0 km/h
2923 30-12-2008 08:53:37 -8.5 C 2.13 g/m*3 -8.5 C 0 km/h
2924 30-12-2008 09:05:37 -8.2 C 2.18 g/m*3 -8.2 C 0 km/h
2925 30-12-2008 09:17:36 -8.3 C 2.17 g/m*3 -8.3 C 0 km/h
Sensor: Nr:Datum:Temp:Abs-Feuchte:Windchill:Wind:
Aussen-T/F 2926 30-12-2008 09:29:36 -8.2 C 2.18 g/m*3 -8.2 C 0 km/h
2927 30-12-2008 09:41:37 -8.2 C 2.18 g/m*3 -8.2 C 0 km/h
2928 30-12-2008 09:53:02 -8 C 2.22 g/m*3 -8 C 0 km/h
2929 30-12-2008 10:05:01 -7.9 C 2.23 g/m*3 -7.9 C 0 km/h
2930 30-12-2008 10:17:01 -7.7 C 2.26 g/m*3 -7.7 C 0 km/h
2931 30-12-2008 10:29:01 -7.6 C 2.28 g/m*3 -7.6 C 0 km/h
2932 30-12-2008 10:41:02 -7.5 C 2.3 g/m*3 -7.5 C 0 km/h
2933 30-12-2008 10:53:01 -7.4 C 2.32 g/m*3 -7.4 C 0 km/h
2934 30-12-2008 11:05:01 -7.1 C 2.4 g/m*3 -7.1 C 0 km/h
2935 30-12-2008 11:17:01 -6.9 C 2.43 g/m*3 -6.9 C 0 km/h
2936 30-12-2008 11:29:01 -6.6 C 2.52 g/m*3 -6.6 C 0 km/h
2937 30-12-2008 11:41:00 -6.5 C 2.5 g/m*3 -6.5 C 0 km/h
2938 30-12-2008 11:53:01 -6.2 C 2.59 g/m*3 -6.2 C 0 km/h
2939 30-12-2008 12:05:00 -5.9 C 2.65 g/m*3 -5.9 C 0 km/h
2940 30-12-2008 12:17:00 -5.7 C 2.69 g/m*3 -5.7 C 0 km/h
2941 30-12-2008 12:29:01 -5.5 C 2.73 g/m*3 -5.5 C 0 km/h
2942 30-12-2008 12:41:00 -5.2 C 2.82 g/m*3 -5.2 C 0 km/h
2943 30-12-2008 12:53:00 -5.1 C 2.81 g/m*3 -5.1 C 0 km/h
2944 30-12-2008 13:05:59 -4.9 C 2.85 g/m*3 -4.9 C 0 km/h
2945 30-12-2008 13:17:00 -4.6 C 2.94 g/m*3 -4.6 C 0 km/h
2946 30-12-2008 13:29:00 -4.1 C 3.01 g/m*3 -4.1 C 0 km/h
2947 30-12-2008 13:41:00 -3.7 C 3.06 g/m*3 -3.7 C 0 km/h
2948 30-12-2008 13:53:59 -3.6 C 3.01 g/m*3 -3.6 C 0 km/h
2949 30-12-2008 14:04:59 -3.5 C 3.03 g/m*3 -3.5 C 0 km/h
2950 30-12-2008 14:17:59 -3.4 C 3.02 g/m*3 -3.4 C 0 km/h
Sensor: Nr:Datum:Temp:Abs-Feuchte:Windchill:Wind:
Aussen-T/F 2951 30-12-2008 14:29:59 -3.3 C 3 g/m*3 -3.3 C 0 km/h
2952 30-12-2008 14:41:59 -3.2 C 2.98 g/m*3 -3.2 C 0 km/h
2953 30-12-2008 14:53:58 -3.1 C 2.96 g/m*3 -3.1 C 0 km/h
2954 30-12-2008 15:05:59 -3.1 C 2.96 g/m*3 -3.1 C 0 km/h
2955 30-12-2008 15:17:58 -3.1 C 2.96 g/m*3 -3.1 C 0 km/h
2956 30-12-2008 15:29:58 -3.1 C 2.93 g/m*3 -3.1 C 0 km/h
2957 30-12-2008 15:41:58 -3.1 C 2.96 g/m*3 -3.1 C 0 km/h
2958 30-12-2008 15:53:58 -3.3 C 2.92 g/m*3 -3.3 C 0 km/h
2959 30-12-2008 16:05:58 -3.4 C 2.9 g/m*3 -3.4 C 0 km/h
2960 30-12-2008 16:17:58 -3.4 C 2.94 g/m*3 -3.4 C 0 km/h
2961 30-12-2008 16:29:58 -3.5 C 2.92 g/m*3 -3.5 C 0 km/h
2962 30-12-2008 16:41:57 -3.7 C 2.88 g/m*3 -3.7 C 0 km/h
2963 30-12-2008 16:53:58 -3.8 C 2.82 g/m*3 -3.8 C 0 km/h
2964 30-12-2008 17:05:57 -3.9 C 2.8 g/m*3 -3.9 C 0 km/h
2965 30-12-2008 17:17:58 -3.9 C 2.84 g/m*3 -3.9 C 0 km/h
2966 30-12-2008 17:29:58 -4.1 C 2.76 g/m*3 -4.1 C 0 km/h
2967 30-12-2008 17:41:57 -4.2 C 2.78 g/m*3 -4.2 C 0 km/h
2968 30-12-2008 17:53:57 -4.3 C 2.72 g/m*3 -4.3 C 0 km/h
2969 30-12-2008 18:05:57 -4.4 C 2.74 g/m*3 -4.4 C 0 km/h
2970 30-12-2008 18:17:57 -4.5 C 2.72 g/m*3 -4.5 C 0 km/h
2971 30-12-2008 18:29:58 -4.5 C 2.75 g/m*3 -4.5 C 0 km/h
2972 30-12-2008 18:41:56 -4.5 C 2.75 g/m*3 -4.5 C 0 km/h
2973 30-12-2008 18:53:57 -4.6 C 2.73 g/m*3 -4.6 C 0 km/h
2974 30-12-2008 19:05:56 -4.5 C 2.75 g/m*3 -4.5 C 0 km/h
2975 30-12-2008 19:17:56 -4.6 C 2.73 g/m*3 -4.6 C 0 km/h
Sensor: Nr:Datum:Temp:Abs-Feuchte:Windchill:Wind:
Aussen-T/F 2976 30-12-2008 19:29:56 -4.8 C 2.69 g/m*3 -4.8 C 0 km/h
2977 30-12-2008 19:41:56 -5 C 2.66 g/m*3 -5 C 0 km/h
2978 30-12-2008 19:53:56 -5 C 2.66 g/m*3 -5 C 0 km/h
2979 30-12-2008 20:05:56 -5 C 2.69 g/m*3 -5 C 0 km/h
2980 30-12-2008 20:17:55 -5.1 C 2.67 g/m*3 -5.1 C 0 km/h
2981 30-12-2008 20:29:55 -5.1 C 2.67 g/m*3 -5.1 C 0 km/h
2982 30-12-2008 20:41:56 -5.3 C 2.63 g/m*3 -5.3 C 0 km/h
2983 30-12-2008 20:53:55 -5.4 C 2.61 g/m*3 -5.4 C 0 km/h
2984 30-12-2008 21:05:55 -5.6 C 2.58 g/m*3 -5.6 C 0 km/h
2985 30-12-2008 21:17:55 -5.5 C 2.63 g/m*3 -5.5 C 0 km/h
2986 30-12-2008 21:29:55 -5.6 C 2.64 g/m*3 -5.6 C 0 km/h
2987 30-12-2008 21:42:56 -5.7 C 2.62 g/m*3 -5.7 C 0 km/h
2988 30-12-2008 21:54:56 -5.8 C 2.6 g/m*3 -5.8 C 0 km/h
2989 30-12-2008 22:06:56 -5.8 C 2.6 g/m*3 -5.8 C 0 km/h
2990 30-12-2008 22:18:56 -5.8 C 2.64 g/m*3 -5.8 C 0 km/h
2991 30-12-2008 22:30:56 -6 C 2.6 g/m*3 -6 C 0 km/h
2992 30-12-2008 22:42:56 -6.2 C 2.56 g/m*3 -6.2 C 0 km/h
2993 30-12-2008 22:54:56 -6.3 C 2.54 g/m*3 -6.3 C 0 km/h
2994 30-12-2008 23:06:56 -6.3 C 2.54 g/m*3 -6.3 C 0 km/h
2995 30-12-2008 23:18:56 -6.3 C 2.57 g/m*3 -6.3 C 0 km/h
2996 30-12-2008 23:30:56 -6.5 C 2.53 g/m*3 -6.5 C 0 km/h
2997 30-12-2008 23:42:56 -6.4 C 2.55 g/m*3 -6.4 C 0 km/h
2998 30-12-2008 23:54:56 -6.4 C 2.55 g/m*3 -6.4 C 0 km/h
2999 31-12-2008 00:06:57 -6.4 C 2.55 g/m*3 -6.4 C 0 km/h
3000 31-12-2008 00:18:57 -6.4 C 2.55 g/m*3 -6.4 C 0 km/h
Sensor: Nr:Datum:Temp:Abs-Feuchte:Windchill:Wind:
Aussen-T/F 3001 31-12-2008 00:30:57 -6.2 C 2.62 g/m*3 -6.2 C 0 km/h
3002 31-12-2008 00:42:57 -6.2 C 2.62 g/m*3 -6.2 C 0 km/h
3003 31-12-2008 00:54:57 -6.4 C 2.58 g/m*3 -6.4 C 0 km/h
3004 31-12-2008 01:06:57 -6.4 C 2.58 g/m*3 -6.4 C 0 km/h
3005 31-12-2008 01:18:57 -6.6 C 2.55 g/m*3 -6.6 C 0 km/h
3006 31-12-2008 01:30:57 -6.8 C 2.48 g/m*3 -6.8 C 0 km/h
3007 31-12-2008 01:42:57 -6.7 C 2.5 g/m*3 -6.7 C 0 km/h
3008 31-12-2008 01:54:57 -6.7 C 2.5 g/m*3 -6.7 C 0 km/h
3009 31-12-2008 02:06:57 -6.9 C 2.46 g/m*3 -6.9 C 0 km/h
3010 31-12-2008 02:18:57 -7.1 C 2.43 g/m*3 -7.1 C 0 km/h
3011 31-12-2008 02:30:57 -7.1 C 2.43 g/m*3 -7.1 C 0 km/h
3012 31-12-2008 02:42:57 -7.2 C 2.41 g/m*3 -7.2 C 0 km/h
3013 31-12-2008 02:54:57 -7.3 C 2.39 g/m*3 -7.3 C 0 km/h
3014 31-12-2008 03:06:57 -7.2 C 2.41 g/m*3 -7.2 C 0 km/h
3015 31-12-2008 03:18:57 -7.3 C 2.39 g/m*3 -7.3 C 0 km/h
3016 31-12-2008 03:30:57 -7.3 C 2.39 g/m*3 -7.3 C 0 km/h
3017 31-12-2008 03:42:57 -7.2 C 2.41 g/m*3 -7.2 C 0 km/h
3018 31-12-2008 03:54:57 -7.1 C 2.45 g/m*3 -7.1 C 0 km/h
3019 31-12-2008 04:06:58 -7.1 C 2.45 g/m*3 -7.1 C 0 km/h
3020 31-12-2008 04:18:58 -7.3 C 2.39 g/m*3 -7.3 C 0 km/h
3021 31-12-2008 04:30:58 -7.3 C 2.39 g/m*3 -7.3 C 0 km/h
3022 31-12-2008 04:42:58 -7.4 C 2.37 g/m*3 -7.4 C 0 km/h
3023 31-12-2008 04:54:55 -7.4 C 2.37 g/m*3 -7.4 C 0 km/h
3024 31-12-2008 05:06:56 -7.4 C 2.37 g/m*3 -7.4 C 0 km/h
3025 31-12-2008 05:18:55 -7.4 C 2.37 g/m*3 -7.4 C 0 km/h
Sensor: Nr:Datum:Temp:Abs-Feuchte:Windchill:Wind:
Aussen-T/F 3026 31-12-2008 05:30:55 -7.5 C 2.36 g/m*3 -7.5 C 0 km/h
3027 31-12-2008 05:42:55 -7.4 C 2.37 g/m*3 -7.4 C 0 km/h
3028 31-12-2008 05:54:55 -7.5 C 2.36 g/m*3 -7.5 C 0 km/h
3029 31-12-2008 06:06:55 -7.5 C 2.36 g/m*3 -7.5 C 0 km/h
3030 31-12-2008 06:18:55 -7.7 C 2.32 g/m*3 -7.7 C 0 km/h
3031 31-12-2008 06:30:55 -7.7 C 2.29 g/m*3 -7.7 C 0 km/h
3032 31-12-2008 06:42:55 -7.8 C 2.28 g/m*3 -7.8 C 0 km/h
3033 31-12-2008 06:54:54 -7.8 C 2.28 g/m*3 -7.8 C 0 km/h
3034 31-12-2008 07:06:55 -7.8 C 2.28 g/m*3 -7.8 C 0 km/h
3035 31-12-2008 07:18:54 -7.8 C 2.28 g/m*3 -7.8 C 0 km/h
3036 31-12-2008 07:30:54 -7.8 C 2.28 g/m*3 -7.8 C 0 km/h
3037 31-12-2008 07:42:54 -7.8 C 2.28 g/m*3 -7.8 C 0 km/h
3038 31-12-2008 07:54:54 -7.8 C 2.28 g/m*3 -7.8 C 0 km/h
3039 31-12-2008 08:06:54 -7.8 C 2.28 g/m*3 -7.8 C 0 km/h
3040 31-12-2008 08:18:54 -7.8 C 2.28 g/m*3 -7.8 C 0 km/h
3041 31-12-2008 08:30:54 -7.5 C 2.33 g/m*3 -7.5 C 0 km/h
3042 31-12-2008 08:42:54 -7.1 C 2.43 g/m*3 -7.1 C 0 km/h
3043 31-12-2008 08:54:53 -6.7 C 2.53 g/m*3 -6.7 C 0 km/h
3044 31-12-2008 09:06:53 -6.4 C 2.58 g/m*3 -6.4 C 0 km/h
3045 31-12-2008 09:18:53 -6 C 2.66 g/m*3 -6 C 0 km/h
3046 31-12-2008 09:30:53 -5.9 C 2.68 g/m*3 -5.9 C 0 km/h
3047 31-12-2008 09:42:53 -5.7 C 2.72 g/m*3 -5.7 C 0 km/h
3048 31-12-2008 09:54:52 -5.6 C 2.74 g/m*3 -5.6 C 0 km/h
3049 31-12-2008 10:06:53 -5.4 C 2.75 g/m*3 -5.4 C 0 km/h
3050 31-12-2008 10:18:53 -5.2 C 2.79 g/m*3 -5.2 C 0 km/h
Sensor: Nr:Datum:Temp:Abs-Feuchte:Windchill:Wind:
Aussen-T/F 3051 31-12-2008 10:30:52 -4.9 C 2.85 g/m*3 -4.9 C 0 km/h
3052 31-12-2008 10:42:52 -4.5 C 2.89 g/m*3 -4.5 C 0 km/h
3053 31-12-2008 10:54:02 -3.8 C 3.04 g/m*3 -3.8 C 0 km/h
3054 31-12-2008 11:06:01 -3.7 C 3.06 g/m*3 -3.7 C 0 km/h
3055 31-12-2008 11:18:01 -3.8 C 3.01 g/m*3 -3.8 C 0 km/h
3056 31-12-2008 11:30:01 -3.9 C 2.98 g/m*3 -3.9 C 0 km/h
3057 31-12-2008 11:42:01 -3.6 C 3.05 g/m*3 -3.6 C 0 km/h
3058 31-12-2008 11:54:01 -3 C 3.22 g/m*3 -3 C 0 km/h
3059 31-12-2008 12:06:01 -2.6 C 3.27 g/m*3 -2.6 C 0 km/h
3060 31-12-2008 12:18:02 -2.6 C 3.23 g/m*3 -2.6 C 0 km/h
3061 31-12-2008 12:30:02 -2.9 C 3.09 g/m*3 -2.9 C 0 km/h
3062 31-12-2008 12:42:01 -2.9 C 3.09 g/m*3 -2.9 C 0 km/h
3063 31-12-2008 12:54:00 -2.9 C 3.05 g/m*3 -2.9 C 0 km/h
3064 31-12-2008 13:06:01 -2.9 C 3.05 g/m*3 -2.9 C 0 km/h
3065 31-12-2008 13:18:01 -2.8 C 3.03 g/m*3 -2.8 C 0 km/h
3066 31-12-2008 13:30:01 -2.7 C 3.05 g/m*3 -2.7 C 0 km/h
3067 31-12-2008 13:42:00 -2.4 C 3.11 g/m*3 -2.4 C 0 km/h
3068 31-12-2008 13:54:01 -2.1 C 3.22 g/m*3 -2.1 C 0 km/h
3069 31-12-2008 14:06:00 -1.7 C 3.31 g/m*3 -1.7 C 0 km/h
3070 31-12-2008 14:18:00 -1.5 C 3.32 g/m*3 -1.5 C 0 km/h
3071 31-12-2008 14:30:00 -1.5 C 3.27 g/m*3 -1.5 C 0 km/h
3072 31-12-2008 14:42:00 -1.4 C 3.3 g/m*3 -1.4 C 0 km/h
3073 31-12-2008 14:54:00 -1.5 C 3.27 g/m*3 -1.5 C 0 km/h
3074 31-12-2008 15:06:59 -1.6 C 3.25 g/m*3 -1.6 C 0 km/h
3075 31-12-2008 15:29:59 -1.6 C 3.25 g/m*3 -1.6 C 0 km/h
Sensor: Nr:Datum:Temp:Abs-Feuchte:Windchill:Wind:
Aussen-T/F 3076 31-12-2008 15:30:00 -1.6 C 3.25 g/m*3 -1.6 C 0 km/h
3077 31-12-2008 15:42:00 -1.6 C 3.25 g/m*3 -1.6 C 0 km/h
3078 31-12-2008 15:54:59 -1.6 C 3.25 g/m*3 -1.6 C 0 km/h
3079 31-12-2008 16:05:59 -1.6 C 3.25 g/m*3 -1.6 C 0 km/h
3080 31-12-2008 16:18:59 -1.7 C 3.23 g/m*3 -1.7 C 0 km/h
3081 31-12-2008 16:30:59 -1.7 C 3.23 g/m*3 -1.7 C 0 km/h
3082 31-12-2008 16:43:00 -1.7 C 3.23 g/m*3 -1.7 C 0 km/h
3083 31-12-2008 16:54:59 -1.7 C 3.27 g/m*3 -1.7 C 0 km/h
3084 31-12-2008 17:06:59 -1.4 C 3.39 g/m*3 -1.4 C 0 km/h
3085 31-12-2008 17:18:59 -1.2 C 3.48 g/m*3 -1.2 C 0 km/h
3086 31-12-2008 17:30:58 -1 C 3.53 g/m*3 -1 C 0 km/h
3087 31-12-2008 17:42:58 -1.1 C 3.5 g/m*3 -1.1 C 0 km/h
3088 31-12-2008 17:54:59 -1.3 C 3.45 g/m*3 -1.3 C 0 km/h
3089 31-12-2008 18:06:58 -1.1 C 3.55 g/m*3 -1.1 C 0 km/h
3090 31-12-2008 18:18:58 -1.2 C 3.52 g/m*3 -1.2 C 0 km/h
3091 31-12-2008 18:30:57 -1.4 C 3.52 g/m*3 -1.4 C 0 km/h
3092 31-12-2008 18:42:57 -1.5 C 3.54 g/m*3 -1.5 C 0 km/h
3093 31-12-2008 18:54:58 -1.5 C 3.54 g/m*3 -1.5 C 0 km/h
3094 31-12-2008 19:06:57 -1.5 C 3.54 g/m*3 -1.5 C 0 km/h
3095 31-12-2008 19:18:57 -1.6 C 3.55 g/m*3 -1.6 C 0 km/h
3096 31-12-2008 19:30:57 -1.6 C 3.6 g/m*3 -1.6 C 0 km/h
3097 31-12-2008 19:42:57 -1.7 C 3.62 g/m*3 -1.7 C 0 km/h
3098 31-12-2008 19:54:57 -1.8 C 3.59 g/m*3 -1.8 C 0 km/h
3099 31-12-2008 20:06:56 -1.8 C 3.59 g/m*3 -1.8 C 0 km/h
3100 31-12-2008 20:18:57 -1.9 C 3.61 g/m*3 -1.9 C 0 km/h
Sensor: Nr:Datum:Temp:Abs-Feuchte:Windchill:Wind:
Aussen-T/F 3101 31-12-2008 20:30:57 -2.3 C 3.51 g/m*3 -2.3 C 0 km/h
3102 31-12-2008 20:42:57 -2.4 C 3.48 g/m*3 -2.4 C 0 km/h
3103 31-12-2008 20:54:56 -2.5 C 3.5 g/m*3 -2.5 C 0 km/h
3104 31-12-2008 21:06:57 -2.6 C 3.48 g/m*3 -2.6 C 0 km/h
3105 31-12-2008 21:18:56 -2.7 C 3.45 g/m*3 -2.7 C 0 km/h
3106 31-12-2008 21:30:56 -2.5 C 3.54 g/m*3 -2.5 C 0 km/h
3107 31-12-2008 21:42:56 -2.6 C 3.52 g/m*3 -2.6 C 0 km/h
3108 31-12-2008 21:54:55 -2.4 C 3.57 g/m*3 -2.4 C 0 km/h
3109 31-12-2008 22:06:56 -2.5 C 3.54 g/m*3 -2.5 C 0 km/h
3110 31-12-2008 22:18:56 -2.7 C 3.49 g/m*3 -2.7 C 0 km/h
3111 31-12-2008 22:30:55 -2.8 C 3.47 g/m*3 -2.8 C 0 km/h
3112 31-12-2008 22:42:55 -3.1 C 3.39 g/m*3 -3.1 C 0 km/h
3113 31-12-2008 22:54:55 -3.2 C 3.37 g/m*3 -3.2 C 0 km/h
3114 31-12-2008 23:07:53 -3.2 C 3.37 g/m*3 -3.2 C 0 km/h
3115 31-12-2008 23:19:53 -3 C 3.46 g/m*3 -3 C 0 km/h
3116 31-12-2008 23:31:53 -2.6 C 3.6 g/m*3 -2.6 C 0 km/h
3117 31-12-2008 23:43:53 -2.4 C 3.65 g/m*3 -2.4 C 0 km/h
3118 31-12-2008 23:55:53 -2.2 C 3.74 g/m*3 -2.2 C 0 km/h
3119 01-01-2009 00:07:53 -2.1 C 3.77 g/m*3 -2.1 C 0 km/h
3120 01-01-2009 00:19:53 -2 C 3.79 g/m*3 -2 C 0 km/h
3121 01-01-2009 00:31:53 -1.9 C 3.82 g/m*3 -1.9 C 0 km/h
3122 01-01-2009 00:43:53 -1.8 C 3.85 g/m*3 -1.8 C 0 km/h
3123 01-01-2009 00:55:53 -1.7 C 3.87 g/m*3 -1.7 C 0 km/h
3124 01-01-2009 01:07:54 -1.3 C 4.03 g/m*3 -1.3 C 0 km/h
3125 01-01-2009 01:19:54 -1.1 C 4.04 g/m*3 -1.1 C 0 km/h
Sensor: Nr:Datum:Temp:Abs-Feuchte:Windchill:Wind:
Aussen-T/F 3126 01-01-2009 01:31:54 -0.9 C 4.05 g/m*3 -0.9 C 0 km/h
3127 01-01-2009 01:43:54 -0.9 C 3.91 g/m*3 -0.9 C 0 km/h
3128 01-01-2009 01:55:54 -0.8 C 3.9 g/m*3 -0.8 C 0 km/h
3129 01-01-2009 02:07:54 -0.9 C 3.82 g/m*3 -0.9 C 0 km/h
3130 01-01-2009 02:19:54 -0.8 C 3.8 g/m*3 -0.8 C 0 km/h
3131 01-01-2009 02:31:54 -0.9 C 3.78 g/m*3 -0.9 C 0 km/h
3132 01-01-2009 02:43:54 -0.9 C 3.78 g/m*3 -0.9 C 0 km/h
3133 01-01-2009 02:55:54 -1 C 3.75 g/m*3 -1 C 0 km/h
3134 01-01-2009 03:07:54 -1.1 C 3.73 g/m*3 -1.1 C 0 km/h
3135 01-01-2009 03:19:53 -1.1 C 3.77 g/m*3 -1.1 C 0 km/h
3136 01-01-2009 03:31:53 -1.5 C 3.62 g/m*3 -1.5 C 0 km/h
3137 01-01-2009 03:43:53 -1.8 C 3.55 g/m*3 -1.8 C 0 km/h
3138 01-01-2009 03:55:53 -2 C 3.5 g/m*3 -2 C 0 km/h
3139 01-01-2009 04:07:53 -2.1 C 3.52 g/m*3 -2.1 C 0 km/h
3140 01-01-2009 04:19:53 -2.1 C 3.52 g/m*3 -2.1 C 0 km/h
3141 01-01-2009 04:31:52 -2.1 C 3.52 g/m*3 -2.1 C 0 km/h
3142 01-01-2009 04:43:52 -2.1 C 3.52 g/m*3 -2.1 C 0 km/h
3143 01-01-2009 04:55:52 -2.1 C 3.52 g/m*3 -2.1 C 0 km/h
3144 01-01-2009 05:07:53 -2 C 3.54 g/m*3 -2 C 0 km/h
3145 01-01-2009 05:19:52 -2 C 3.54 g/m*3 -2 C 0 km/h
3146 01-01-2009 05:31:52 -2 C 3.54 g/m*3 -2 C 0 km/h
3147 01-01-2009 05:43:53 -2.2 C 3.41 g/m*3 -2.2 C 0 km/h
3148 01-01-2009 05:55:52 -2.3 C 3.38 g/m*3 -2.3 C 0 km/h
3149 01-01-2009 06:07:51 -2.4 C 3.32 g/m*3 -2.4 C 0 km/h
3150 01-01-2009 06:19:52 -2.6 C 3.27 g/m*3 -2.6 C 0 km/h
Sensor: Nr:Datum:Temp:Abs-Feuchte:Windchill:Wind:
Aussen-T/F 3151 01-01-2009 06:31:52 -2.8 C 3.23 g/m*3 -2.8 C 0 km/h
3152 01-01-2009 06:43:52 -3.3 C 3.11 g/m*3 -3.3 C 0 km/h
3153 01-01-2009 06:55:51 -3.6 C 3.05 g/m*3 -3.6 C 0 km/h
3154 01-01-2009 07:07:52 -3.8 C 3.01 g/m*3 -3.8 C 0 km/h
3155 01-01-2009 07:19:51 -3.8 C 3.01 g/m*3 -3.8 C 0 km/h
3156 01-01-2009 07:31:51 -3.9 C 2.98 g/m*3 -3.9 C 0 km/h
3157 01-01-2009 07:43:51 -3.9 C 2.98 g/m*3 -3.9 C 0 km/h
3158 01-01-2009 07:55:51 -3.9 C 2.98 g/m*3 -3.9 C 0 km/h
3159 01-01-2009 08:07:51 -4.2 C 2.89 g/m*3 -4.2 C 0 km/h
3160 01-01-2009 08:19:51 -4.4 C 2.84 g/m*3 -4.4 C 0 km/h
3161 01-01-2009 08:31:50 -4.5 C 2.82 g/m*3 -4.5 C 0 km/h
3162 01-01-2009 08:43:50 -4.6 C 2.77 g/m*3 -4.6 C 0 km/h
3163 01-01-2009 08:55:51 -4.7 C 2.75 g/m*3 -4.7 C 0 km/h
3164 01-01-2009 09:07:50 -4.6 C 2.8 g/m*3 -4.6 C 0 km/h
3165 01-01-2009 09:19:50 -4.6 C 2.8 g/m*3 -4.6 C 0 km/h
3166 01-01-2009 09:31:50 -4.5 C 2.82 g/m*3 -4.5 C 0 km/h
3167 01-01-2009 09:43:50 -4.5 C 2.79 g/m*3 -4.5 C 0 km/h
3168 01-01-2009 09:55:50 -4.2 C 2.85 g/m*3 -4.2 C 0 km/h
3169 01-01-2009 10:07:49 -4.2 C 2.85 g/m*3 -4.2 C 0 km/h
3170 01-01-2009 10:19:50 -4.2 C 2.81 g/m*3 -4.2 C 0 km/h
3171 01-01-2009 10:31:50 -4.1 C 2.83 g/m*3 -4.1 C 0 km/h
3172 01-01-2009 10:43:50 -4.1 C 2.8 g/m*3 -4.1 C 0 km/h
3173 01-01-2009 10:55:49 -4.3 C 2.69 g/m*3 -4.3 C 0 km/h
3174 01-01-2009 11:07:50 -4.3 C 2.69 g/m*3 -4.3 C 0 km/h
3175 01-01-2009 11:19:49 -4 C 2.74 g/m*3 -4 C 0 km/h
Sensor: Nr:Datum:Temp:Abs-Feuchte:Windchill:Wind:
Aussen-T/F 3176 01-01-2009 11:31:49 -4 C 2.71 g/m*3 -4 C 0 km/h
3177 01-01-2009 11:43:49 -4.1 C 2.65 g/m*3 -4.1 C 0 km/h
3178 01-01-2009 11:55:48 -4.1 C 2.69 g/m*3 -4.1 C 0 km/h
3179 01-01-2009 12:07:49 -4.1 C 2.69 g/m*3 -4.1 C 0 km/h
3180 01-01-2009 12:19:48 -4.1 C 2.69 g/m*3 -4.1 C 0 km/h
3181 01-01-2009 12:31:48 -4.1 C 2.65 g/m*3 -4.1 C 0 km/h
3182 01-01-2009 12:43:48 -4 C 2.67 g/m*3 -4 C 0 km/h
3183 01-01-2009 12:55:48 -4 C 2.63 g/m*3 -4 C 0 km/h
3184 01-01-2009 13:07:48 -3.9 C 2.65 g/m*3 -3.9 C 0 km/h
3185 01-01-2009 13:19:48 -3.8 C 2.67 g/m*3 -3.8 C 0 km/h
3186 01-01-2009 13:31:48 -3.8 C 2.67 g/m*3 -3.8 C 0 km/h
3187 01-01-2009 13:43:48 -3.7 C 2.69 g/m*3 -3.7 C 0 km/h
3188 01-01-2009 13:55:48 -3.7 C 2.65 g/m*3 -3.7 C 0 km/h
3189 01-01-2009 14:07:47 -3.6 C 2.63 g/m*3 -3.6 C 0 km/h
3190 01-01-2009 14:19:48 -3.7 C 2.58 g/m*3 -3.7 C 0 km/h
3191 01-01-2009 14:31:01 -3.8 C 2.56 g/m*3 -3.8 C 0 km/h
3192 01-01-2009 14:43:01 -3.9 C 2.54 g/m*3 -3.9 C 0 km/h
3193 01-01-2009 14:55:02 -3.9 C 2.58 g/m*3 -3.9 C 0 km/h
3194 01-01-2009 15:07:01 -3.8 C 2.6 g/m*3 -3.8 C 0 km/h
3195 01-01-2009 15:19:01 -3.7 C 2.62 g/m*3 -3.7 C 0 km/h
3196 01-01-2009 15:31:01 -3.6 C 2.63 g/m*3 -3.6 C 0 km/h
3197 01-01-2009 15:43:01 -3.6 C 2.63 g/m*3 -3.6 C 0 km/h
3198 01-01-2009 15:55:01 -3.9 C 2.58 g/m*3 -3.9 C 0 km/h
3199 01-01-2009 16:07:00 -4.2 C 2.56 g/m*3 -4.2 C 0 km/h
3200 01-01-2009 16:19:00 -4.4 C 2.56 g/m*3 -4.4 C 0 km/h
Sensor: Nr:Datum:Temp:Abs-Feuchte:Windchill:Wind:
Aussen-T/F 3201 01-01-2009 16:31:01 -4.6 C 2.56 g/m*3 -4.6 C 0 km/h
3202 01-01-2009 16:43:01 -4.8 C 2.56 g/m*3 -4.8 C 0 km/h
3203 01-01-2009 16:55:00 -4.9 C 2.54 g/m*3 -4.9 C 0 km/h
3204 01-01-2009 17:07:00 -5.1 C 2.54 g/m*3 -5.1 C 0 km/h
3205 01-01-2009 17:19:00 -5.3 C 2.5 g/m*3 -5.3 C 0 km/h
3206 01-01-2009 17:31:59 -5.3 C 2.53 g/m*3 -5.3 C 0 km/h
3207 01-01-2009 17:42:59 -5 C 2.62 g/m*3 -5 C 0 km/h
3208 01-01-2009 17:55:00 -4.9 C 2.64 g/m*3 -4.9 C 0 km/h
3209 01-01-2009 18:07:59 -4.8 C 2.66 g/m*3 -4.8 C 0 km/h
3210 01-01-2009 18:19:59 -4.6 C 2.7 g/m*3 -4.6 C 0 km/h
3211 01-01-2009 18:31:00 -4.6 C 2.73 g/m*3 -4.6 C 0 km/h
3212 01-01-2009 18:43:00 -4.4 C 2.77 g/m*3 -4.4 C 0 km/h
3213 01-01-2009 18:55:59 -4.3 C 2.79 g/m*3 -4.3 C 0 km/h
3214 01-01-2009 19:07:59 -4.2 C 2.78 g/m*3 -4.2 C 0 km/h
3215 01-01-2009 19:19:59 -4.2 C 2.78 g/m*3 -4.2 C 0 km/h
3216 01-01-2009 19:31:59 -4.2 C 2.7 g/m*3 -4.2 C 0 km/h
3217 01-01-2009 19:44:00 -4.2 C 2.67 g/m*3 -4.2 C 0 km/h
3218 01-01-2009 19:55:58 -4.1 C 2.69 g/m*3 -4.1 C 0 km/h
3219 01-01-2009 20:07:59 -4.1 C 2.69 g/m*3 -4.1 C 0 km/h
3220 01-01-2009 20:19:58 -4.1 C 2.69 g/m*3 -4.1 C 0 km/h
3221 01-01-2009 20:31:58 -4 C 2.71 g/m*3 -4 C 0 km/h
3222 01-01-2009 20:43:58 -4 C 2.71 g/m*3 -4 C 0 km/h
3223 01-01-2009 20:55:58 -4 C 2.71 g/m*3 -4 C 0 km/h
3224 01-01-2009 21:07:58 -3.9 C 2.73 g/m*3 -3.9 C 0 km/h
3225 01-01-2009 21:19:58 -3.9 C 2.73 g/m*3 -3.9 C 0 km/h
Sensor: Nr:Datum:Temp:Abs-Feuchte:Windchill:Wind:
Aussen-T/F 3226 01-01-2009 21:31:57 -3.9 C 2.73 g/m*3 -3.9 C 0 km/h
3227 01-01-2009 21:43:57 -3.9 C 2.73 g/m*3 -3.9 C 0 km/h
3228 01-01-2009 21:55:58 -3.9 C 2.73 g/m*3 -3.9 C 0 km/h
3229 01-01-2009 22:07:57 -3.9 C 2.73 g/m*3 -3.9 C 0 km/h
3230 01-01-2009 22:20:58 -3.9 C 2.76 g/m*3 -3.9 C 0 km/h
3231 01-01-2009 22:32:58 -3.9 C 2.76 g/m*3 -3.9 C 0 km/h
3232 01-01-2009 22:44:59 -3.9 C 2.76 g/m*3 -3.9 C 0 km/h
3233 01-01-2009 22:56:59 -4 C 2.78 g/m*3 -4 C 0 km/h
3234 01-01-2009 23:08:59 -4 C 2.78 g/m*3 -4 C 0 km/h
3235 01-01-2009 23:20:59 -3.9 C 2.8 g/m*3 -3.9 C 0 km/h
3236 01-01-2009 23:32:59 -3.9 C 2.8 g/m*3 -3.9 C 0 km/h
3237 01-01-2009 23:44:59 -4 C 2.78 g/m*3 -4 C 0 km/h
3238 01-01-2009 23:56:59 -4.1 C 2.76 g/m*3 -4.1 C 0 km/h
3239 02-01-2009 00:08:59 -4 C 2.78 g/m*3 -4 C 0 km/h
3240 02-01-2009 00:20:59 -4 C 2.78 g/m*3 -4 C 0 km/h
3241 02-01-2009 00:32:59 -4.1 C 2.76 g/m*3 -4.1 C 0 km/h
3242 02-01-2009 00:44:59 -4.1 C 2.76 g/m*3 -4.1 C 0 km/h
3243 02-01-2009 00:56:59 -4 C 2.78 g/m*3 -4 C 0 km/h
3244 02-01-2009 01:08:59 -4 C 2.78 g/m*3 -4 C 0 km/h
3245 02-01-2009 01:20:59 -4 C 2.78 g/m*3 -4 C 0 km/h
3246 02-01-2009 01:32:59 -4 C 2.78 g/m*3 -4 C 0 km/h
3247